Saint Francis River (Missouri), Saco (07036100)

StateMissouriLatestLow (299 cfs)
RiverSaint Francis RiverRatingObservedEstimated
Updated2020-08-15 2:00 (21 minutes ago)Flood - The river is flooding. Obstacles can be treacherous or deadly. The river should be avoided at this stage for casual trips and definitely for the inexperienced. Trips should be attempted only with protective gear and equipment.Flood(none)4443
Discharge299 cfs (median: 51 cfs)High - The river is high and potentially dangerous, especially for the young and / or inexperienced. Normal stream obstacles are sometimes difficult to navigate. Extended distances can be attempted, but canoe travel may not be advisable.High(none)1847
Height2.96 feetGood - Conditions are ideal for a canoe or kayak. Boats typically will drag on fewer than one-quarter of riffles, if at all, and portages are unnecessary or rare. Normal float lengths can be attempted without a problem.Good(none)670
TrendSteady (falling over 24 hours)Low - River is low but can still be floated. Some riffles are okay but most come with significant dragging and might need a portage. Float lengths should be reduced to accommodate low flow, dragging, and portages.Low(none)183
USGSExternal icon USGS Site (External icon Google Maps)Poor - River is too low to float comfortably. Most or all riffles will drag or must be portaged and some obstacles (such as slick shelf rock) cause undue problems. Avoid the river at this stage for casual paddling trips.Poor(none)45

Trending Data

Plot Image

Trips for Saint Francis River (Missouri), Saco (07036100)

DateStartEndDistanceConditionDischargeHeightFishingDetails

A total of 0 rows are displayed.

Condition Descriptions

Fishing Conditions

Fish Species

Notes

Classic Trip List

The classic River Trips application is still available for use. It is updated with the new system using a data retrofit. It is no longer maintained. The original River Trips application is no longer updated (as of 1 Dec 2016) but can be checked for errors or for the condition of the data before it was converted to the new system.

Gauge Data Table

ObservationHeightDischargeMaximum
Discharge
Minimum
Discharge
Mean
Discharge
P05P10P20P25P50
(Median)
P75P80P90P95
2020-08-15 02:00 2.96 299 18600 (2016) 4 (2012) 764 6 10 26 30 51 94 101 356 10100
2020-08-15 01:30 2.96 299 18600 (2016) 4 (2012) 764 6 10 26 30 51 94 101 356 10100
2020-08-15 01:00 2.97 302 18600 (2016) 4 (2012) 764 6 10 26 30 51 94 101 356 10100
2020-08-15 00:30 2.97 302 18600 (2016) 4 (2012) 764 6 10 26 30 51 94 101 356 10100
2020-08-15 00:00 2.98 305 18600 (2016) 4 (2012) 764 6 10 26 30 51 94 101 356 10100
2020-08-14 23:30 2.98 305 1310 (2016) 5 (2012) 136 6 10 17 29 51 107 120 462 966
2020-08-14 23:00 2.98 305 1310 (2016) 5 (2012) 136 6 10 17 29 51 107 120 462 966
2020-08-14 22:30 2.99 308 1310 (2016) 5 (2012) 136 6 10 17 29 51 107 120 462 966
2020-08-14 22:00 2.99 308 1310 (2016) 5 (2012) 136 6 10 17 29 51 107 120 462 966
2020-08-14 21:30 3.00 311 1310 (2016) 5 (2012) 136 6 10 17 29 51 107 120 462 966
2020-08-14 21:00 3.00 311 1310 (2016) 5 (2012) 136 6 10 17 29 51 107 120 462 966
2020-08-14 20:30 3.00 311 1310 (2016) 5 (2012) 136 6 10 17 29 51 107 120 462 966
2020-08-14 20:00 3.01 315 1310 (2016) 5 (2012) 136 6 10 17 29 51 107 120 462 966
2020-08-14 19:30 3.02 318 1310 (2016) 5 (2012) 136 6 10 17 29 51 107 120 462 966
2020-08-14 19:00 3.02 318 1310 (2016) 5 (2012) 136 6 10 17 29 51 107 120 462 966
2020-08-14 18:30 3.02 318 1310 (2016) 5 (2012) 136 6 10 17 29 51 107 120 462 966
2020-08-14 18:00 3.04 324 1310 (2016) 5 (2012) 136 6 10 17 29 51 107 120 462 966
2020-08-14 17:30 3.04 324 1310 (2016) 5 (2012) 136 6 10 17 29 51 107 120 462 966
2020-08-14 17:00 3.05 327 1310 (2016) 5 (2012) 136 6 10 17 29 51 107 120 462 966
2020-08-14 16:30 3.05 327 1310 (2016) 5 (2012) 136 6 10 17 29 51 107 120 462 966
2020-08-14 16:00 3.05 327 1310 (2016) 5 (2012) 136 6 10 17 29 51 107 120 462 966
2020-08-14 15:30 3.07 333 1310 (2016) 5 (2012) 136 6 10 17 29 51 107 120 462 966
2020-08-14 15:00 3.06 330 1310 (2016) 5 (2012) 136 6 10 17 29 51 107 120 462 966
2020-08-14 14:30 3.07 333 1310 (2016) 5 (2012) 136 6 10 17 29 51 107 120 462 966
2020-08-14 14:00 3.08 337 1310 (2016) 5 (2012) 136 6 10 17 29 51 107 120 462 966
2020-08-14 13:30 3.06 330 1310 (2016) 5 (2012) 136 6 10 17 29 51 107 120 462 966
2020-08-14 13:00 3.09 340 1310 (2016) 5 (2012) 136 6 10 17 29 51 107 120 462 966
2020-08-14 12:30 3.08 337 1310 (2016) 5 (2012) 136 6 10 17 29 51 107 120 462 966
2020-08-14 12:00 3.09 340 1310 (2016) 5 (2012) 136 6 10 17 29 51 107 120 462 966
2020-08-14 11:30 3.10 343 1310 (2016) 5 (2012) 136 6 10 17 29 51 107 120 462 966
2020-08-14 11:00 3.09 340 1310 (2016) 5 (2012) 136 6 10 17 29 51 107 120 462 966
2020-08-14 10:30 3.10 343 1310 (2016) 5 (2012) 136 6 10 17 29 51 107 120 462 966
2020-08-14 10:00 3.11 346 1310 (2016) 5 (2012) 136 6 10 17 29 51 107 120 462 966
2020-08-14 09:30 3.11 346 1310 (2016) 5 (2012) 136 6 10 17 29 51 107 120 462 966
2020-08-14 09:00 3.11 346 1310 (2016) 5 (2012) 136 6 10 17 29 51 107 120 462 966
2020-08-14 08:30 3.12 350 1310 (2016) 5 (2012) 136 6 10 17 29 51 107 120 462 966
2020-08-14 08:00 3.12 350 1310 (2016) 5 (2012) 136 6 10 17 29 51 107 120 462 966
2020-08-14 07:30 3.13 353 1310 (2016) 5 (2012) 136 6 10 17 29 51 107 120 462 966
2020-08-14 07:00 3.13 353 1310 (2016) 5 (2012) 136 6 10 17 29 51 107 120 462 966
2020-08-14 06:30 3.13 353 1310 (2016) 5 (2012) 136 6 10 17 29 51 107 120 462 966
2020-08-14 06:00 3.14 356 1310 (2016) 5 (2012) 136 6 10 17 29 51 107 120 462 966
2020-08-14 05:30 3.14 356 1310 (2016) 5 (2012) 136 6 10 17 29 51 107 120 462 966
2020-08-14 05:00 3.14 356 1310 (2016) 5 (2012) 136 6 10 17 29 51 107 120 462 966
2020-08-14 04:30 3.15 360 1310 (2016) 5 (2012) 136 6 10 17 29 51 107 120 462 966
2020-08-14 04:00 3.16 363 1310 (2016) 5 (2012) 136 6 10 17 29 51 107 120 462 966
2020-08-14 03:30 3.16 363 1310 (2016) 5 (2012) 136 6 10 17 29 51 107 120 462 966
2020-08-14 03:00 3.16 363 1310 (2016) 5 (2012) 136 6 10 17 29 51 107 120 462 966
2020-08-14 02:30 3.17 366 1310 (2016) 5 (2012) 136 6 10 17 29 51 107 120 462 966
2020-08-14 02:00 3.17 366 1310 (2016) 5 (2012) 136 6 10 17 29 51 107 120 462 966
2020-08-14 01:30 3.17 366 1310 (2016) 5 (2012) 136 6 10 17 29 51 107 120 462 966
2020-08-14 01:00 3.18 370 1310 (2016) 5 (2012) 136 6 10 17 29 51 107 120 462 966
2020-08-14 00:30 3.18 370 1310 (2016) 5 (2012) 136 6 10 17 29 51 107 120 462 966
2020-08-14 00:00 3.19 373 1310 (2016) 5 (2012) 136 6 10 17 29 51 107 120 462 966
2020-08-13 23:30 3.19 373 2530 (1993) 5 (2012) 175 7 10 14 28 54 103 164 388 1560
2020-08-13 23:00 3.20 377 2530 (1993) 5 (2012) 175 7 10 14 28 54 103 164 388 1560
2020-08-13 22:30 3.20 377 2530 (1993) 5 (2012) 175 7 10 14 28 54 103 164 388 1560
2020-08-13 22:00 3.21 380 2530 (1993) 5 (2012) 175 7 10 14 28 54 103 164 388 1560
2020-08-13 21:30 3.21 380 2530 (1993) 5 (2012) 175 7 10 14 28 54 103 164 388 1560
2020-08-13 21:00 3.22 383 2530 (1993) 5 (2012) 175 7 10 14 28 54 103 164 388 1560
2020-08-13 20:30 3.23 387 2530 (1993) 5 (2012) 175 7 10 14 28 54 103 164 388 1560
2020-08-13 20:00 3.23 387 2530 (1993) 5 (2012) 175 7 10 14 28 54 103 164 388 1560
2020-08-13 19:30 3.23 387 2530 (1993) 5 (2012) 175 7 10 14 28 54 103 164 388 1560
2020-08-13 19:00 3.24 390 2530 (1993) 5 (2012) 175 7 10 14 28 54 103 164 388 1560
2020-08-13 18:30 3.25 394 2530 (1993) 5 (2012) 175 7 10 14 28 54 103 164 388 1560
2020-08-13 18:00 3.26 397 2530 (1993) 5 (2012) 175 7 10 14 28 54 103 164 388 1560
2020-08-13 17:30 3.26 397 2530 (1993) 5 (2012) 175 7 10 14 28 54 103 164 388 1560
2020-08-13 17:00 3.27 401 2530 (1993) 5 (2012) 175 7 10 14 28 54 103 164 388 1560
2020-08-13 16:30 3.28 404 2530 (1993) 5 (2012) 175 7 10 14 28 54 103 164 388 1560
2020-08-13 16:00 3.29 408 2530 (1993) 5 (2012) 175 7 10 14 28 54 103 164 388 1560
2020-08-13 15:30 3.29 408 2530 (1993) 5 (2012) 175 7 10 14 28 54 103 164 388 1560
2020-08-13 15:00 3.30 412 2530 (1993) 5 (2012) 175 7 10 14 28 54 103 164 388 1560
2020-08-13 14:30 3.28 404 2530 (1993) 5 (2012) 175 7 10 14 28 54 103 164 388 1560
2020-08-13 14:00 3.31 415 2530 (1993) 5 (2012) 175 7 10 14 28 54 103 164 388 1560
2020-08-13 13:30 3.32 419 2530 (1993) 5 (2012) 175 7 10 14 28 54 103 164 388 1560
2020-08-13 13:00 3.33 422 2530 (1993) 5 (2012) 175 7 10 14 28 54 103 164 388 1560
2020-08-13 12:30 3.34 426 2530 (1993) 5 (2012) 175 7 10 14 28 54 103 164 388 1560
2020-08-13 11:30 3.35 430 2530 (1993) 5 (2012) 175 7 10 14 28 54 103 164 388 1560
2020-08-13 11:00 3.36 433 2530 (1993) 5 (2012) 175 7 10 14 28 54 103 164 388 1560
2020-08-13 10:30 3.37 437 2530 (1993) 5 (2012) 175 7 10 14 28 54 103 164 388 1560
2020-08-13 10:00 3.38 441 2530 (1993) 5 (2012) 175 7 10 14 28 54 103 164 388 1560
2020-08-13 09:30 3.40 448 2530 (1993) 5 (2012) 175 7 10 14 28 54 103 164 388 1560
2020-08-13 09:00 3.40 448 2530 (1993) 5 (2012) 175 7 10 14 28 54 103 164 388 1560
2020-08-13 08:30 3.42 456 2530 (1993) 5 (2012) 175 7 10 14 28 54 103 164 388 1560
2020-08-13 08:00 3.43 460 2530 (1993) 5 (2012) 175 7 10 14 28 54 103 164 388 1560
2020-08-13 07:30 3.44 463 2530 (1993) 5 (2012) 175 7 10 14 28 54 103 164 388 1560
2020-08-13 07:00 3.46 471 2530 (1993) 5 (2012) 175 7 10 14 28 54 103 164 388 1560
2020-08-13 06:30 3.47 475 2530 (1993) 5 (2012) 175 7 10 14 28 54 103 164 388 1560
2020-08-13 06:00 3.49 483 2530 (1993) 5 (2012) 175 7 10 14 28 54 103 164 388 1560
2020-08-13 05:30 3.51 491 2530 (1993) 5 (2012) 175 7 10 14 28 54 103 164 388 1560
2020-08-13 05:00 3.52 495 2530 (1993) 5 (2012) 175 7 10 14 28 54 103 164 388 1560
2020-08-13 04:30 3.53 499 2530 (1993) 5 (2012) 175 7 10 14 28 54 103 164 388 1560
2020-08-13 04:00 3.55 506 2530 (1993) 5 (2012) 175 7 10 14 28 54 103 164 388 1560
2020-08-13 03:30 3.57 515 2530 (1993) 5 (2012) 175 7 10 14 28 54 103 164 388 1560
2020-08-13 03:00 3.59 523 2530 (1993) 5 (2012) 175 7 10 14 28 54 103 164 388 1560
2020-08-13 02:30 3.61 531 2530 (1993) 5 (2012) 175 7 10 14 28 54 103 164 388 1560
2020-08-13 02:00 3.63 539 2530 (1993) 5 (2012) 175 7 10 14 28 54 103 164 388 1560
2020-08-13 01:30 3.65 547 2530 (1993) 5 (2012) 175 7 10 14 28 54 103 164 388 1560
2020-08-13 01:00 3.67 556 2530 (1993) 5 (2012) 175 7 10 14 28 54 103 164 388 1560
2020-08-13 00:30 3.69 564 2530 (1993) 5 (2012) 175 7 10 14 28 54 103 164 388 1560
2020-08-13 00:00 3.71 573 2530 (1993) 5 (2012) 175 7 10 14 28 54 103 164 388 1560
2020-08-12 23:30 3.74 586 894 (2013) 5 (2012) 122 7 10 17 32 63 98 129 362 742
2020-08-12 23:00 3.76 594 894 (2013) 5 (2012) 122 7 10 17 32 63 98 129 362 742
2020-08-12 22:30 3.79 608 894 (2013) 5 (2012) 122 7 10 17 32 63 98 129 362 742
2020-08-12 22:00 3.82 621 894 (2013) 5 (2012) 122 7 10 17 32 63 98 129 362 742
2020-08-12 21:30 3.85 635 894 (2013) 5 (2012) 122 7 10 17 32 63 98 129 362 742
2020-08-12 21:00 3.87 644 894 (2013) 5 (2012) 122 7 10 17 32 63 98 129 362 742
2020-08-12 20:30 3.90 657 894 (2013) 5 (2012) 122 7 10 17 32 63 98 129 362 742
2020-08-12 20:00 3.93 671 894 (2013) 5 (2012) 122 7 10 17 32 63 98 129 362 742
2020-08-12 19:30 3.96 685 894 (2013) 5 (2012) 122 7 10 17 32 63 98 129 362 742
2020-08-12 19:00 3.98 695 894 (2013) 5 (2012) 122 7 10 17 32 63 98 129 362 742
2020-08-12 18:30 4.01 709 894 (2013) 5 (2012) 122 7 10 17 32 63 98 129 362 742
2020-08-12 18:00 4.03 718 894 (2013) 5 (2012) 122 7 10 17 32 63 98 129 362 742
2020-08-12 17:30 4.05 728 894 (2013) 5 (2012) 122 7 10 17 32 63 98 129 362 742
2020-08-12 17:00 4.05 728 894 (2013) 5 (2012) 122 7 10 17 32 63 98 129 362 742
2020-08-12 16:30 4.04 723 894 (2013) 5 (2012) 122 7 10 17 32 63 98 129 362 742
2020-08-12 16:00 4.01 709 894 (2013) 5 (2012) 122 7 10 17 32 63 98 129 362 742
2020-08-12 15:30 3.96 685 894 (2013) 5 (2012) 122 7 10 17 32 63 98 129 362 742
2020-08-12 15:00 3.92 667 894 (2013) 5 (2012) 122 7 10 17 32 63 98 129 362 742
2020-08-12 14:30 3.87 644 894 (2013) 5 (2012) 122 7 10 17 32 63 98 129 362 742
2020-08-12 14:00 3.84 630 894 (2013) 5 (2012) 122 7 10 17 32 63 98 129 362 742
2020-08-12 13:30 3.82 621 894 (2013) 5 (2012) 122 7 10 17 32 63 98 129 362 742
2020-08-12 13:00 3.81 617 894 (2013) 5 (2012) 122 7 10 17 32 63 98 129 362 742
2020-08-12 12:30 3.80 612 894 (2013) 5 (2012) 122 7 10 17 32 63 98 129 362 742
2020-08-12 12:00 3.80 612 894 (2013) 5 (2012) 122 7 10 17 32 63 98 129 362 742
2020-08-12 11:30 3.78 603 894 (2013) 5 (2012) 122 7 10 17 32 63 98 129 362 742
2020-08-12 11:00 3.75 590 894 (2013) 5 (2012) 122 7 10 17 32 63 98 129 362 742
2020-08-12 10:30 3.70 569 894 (2013) 5 (2012) 122 7 10 17 32 63 98 129 362 742
2020-08-12 10:00 3.64 543 894 (2013) 5 (2012) 122 7 10 17 32 63 98 129 362 742
2020-08-12 09:30 3.58 519 894 (2013) 5 (2012) 122 7 10 17 32 63 98 129 362 742
2020-08-12 09:00 3.52 495 894 (2013) 5 (2012) 122 7 10 17 32 63 98 129 362 742
2020-08-12 08:30 3.47 475 894 (2013) 5 (2012) 122 7 10 17 32 63 98 129 362 742
2020-08-12 08:00 3.44 463 894 (2013) 5 (2012) 122 7 10 17 32 63 98 129 362 742
2020-08-12 07:30 3.43 460 894 (2013) 5 (2012) 122 7 10 17 32 63 98 129 362 742
2020-08-12 07:00 3.41 452 894 (2013) 5 (2012) 122 7 10 17 32 63 98 129 362 742
2020-08-12 06:30 3.39 445 894 (2013) 5 (2012) 122 7 10 17 32 63 98 129 362 742
2020-08-12 06:00 3.38 441 894 (2013) 5 (2012) 122 7 10 17 32 63 98 129 362 742
2020-08-12 05:30 3.37 437 894 (2013) 5 (2012) 122 7 10 17 32 63 98 129 362 742
2020-08-12 05:00 3.36 433 894 (2013) 5 (2012) 122 7 10 17 32 63 98 129 362 742
2020-08-12 04:30 3.35 430 894 (2013) 5 (2012) 122 7 10 17 32 63 98 129 362 742
2020-08-12 04:00 3.34 426 894 (2013) 5 (2012) 122 7 10 17 32 63 98 129 362 742
2020-08-12 03:30 3.34 426 894 (2013) 5 (2012) 122 7 10 17 32 63 98 129 362 742
2020-08-12 03:00 3.34 426 894 (2013) 5 (2012) 122 7 10 17 32 63 98 129 362 742
2020-08-12 02:30 3.33 422 894 (2013) 5 (2012) 122 7 10 17 32 63 98 129 362 742
2020-08-12 02:00 3.34 426 894 (2013) 5 (2012) 122 7 10 17 32 63 98 129 362 742
2020-08-12 01:30 3.34 426 894 (2013) 5 (2012) 122 7 10 17 32 63 98 129 362 742
2020-08-12 01:00 3.34 426 894 (2013) 5 (2012) 122 7 10 17 32 63 98 129 362 742
2020-08-12 00:30 3.35 430 894 (2013) 5 (2012) 122 7 10 17 32 63 98 129 362 742
2020-08-12 00:00 3.34 426 894 (2013) 5 (2012) 122 7 10 17 32 63 98 129 362 742
2020-08-11 23:30 3.34 426 1930 (2013) 5 (2012) 193 7 11 14 32 53 132 173 291 1780
2020-08-11 23:00 3.34 426 1930 (2013) 5 (2012) 193 7 11 14 32 53 132 173 291 1780
2020-08-11 22:30 3.32 419 1930 (2013) 5 (2012) 193 7 11 14 32 53 132 173 291 1780
2020-08-11 22:00 3.31 415 1930 (2013) 5 (2012) 193 7 11 14 32 53 132 173 291 1780
2020-08-11 21:30 3.29 408 1930 (2013) 5 (2012) 193 7 11 14 32 53 132 173 291 1780
2020-08-11 21:00 3.25 394 1930 (2013) 5 (2012) 193 7 11 14 32 53 132 173 291 1780
2020-08-11 20:30 3.22 383 1930 (2013) 5 (2012) 193 7 11 14 32 53 132 173 291 1780
2020-08-11 20:00 3.20 377 1930 (2013) 5 (2012) 193 7 11 14 32 53 132 173 291 1780
2020-08-11 19:30 3.18 370 1930 (2013) 5 (2012) 193 7 11 14 32 53 132 173 291 1780
2020-08-11 19:00 3.16 363 1930 (2013) 5 (2012) 193 7 11 14 32 53 132 173 291 1780
2020-08-11 18:30 3.13 353 1930 (2013) 5 (2012) 193 7 11 14 32 53 132 173 291 1780
2020-08-11 18:00 3.11 346 1930 (2013) 5 (2012) 193 7 11 14 32 53 132 173 291 1780
2020-08-11 17:30 3.09 340 1930 (2013) 5 (2012) 193 7 11 14 32 53 132 173 291 1780
2020-08-11 17:00 3.09 340 1930 (2013) 5 (2012) 193 7 11 14 32 53 132 173 291 1780
2020-08-11 16:30 3.07 333 1930 (2013) 5 (2012) 193 7 11 14 32 53 132 173 291 1780
2020-08-11 16:00 3.06 330 1930 (2013) 5 (2012) 193 7 11 14 32 53 132 173 291 1780
2020-08-11 15:30 3.06 330 1930 (2013) 5 (2012) 193 7 11 14 32 53 132 173 291 1780
2020-08-11 15:00 3.06 330 1930 (2013) 5 (2012) 193 7 11 14 32 53 132 173 291 1780
2020-08-11 14:30 3.06 330 1930 (2013) 5 (2012) 193 7 11 14 32 53 132 173 291 1780
2020-08-11 14:00 3.04 324 1930 (2013) 5 (2012) 193 7 11 14 32 53 132 173 291 1780
2020-08-11 13:30 3.02 318 1930 (2013) 5 (2012) 193 7 11 14 32 53 132 173 291 1780
2020-08-11 13:00 3.03 321 1930 (2013) 5 (2012) 193 7 11 14 32 53 132 173 291 1780
2020-08-11 12:30 3.03 321 1930 (2013) 5 (2012) 193 7 11 14 32 53 132 173 291 1780
2020-08-11 12:00 3.04 324 1930 (2013) 5 (2012) 193 7 11 14 32 53 132 173 291 1780
2020-08-11 11:30 3.03 321 1930 (2013) 5 (2012) 193 7 11 14 32 53 132 173 291 1780
2020-08-11 11:00 3.04 324 1930 (2013) 5 (2012) 193 7 11 14 32 53 132 173 291 1780
2020-08-11 10:30 3.04 324 1930 (2013) 5 (2012) 193 7 11 14 32 53 132 173 291 1780
2020-08-11 10:00 3.04 324 1930 (2013) 5 (2012) 193 7 11 14 32 53 132 173 291 1780
2020-08-11 09:30 3.05 327 1930 (2013) 5 (2012) 193 7 11 14 32 53 132 173 291 1780
2020-08-11 09:00 3.05 327 1930 (2013) 5 (2012) 193 7 11 14 32 53 132 173 291 1780
2020-08-11 08:30 3.05 327 1930 (2013) 5 (2012) 193 7 11 14 32 53 132 173 291 1780
2020-08-11 08:00 3.06 330 1930 (2013) 5 (2012) 193 7 11 14 32 53 132 173 291 1780
2020-08-11 07:30 3.06 330 1930 (2013) 5 (2012) 193 7 11 14 32 53 132 173 291 1780
2020-08-11 07:00 3.07 333 1930 (2013) 5 (2012) 193 7 11 14 32 53 132 173 291 1780
2020-08-11 06:30 3.07 333 1930 (2013) 5 (2012) 193 7 11 14 32 53 132 173 291 1780
2020-08-11 06:00 3.08 337 1930 (2013) 5 (2012) 193 7 11 14 32 53 132 173 291 1780
2020-08-11 05:30 3.08 337 1930 (2013) 5 (2012) 193 7 11 14 32 53 132 173 291 1780
2020-08-11 05:00 3.09 340 1930 (2013) 5 (2012) 193 7 11 14 32 53 132 173 291 1780
2020-08-11 04:30 3.09 340 1930 (2013) 5 (2012) 193 7 11 14 32 53 132 173 291 1780
2020-08-11 04:00 3.10 343 1930 (2013) 5 (2012) 193 7 11 14 32 53 132 173 291 1780
2020-08-11 03:30 3.10 343 1930 (2013) 5 (2012) 193 7 11 14 32 53 132 173 291 1780
2020-08-11 03:00 3.11 346 1930 (2013) 5 (2012) 193 7 11 14 32 53 132 173 291 1780
2020-08-11 02:30 3.12 350 1930 (2013) 5 (2012) 193 7 11 14 32 53 132 173 291 1780
2020-08-11 02:00 3.12 350 1930 (2013) 5 (2012) 193 7 11 14 32 53 132 173 291 1780
2020-08-11 01:30 3.13 353 1930 (2013) 5 (2012) 193 7 11 14 32 53 132 173 291 1780
2020-08-11 01:00 3.14 356 1930 (2013) 5 (2012) 193 7 11 14 32 53 132 173 291 1780
2020-08-11 00:30 3.15 360 1930 (2013) 5 (2012) 193 7 11 14 32 53 132 173 291 1780
2020-08-11 00:00 3.15 360 1930 (2013) 5 (2012) 193 7 11 14 32 53 132 173 291 1780
2020-08-10 23:30 3.16 363 6970 (2013) 5 (2012) 390 7 11 15 32 60 176 259 322 4480
2020-08-10 23:00 3.17 366 6970 (2013) 5 (2012) 390 7 11 15 32 60 176 259 322 4480
2020-08-10 22:30 3.18 370 6970 (2013) 5 (2012) 390 7 11 15 32 60 176 259 322 4480
2020-08-10 22:00 3.19 373 6970 (2013) 5 (2012) 390 7 11 15 32 60 176 259 322 4480
2020-08-10 21:30 3.20 377 6970 (2013) 5 (2012) 390 7 11 15 32 60 176 259 322 4480
2020-08-10 21:00 3.21 380 6970 (2013) 5 (2012) 390 7 11 15 32 60 176 259 322 4480
2020-08-10 20:30 3.18 370 6970 (2013) 5 (2012) 390 7 11 15 32 60 176 259 322 4480
2020-08-10 20:00 3.21 380 6970 (2013) 5 (2012) 390 7 11 15 32 60 176 259 322 4480
2020-08-10 19:30 3.22 383 6970 (2013) 5 (2012) 390 7 11 15 32 60 176 259 322 4480
2020-08-10 19:00 3.24 390 6970 (2013) 5 (2012) 390 7 11 15 32 60 176 259 322 4480
2020-08-10 18:30 3.25 394 6970 (2013) 5 (2012) 390 7 11 15 32 60 176 259 322 4480
2020-08-10 18:00 3.26 397 6970 (2013) 5 (2012) 390 7 11 15 32 60 176 259 322 4480
2020-08-10 17:30 3.27 401 6970 (2013) 5 (2012) 390 7 11 15 32 60 176 259 322 4480
2020-08-10 17:00 3.29 408 6970 (2013) 5 (2012) 390 7 11 15 32 60 176 259 322 4480
2020-08-10 16:30 3.30 412 6970 (2013) 5 (2012) 390 7 11 15 32 60 176 259 322 4480
2020-08-10 16:00 3.31 415 6970 (2013) 5 (2012) 390 7 11 15 32 60 176 259 322 4480
2020-08-10 15:30 3.32 419 6970 (2013) 5 (2012) 390 7 11 15 32 60 176 259 322 4480
2020-08-10 15:00 3.32 419 6970 (2013) 5 (2012) 390 7 11 15 32 60 176 259 322 4480
2020-08-10 14:30 3.33 422 6970 (2013) 5 (2012) 390 7 11 15 32 60 176 259 322 4480
2020-08-10 14:00 3.34 426 6970 (2013) 5 (2012) 390 7 11 15 32 60 176 259 322 4480
2020-08-10 13:30 3.36 433 6970 (2013) 5 (2012) 390 7 11 15 32 60 176 259 322 4480
2020-08-10 13:00 3.36 433 6970 (2013) 5 (2012) 390 7 11 15 32 60 176 259 322 4480
2020-08-10 12:30 3.37 437 6970 (2013) 5 (2012) 390 7 11 15 32 60 176 259 322 4480
2020-08-10 12:00 3.39 445 6970 (2013) 5 (2012) 390 7 11 15 32 60 176 259 322 4480
2020-08-10 11:30 3.40 448 6970 (2013) 5 (2012) 390 7 11 15 32 60 176 259 322 4480
2020-08-10 11:00 3.41 452 6970 (2013) 5 (2012) 390 7 11 15 32 60 176 259 322 4480
2020-08-10 10:30 3.42 456 6970 (2013) 5 (2012) 390 7 11 15 32 60 176 259 322 4480
2020-08-10 10:00 3.43 460 6970 (2013) 5 (2012) 390 7 11 15 32 60 176 259 322 4480
2020-08-10 09:30 3.44 463 6970 (2013) 5 (2012) 390 7 11 15 32 60 176 259 322 4480
2020-08-10 09:00 3.45 467 6970 (2013) 5 (2012) 390 7 11 15 32 60 176 259 322 4480
2020-08-10 08:30 3.45 467 6970 (2013) 5 (2012) 390 7 11 15 32 60 176 259 322 4480
2020-08-10 08:00 3.46 471 6970 (2013) 5 (2012) 390 7 11 15 32 60 176 259 322 4480
2020-08-10 07:30 3.46 471 6970 (2013) 5 (2012) 390 7 11 15 32 60 176 259 322 4480
2020-08-10 07:00 3.47 475 6970 (2013) 5 (2012) 390 7 11 15 32 60 176 259 322 4480
2020-08-10 06:30 3.47 475 6970 (2013) 5 (2012) 390 7 11 15 32 60 176 259 322 4480
2020-08-10 06:00 3.46 471 6970 (2013) 5 (2012) 390 7 11 15 32 60 176 259 322 4480
2020-08-10 05:30 3.46 471 6970 (2013) 5 (2012) 390 7 11 15 32 60 176 259 322 4480
2020-08-10 05:00 3.44 463 6970 (2013) 5 (2012) 390 7 11 15 32 60 176 259 322 4480
2020-08-10 04:30 3.43 460 6970 (2013) 5 (2012) 390 7 11 15 32 60 176 259 322 4480
2020-08-10 04:00 3.41 452 6970 (2013) 5 (2012) 390 7 11 15 32 60 176 259 322 4480
2020-08-10 03:30 3.38 441 6970 (2013) 5 (2012) 390 7 11 15 32 60 176 259 322 4480
2020-08-10 03:00 3.35 430 6970 (2013) 5 (2012) 390 7 11 15 32 60 176 259 322 4480
2020-08-10 02:30 3.32 419 6970 (2013) 5 (2012) 390 7 11 15 32 60 176 259 322 4480
2020-08-10 02:00 3.29 408 6970 (2013) 5 (2012) 390 7 11 15 32 60 176 259 322 4480
2020-08-10 01:30 3.24 390 6970 (2013) 5 (2012) 390 7 11 15 32 60 176 259 322 4480
2020-08-10 01:00 3.18 370 6970 (2013) 5 (2012) 390 7 11 15 32 60 176 259 322 4480
2020-08-10 00:30 3.12 350 6970 (2013) 5 (2012) 390 7 11 15 32 60 176 259 322 4480
2020-08-10 00:00 3.06 330 6970 (2013) 5 (2012) 390 7 11 15 32 60 176 259 322 4480
2020-08-09 23:30 2.99 308 3390 (2013) 5 (2012) 198 8 12 17 30 58 130 155 232 1900
2020-08-09 23:00 2.91 284 3390 (2013) 5 (2012) 198 8 12 17 30 58 130 155 232 1900
2020-08-09 22:30 2.84 264 3390 (2013) 5 (2012) 198 8 12 17 30 58 130 155 232 1900
2020-08-09 22:00 2.76 242 3390 (2013) 5 (2012) 198 8 12 17 30 58 130 155 232 1900
2020-08-09 21:30 2.72 231 3390 (2013) 5 (2012) 198 8 12 17 30 58 130 155 232 1900
2020-08-09 21:00 2.69 224 3390 (2013) 5 (2012) 198 8 12 17 30 58 130 155 232 1900
2020-08-09 20:30 2.68 221 3390 (2013) 5 (2012) 198 8 12 17 30 58 130 155 232 1900
2020-08-09 20:00 2.67 218 3390 (2013) 5 (2012) 198 8 12 17 30 58 130 155 232 1900
2020-08-09 19:30 2.68 221 3390 (2013) 5 (2012) 198 8 12 17 30 58 130 155 232 1900
2020-08-09 19:00 2.68 221 3390 (2013) 5 (2012) 198 8 12 17 30 58 130 155 232 1900
2020-08-09 18:30 2.67 218 3390 (2013) 5 (2012) 198 8 12 17 30 58 130 155 232 1900
2020-08-09 18:00 2.68 221 3390 (2013) 5 (2012) 198 8 12 17 30 58 130 155 232 1900
2020-08-09 17:30 2.68 221 3390 (2013) 5 (2012) 198 8 12 17 30 58 130 155 232 1900
2020-08-09 17:00 2.68 221 3390 (2013) 5 (2012) 198 8 12 17 30 58 130 155 232 1900
2020-08-09 16:30 2.69 224 3390 (2013) 5 (2012) 198 8 12 17 30 58 130 155 232 1900
2020-08-09 16:00 2.69 224 3390 (2013) 5 (2012) 198 8 12 17 30 58 130 155 232 1900
2020-08-09 15:30 2.69 224 3390 (2013) 5 (2012) 198 8 12 17 30 58 130 155 232 1900
2020-08-09 15:00 2.69 224 3390 (2013) 5 (2012) 198 8 12 17 30 58 130 155 232 1900
2020-08-09 14:30 2.69 224 3390 (2013) 5 (2012) 198 8 12 17 30 58 130 155 232 1900
2020-08-09 14:00 2.69 224 3390 (2013) 5 (2012) 198 8 12 17 30 58 130 155 232 1900
2020-08-09 13:30 2.69 224 3390 (2013) 5 (2012) 198 8 12 17 30 58 130 155 232 1900
2020-08-09 13:00 2.69 224 3390 (2013) 5 (2012) 198 8 12 17 30 58 130 155 232 1900
2020-08-09 12:30 2.69 224 3390 (2013) 5 (2012) 198 8 12 17 30 58 130 155 232 1900
2020-08-09 12:00 2.69 224 3390 (2013) 5 (2012) 198 8 12 17 30 58 130 155 232 1900
2020-08-09 11:30 2.69 224 3390 (2013) 5 (2012) 198 8 12 17 30 58 130 155 232 1900
2020-08-09 11:00 2.69 224 3390 (2013) 5 (2012) 198 8 12 17 30 58 130 155 232 1900
2020-08-09 10:30 2.68 221 3390 (2013) 5 (2012) 198 8 12 17 30 58 130 155 232 1900
2020-08-09 10:00 2.68 221 3390 (2013) 5 (2012) 198 8 12 17 30 58 130 155 232 1900
2020-08-09 09:30 2.68 221 3390 (2013) 5 (2012) 198 8 12 17 30 58 130 155 232 1900
2020-08-09 09:00 2.68 221 3390 (2013) 5 (2012) 198 8 12 17 30 58 130 155 232 1900
2020-08-09 08:30 2.68 221 3390 (2013) 5 (2012) 198 8 12 17 30 58 130 155 232 1900
2020-08-09 08:00 2.68 221 3390 (2013) 5 (2012) 198 8 12 17 30 58 130 155 232 1900
2020-08-09 07:30 2.67 218 3390 (2013) 5 (2012) 198 8 12 17 30 58 130 155 232 1900
2020-08-09 07:00 2.67 218 3390 (2013) 5 (2012) 198 8 12 17 30 58 130 155 232 1900
2020-08-09 06:30 2.66 216 3390 (2013) 5 (2012) 198 8 12 17 30 58 130 155 232 1900
2020-08-09 06:00 2.66 216 3390 (2013) 5 (2012) 198 8 12 17 30 58 130 155 232 1900
2020-08-09 05:30 2.66 216 3390 (2013) 5 (2012) 198 8 12 17 30 58 130 155 232 1900
2020-08-09 05:00 2.65 213 3390 (2013) 5 (2012) 198 8 12 17 30 58 130 155 232 1900
2020-08-09 04:30 2.65 213 3390 (2013) 5 (2012) 198 8 12 17 30 58 130 155 232 1900
2020-08-09 04:00 2.65 213 3390 (2013) 5 (2012) 198 8 12 17 30 58 130 155 232 1900
2020-08-09 03:30 2.66 216 3390 (2013) 5 (2012) 198 8 12 17 30 58 130 155 232 1900
2020-08-09 03:00 2.66 216 3390 (2013) 5 (2012) 198 8 12 17 30 58 130 155 232 1900
2020-08-09 02:30 2.56 191 3390 (2013) 5 (2012) 198 8 12 17 30 58 130 155 232 1900
2020-08-09 02:00 2.66 216 3390 (2013) 5 (2012) 198 8 12 17 30 58 130 155 232 1900
2020-08-09 01:30 2.66 216 3390 (2013) 5 (2012) 198 8 12 17 30 58 130 155 232 1900
2020-08-09 01:00 2.66 216 3390 (2013) 5 (2012) 198 8 12 17 30 58 130 155 232 1900
2020-08-09 00:30 2.66 216 3390 (2013) 5 (2012) 198 8 12 17 30 58 130 155 232 1900
2020-08-09 00:00 2.66 216 3390 (2013) 5 (2012) 198 8 12 17 30 58 130 155 232 1900
2020-08-08 23:30 2.66 216 1030 (2013) 6 (2012) 115 9 13 20 26 52 104 119 193 781
2020-08-08 23:00 2.66 216 1030 (2013) 6 (2012) 115 9 13 20 26 52 104 119 193 781
2020-08-08 22:30 2.66 216 1030 (2013) 6 (2012) 115 9 13 20 26 52 104 119 193 781
2020-08-08 22:00 2.67 218 1030 (2013) 6 (2012) 115 9 13 20 26 52 104 119 193 781
2020-08-08 21:30 2.67 218 1030 (2013) 6 (2012) 115 9 13 20 26 52 104 119 193 781
2020-08-08 21:00 2.67 218 1030 (2013) 6 (2012) 115 9 13 20 26 52 104 119 193 781
2020-08-08 20:30 2.68 221 1030 (2013) 6 (2012) 115 9 13 20 26 52 104 119 193 781
2020-08-08 20:00 2.67 218 1030 (2013) 6 (2012) 115 9 13 20 26 52 104 119 193 781
2020-08-08 19:30 2.68 221 1030 (2013) 6 (2012) 115 9 13 20 26 52 104 119 193 781
2020-08-08 19:00 2.68 221 1030 (2013) 6 (2012) 115 9 13 20 26 52 104 119 193 781
2020-08-08 18:30 2.68 221 1030 (2013) 6 (2012) 115 9 13 20 26 52 104 119 193 781
2020-08-08 18:00 2.68 221 1030 (2013) 6 (2012) 115 9 13 20 26 52 104 119 193 781
2020-08-08 17:30 2.68 221 1030 (2013) 6 (2012) 115 9 13 20 26 52 104 119 193 781
2020-08-08 17:00 2.69 224 1030 (2013) 6 (2012) 115 9 13 20 26 52 104 119 193 781
2020-08-08 16:30 2.69 224 1030 (2013) 6 (2012) 115 9 13 20 26 52 104 119 193 781
2020-08-08 16:00 2.68 221 1030 (2013) 6 (2012) 115 9 13 20 26 52 104 119 193 781
2020-08-08 15:30 2.68 221 1030 (2013) 6 (2012) 115 9 13 20 26 52 104 119 193 781
2020-08-08 15:00 2.69 224 1030 (2013) 6 (2012) 115 9 13 20 26 52 104 119 193 781
2020-08-08 14:30 2.69 224 1030 (2013) 6 (2012) 115 9 13 20 26 52 104 119 193 781
2020-08-08 14:00 2.69 224 1030 (2013) 6 (2012) 115 9 13 20 26 52 104 119 193 781
2020-08-08 13:30 2.69 224 1030 (2013) 6 (2012) 115 9 13 20 26 52 104 119 193 781
2020-08-08 13:00 2.70 226 1030 (2013) 6 (2012) 115 9 13 20 26 52 104 119 193 781
2020-08-08 12:30 2.70 226 1030 (2013) 6 (2012) 115 9 13 20 26 52 104 119 193 781
2020-08-08 12:00 2.70 226 1030 (2013) 6 (2012) 115 9 13 20 26 52 104 119 193 781
2020-08-08 11:30 2.71 229 1030 (2013) 6 (2012) 115 9 13 20 26 52 104 119 193 781
2020-08-08 11:00 2.70 226 1030 (2013) 6 (2012) 115 9 13 20 26 52 104 119 193 781
2020-08-08 10:30 2.70 226 1030 (2013) 6 (2012) 115 9 13 20 26 52 104 119 193 781
2020-08-08 10:00 2.70 226 1030 (2013) 6 (2012) 115 9 13 20 26 52 104 119 193 781
2020-08-08 09:30 2.70 226 1030 (2013) 6 (2012) 115 9 13 20 26 52 104 119 193 781
2020-08-08 09:00 2.70 226 1030 (2013) 6 (2012) 115 9 13 20 26 52 104 119 193 781
2020-08-08 08:30 2.70 226 1030 (2013) 6 (2012) 115 9 13 20 26 52 104 119 193 781
2020-08-08 08:00 2.70 226 1030 (2013) 6 (2012) 115 9 13 20 26 52 104 119 193 781
2020-08-08 07:30 2.70 226 1030 (2013) 6 (2012) 115 9 13 20 26 52 104 119 193 781
2020-08-08 07:00 2.70 226 1030 (2013) 6 (2012) 115 9 13 20 26 52 104 119 193 781
2020-08-08 06:30 2.71 229 1030 (2013) 6 (2012) 115 9 13 20 26 52 104 119 193 781
2020-08-08 06:00 2.71 229 1030 (2013) 6 (2012) 115 9 13 20 26 52 104 119 193 781
2020-08-08 05:30 2.70 226 1030 (2013) 6 (2012) 115 9 13 20 26 52 104 119 193 781
2020-08-08 05:00 2.71 229 1030 (2013) 6 (2012) 115 9 13 20 26 52 104 119 193 781
2020-08-08 04:30 2.70 226 1030 (2013) 6 (2012) 115 9 13 20 26 52 104 119 193 781
2020-08-08 04:00 2.71 229 1030 (2013) 6 (2012) 115 9 13 20 26 52 104 119 193 781
2020-08-08 03:30 2.71 229 1030 (2013) 6 (2012) 115 9 13 20 26 52 104 119 193 781
2020-08-08 03:00 2.71 229 1030 (2013) 6 (2012) 115 9 13 20 26 52 104 119 193 781
2020-08-08 02:30 2.72 231 1030 (2013) 6 (2012) 115 9 13 20 26 52 104 119 193 781
2020-08-08 02:00 2.72 231 1030 (2013) 6 (2012) 115 9 13 20 26 52 104 119 193 781
2020-08-08 01:30 2.72 231 1030 (2013) 6 (2012) 115 9 13 20 26 52 104 119 193 781
2020-08-08 01:00 2.72 231 1030 (2013) 6 (2012) 115 9 13 20 26 52 104 119 193 781
2020-08-08 00:30 2.73 234 1030 (2013) 6 (2012) 115 9 13 20 26 52 104 119 193 781
2020-08-08 00:00 2.72 231 1030 (2013) 6 (2012) 115 9 13 20 26 52 104 119 193 781
2020-08-07 23:30 2.73 234 1730 (2013) 6 (2012) 153 10 15 21 25 50 123 133 269 1240
2020-08-07 23:00 2.73 234 1730 (2013) 6 (2012) 153 10 15 21 25 50 123 133 269 1240
2020-08-07 22:30 2.73 234 1730 (2013) 6 (2012) 153 10 15 21 25 50 123 133 269 1240
2020-08-07 22:00 2.73 234 1730 (2013) 6 (2012) 153 10 15 21 25 50 123 133 269 1240
2020-08-07 21:30 2.74 237 1730 (2013) 6 (2012) 153 10 15 21 25 50 123 133 269 1240
2020-08-07 21:00 2.74 237 1730 (2013) 6 (2012) 153 10 15 21 25 50 123 133 269 1240
2020-08-07 20:30 2.74 237 1730 (2013) 6 (2012) 153 10 15 21 25 50 123 133 269 1240
2020-08-07 20:00 2.74 237 1730 (2013) 6 (2012) 153 10 15 21 25 50 123 133 269 1240
2020-08-07 19:30 2.74 237 1730 (2013) 6 (2012) 153 10 15 21 25 50 123 133 269 1240
2020-08-07 19:00 2.74 237 1730 (2013) 6 (2012) 153 10 15 21 25 50 123 133 269 1240
2020-08-07 18:30 2.75 239 1730 (2013) 6 (2012) 153 10 15 21 25 50 123 133 269 1240
2020-08-07 18:00 2.75 239 1730 (2013) 6 (2012) 153 10 15 21 25 50 123 133 269 1240
2020-08-07 17:30 2.75 239 1730 (2013) 6 (2012) 153 10 15 21 25 50 123 133 269 1240
2020-08-07 17:00 2.76 242 1730 (2013) 6 (2012) 153 10 15 21 25 50 123 133 269 1240
2020-08-07 16:30 2.76 242 1730 (2013) 6 (2012) 153 10 15 21 25 50 123 133 269 1240
2020-08-07 16:00 2.76 242 1730 (2013) 6 (2012) 153 10 15 21 25 50 123 133 269 1240
2020-08-07 15:30 2.76 242 1730 (2013) 6 (2012) 153 10 15 21 25 50 123 133 269 1240
2020-08-07 15:00 2.77 245 1730 (2013) 6 (2012) 153 10 15 21 25 50 123 133 269 1240
2020-08-07 14:30 2.77 245 1730 (2013) 6 (2012) 153 10 15 21 25 50 123 133 269 1240
2020-08-07 14:00 2.77 245 1730 (2013) 6 (2012) 153 10 15 21 25 50 123 133 269 1240
2020-08-07 13:30 2.78 247 1730 (2013) 6 (2012) 153 10 15 21 25 50 123 133 269 1240
2020-08-07 13:00 2.78 247 1730 (2013) 6 (2012) 153 10 15 21 25 50 123 133 269 1240
2020-08-07 12:30 2.78 247 1730 (2013) 6 (2012) 153 10 15 21 25 50 123 133 269 1240
2020-08-07 12:00 2.78 247 1730 (2013) 6 (2012) 153 10 15 21 25 50 123 133 269 1240
2020-08-07 11:30 2.78 247 1730 (2013) 6 (2012) 153 10 15 21 25 50 123 133 269 1240
2020-08-07 11:00 2.78 247 1730 (2013) 6 (2012) 153 10 15 21 25 50 123 133 269 1240
2020-08-07 10:30 2.78 247 1730 (2013) 6 (2012) 153 10 15 21 25 50 123 133 269 1240
2020-08-07 10:00 2.78 247 1730 (2013) 6 (2012) 153 10 15 21 25 50 123 133 269 1240
2020-08-07 09:30 2.78 307 1730 (2013) 6 (2012) 153 10 15 21 25 50 123 133 269 1240
2020-08-07 09:00 2.78 307 1730 (2013) 6 (2012) 153 10 15 21 25 50 123 133 269 1240
2020-08-07 08:30 2.78 307 1730 (2013) 6 (2012) 153 10 15 21 25 50 123 133 269 1240
2020-08-07 08:00 2.78 307 1730 (2013) 6 (2012) 153 10 15 21 25 50 123 133 269 1240
2020-08-07 07:30 2.78 307 1730 (2013) 6 (2012) 153 10 15 21 25 50 123 133 269 1240
2020-08-07 07:00 2.78 307 1730 (2013) 6 (2012) 153 10 15 21 25 50 123 133 269 1240
2020-08-07 06:30 2.79 310 1730 (2013) 6 (2012) 153 10 15 21 25 50 123 133 269 1240
2020-08-07 06:00 2.79 310 1730 (2013) 6 (2012) 153 10 15 21 25 50 123 133 269 1240
2020-08-07 05:30 2.79 310 1730 (2013) 6 (2012) 153 10 15 21 25 50 123 133 269 1240
2020-08-07 05:00 2.80 313 1730 (2013) 6 (2012) 153 10 15 21 25 50 123 133 269 1240
2020-08-07 04:30 2.80 313 1730 (2013) 6 (2012) 153 10 15 21 25 50 123 133 269 1240
2020-08-07 04:00 2.80 313 1730 (2013) 6 (2012) 153 10 15 21 25 50 123 133 269 1240
2020-08-07 03:30 2.80 313 1730 (2013) 6 (2012) 153 10 15 21 25 50 123 133 269 1240
2020-08-07 03:00 2.80 313 1730 (2013) 6 (2012) 153 10 15 21 25 50 123 133 269 1240
2020-08-07 02:30 2.81 316 1730 (2013) 6 (2012) 153 10 15 21 25 50 123 133 269 1240
2020-08-07 02:00 2.81 316 1730 (2013) 6 (2012) 153 10 15 21 25 50 123 133 269 1240
2020-08-07 01:30 2.81 316 1730 (2013) 6 (2012) 153 10 15 21 25 50 123 133 269 1240
2020-08-07 01:00 2.81 316 1730 (2013) 6 (2012) 153 10 15 21 25 50 123 133 269 1240
2020-08-07 00:30 2.82 318 1730 (2013) 6 (2012) 153 10 15 21 25 50 123 133 269 1240
2020-08-07 00:00 2.82 318 1730 (2013) 6 (2012) 153 10 15 21 25 50 123 133 269 1240
2020-08-06 23:30 2.82 318 2170 (1985) 6 (2012) 139 10 15 20 21 41 110 131 172 1230
2020-08-06 23:00 2.82 318 2170 (1985) 6 (2012) 139 10 15 20 21 41 110 131 172 1230
2020-08-06 22:30 2.82 318 2170 (1985) 6 (2012) 139 10 15 20 21 41 110 131 172 1230
2020-08-06 22:00 2.83 321 2170 (1985) 6 (2012) 139 10 15 20 21 41 110 131 172 1230
2020-08-06 21:30 2.83 321 2170 (1985) 6 (2012) 139 10 15 20 21 41 110 131 172 1230
2020-08-06 21:00 2.83 321 2170 (1985) 6 (2012) 139 10 15 20 21 41 110 131 172 1230
2020-08-06 20:30 2.83 321 2170 (1985) 6 (2012) 139 10 15 20 21 41 110 131 172 1230
2020-08-06 20:00 2.83 321 2170 (1985) 6 (2012) 139 10 15 20 21 41 110 131 172 1230
2020-08-06 19:30 2.84 324 2170 (1985) 6 (2012) 139 10 15 20 21 41 110 131 172 1230
2020-08-06 19:00 2.84 324 2170 (1985) 6 (2012) 139 10 15 20 21 41 110 131 172 1230
2020-08-06 18:30 2.84 324 2170 (1985) 6 (2012) 139 10 15 20 21 41 110 131 172 1230
2020-08-06 18:00 2.85 326 2170 (1985) 6 (2012) 139 10 15 20 21 41 110 131 172 1230
2020-08-06 17:30 2.85 326 2170 (1985) 6 (2012) 139 10 15 20 21 41 110 131 172 1230
2020-08-06 17:00 2.86 329 2170 (1985) 6 (2012) 139 10 15 20 21 41 110 131 172 1230
2020-08-06 16:30 2.86 329 2170 (1985) 6 (2012) 139 10 15 20 21 41 110 131 172 1230
2020-08-06 16:00 2.87 332 2170 (1985) 6 (2012) 139 10 15 20 21 41 110 131 172 1230
2020-08-06 15:30 2.87 332 2170 (1985) 6 (2012) 139 10 15 20 21 41 110 131 172 1230
2020-08-06 15:00 2.87 332 2170 (1985) 6 (2012) 139 10 15 20 21 41 110 131 172 1230
2020-08-06 14:30 2.87 332 2170 (1985) 6 (2012) 139 10 15 20 21 41 110 131 172 1230
2020-08-06 14:00 2.88 335 2170 (1985) 6 (2012) 139 10 15 20 21 41 110 131 172 1230
2020-08-06 13:30 2.88 335 2170 (1985) 6 (2012) 139 10 15 20 21 41 110 131 172 1230
2020-08-06 13:00 2.87 332 2170 (1985) 6 (2012) 139 10 15 20 21 41 110 131 172 1230
2020-08-06 12:30 2.88 335 2170 (1985) 6 (2012) 139 10 15 20 21 41 110 131 172 1230
2020-08-06 12:00 2.88 335 2170 (1985) 6 (2012) 139 10 15 20 21 41 110 131 172 1230
2020-08-06 11:30 2.88 335 2170 (1985) 6 (2012) 139 10 15 20 21 41 110 131 172 1230
2020-08-06 11:00 2.88 335 2170 (1985) 6 (2012) 139 10 15 20 21 41 110 131 172 1230
2020-08-06 10:30 2.88 335 2170 (1985) 6 (2012) 139 10 15 20 21 41 110 131 172 1230
2020-08-06 10:00 2.89 338 2170 (1985) 6 (2012) 139 10 15 20 21 41 110 131 172 1230
2020-08-06 09:30 2.89 338 2170 (1985) 6 (2012) 139 10 15 20 21 41 110 131 172 1230
2020-08-06 09:00 2.88 335 2170 (1985) 6 (2012) 139 10 15 20 21 41 110 131 172 1230
2020-08-06 08:30 2.89 338 2170 (1985) 6 (2012) 139 10 15 20 21 41 110 131 172 1230
2020-08-06 08:00 2.89 338 2170 (1985) 6 (2012) 139 10 15 20 21 41 110 131 172 1230
2020-08-06 07:30 2.89 338 2170 (1985) 6 (2012) 139 10 15 20 21 41 110 131 172 1230
2020-08-06 07:00 2.89 338 2170 (1985) 6 (2012) 139 10 15 20 21 41 110 131 172 1230
2020-08-06 06:30 2.89 338 2170 (1985) 6 (2012) 139 10 15 20 21 41 110 131 172 1230
2020-08-06 06:00 2.90 340 2170 (1985) 6 (2012) 139 10 15 20 21 41 110 131 172 1230
2020-08-06 05:30 2.90 340 2170 (1985) 6 (2012) 139 10 15 20 21 41 110 131 172 1230
2020-08-06 05:00 2.90 340 2170 (1985) 6 (2012) 139 10 15 20 21 41 110 131 172 1230
2020-08-06 04:30 2.90 340 2170 (1985) 6 (2012) 139 10 15 20 21 41 110 131 172 1230
2020-08-06 04:00 2.91 343 2170 (1985) 6 (2012) 139 10 15 20 21 41 110 131 172 1230
2020-08-06 03:30 2.91 343 2170 (1985) 6 (2012) 139 10 15 20 21 41 110 131 172 1230
2020-08-06 03:00 2.91 343 2170 (1985) 6 (2012) 139 10 15 20 21 41 110 131 172 1230
2020-08-06 02:30 2.91 343 2170 (1985) 6 (2012) 139 10 15 20 21 41 110 131 172 1230
2020-08-06 02:00 2.92 346 2170 (1985) 6 (2012) 139 10 15 20 21 41 110 131 172 1230
2020-08-06 01:30 2.92 346 2170 (1985) 6 (2012) 139 10 15 20 21 41 110 131 172 1230
2020-08-06 01:00 2.92 346 2170 (1985) 6 (2012) 139 10 15 20 21 41 110 131 172 1230
2020-08-06 00:30 2.93 349 2170 (1985) 6 (2012) 139 10 15 20 21 41 110 131 172 1230
2020-08-06 00:00 2.93 349 2170 (1985) 6 (2012) 139 10 15 20 21 41 110 131 172 1230
2020-08-05 23:30 2.93 349 4490 (1985) 7 (2012) 216 9 15 20 22 45 97 117 196 2340
2020-08-05 23:00 2.93 349 4490 (1985) 7 (2012) 216 9 15 20 22 45 97 117 196 2340
2020-08-05 22:30 2.94 352 4490 (1985) 7 (2012) 216 9 15 20 22 45 97 117 196 2340
2020-08-05 22:00 2.94 352 4490 (1985) 7 (2012) 216 9 15 20 22 45 97 117 196 2340
2020-08-05 21:30 2.95 355 4490 (1985) 7 (2012) 216 9 15 20 22 45 97 117 196 2340
2020-08-05 21:00 2.95 355 4490 (1985) 7 (2012) 216 9 15 20 22 45 97 117 196 2340
2020-08-05 20:30 2.96 358 4490 (1985) 7 (2012) 216 9 15 20 22 45 97 117 196 2340
2020-08-05 20:00 2.96 358 4490 (1985) 7 (2012) 216 9 15 20 22 45 97 117 196 2340
2020-08-05 19:30 2.96 358 4490 (1985) 7 (2012) 216 9 15 20 22 45 97 117 196 2340
2020-08-05 19:00 2.97 360 4490 (1985) 7 (2012) 216 9 15 20 22 45 97 117 196 2340
2020-08-05 18:30 2.97 360 4490 (1985) 7 (2012) 216 9 15 20 22 45 97 117 196 2340
2020-08-05 18:00 2.98 363 4490 (1985) 7 (2012) 216 9 15 20 22 45 97 117 196 2340
2020-08-05 17:30 2.98 363 4490 (1985) 7 (2012) 216 9 15 20 22 45 97 117 196 2340
2020-08-05 17:00 2.99 366 4490 (1985) 7 (2012) 216 9 15 20 22 45 97 117 196 2340
2020-08-05 16:30 2.99 366 4490 (1985) 7 (2012) 216 9 15 20 22 45 97 117 196 2340
2020-08-05 16:00 2.99 366 4490 (1985) 7 (2012) 216 9 15 20 22 45 97 117 196 2340
2020-08-05 15:30 3.00 369 4490 (1985) 7 (2012) 216 9 15 20 22 45 97 117 196 2340
2020-08-05 15:00 3.00 369 4490 (1985) 7 (2012) 216 9 15 20 22 45 97 117 196 2340
2020-08-05 14:30 3.00 369 4490 (1985) 7 (2012) 216 9 15 20 22 45 97 117 196 2340
2020-08-05 14:00 3.01 372 4490 (1985) 7 (2012) 216 9 15 20 22 45 97 117 196 2340
2020-08-05 13:30 3.01 372 4490 (1985) 7 (2012) 216 9 15 20 22 45 97 117 196 2340
2020-08-05 13:00 3.01 372 4490 (1985) 7 (2012) 216 9 15 20 22 45 97 117 196 2340
2020-08-05 12:30 3.01 372 4490 (1985) 7 (2012) 216 9 15 20 22 45 97 117 196 2340
2020-08-05 12:00 3.02 375 4490 (1985) 7 (2012) 216 9 15 20 22 45 97 117 196 2340
2020-08-05 11:30 3.02 375 4490 (1985) 7 (2012) 216 9 15 20 22 45 97 117 196 2340
2020-08-05 11:00 3.03 378 4490 (1985) 7 (2012) 216 9 15 20 22 45 97 117 196 2340
2020-08-05 10:30 3.03 378 4490 (1985) 7 (2012) 216 9 15 20 22 45 97 117 196 2340
2020-08-05 10:00 3.03 378 4490 (1985) 7 (2012) 216 9 15 20 22 45 97 117 196 2340
2020-08-05 09:30 3.02 375 4490 (1985) 7 (2012) 216 9 15 20 22 45 97 117 196 2340
2020-08-05 09:00 3.03 378 4490 (1985) 7 (2012) 216 9 15 20 22 45 97 117 196 2340
2020-08-05 08:30 3.03 378 4490 (1985) 7 (2012) 216 9 15 20 22 45 97 117 196 2340
2020-08-05 08:00 3.03 378 4490 (1985) 7 (2012) 216 9 15 20 22 45 97 117 196 2340
2020-08-05 07:30 3.04 381 4490 (1985) 7 (2012) 216 9 15 20 22 45 97 117 196 2340
2020-08-05 07:00 3.04 381 4490 (1985) 7 (2012) 216 9 15 20 22 45 97 117 196 2340
2020-08-05 06:30 3.04 381 4490 (1985) 7 (2012) 216 9 15 20 22 45 97 117 196 2340
2020-08-05 06:00 3.05 384 4490 (1985) 7 (2012) 216 9 15 20 22 45 97 117 196 2340
2020-08-05 05:30 3.05 384 4490 (1985) 7 (2012) 216 9 15 20 22 45 97 117 196 2340
2020-08-05 05:00 3.06 387 4490 (1985) 7 (2012) 216 9 15 20 22 45 97 117 196 2340
2020-08-05 04:30 3.06 387 4490 (1985) 7 (2012) 216 9 15 20 22 45 97 117 196 2340
2020-08-05 04:00 3.07 390 4490 (1985) 7 (2012) 216 9 15 20 22 45 97 117 196 2340
2020-08-05 03:30 3.07 390 4490 (1985) 7 (2012) 216 9 15 20 22 45 97 117 196 2340
2020-08-05 03:00 3.07 390 4490 (1985) 7 (2012) 216 9 15 20 22 45 97 117 196 2340
2020-08-05 02:30 3.07 390 4490 (1985) 7 (2012) 216 9 15 20 22 45 97 117 196 2340
2020-08-05 02:00 3.08 393 4490 (1985) 7 (2012) 216 9 15 20 22 45 97 117 196 2340
2020-08-05 01:30 3.08 393 4490 (1985) 7 (2012) 216 9 15 20 22 45 97 117 196 2340
2020-08-05 01:00 3.09 396 4490 (1985) 7 (2012) 216 9 15 20 22 45 97 117 196 2340
2020-08-05 00:30 3.10 399 4490 (1985) 7 (2012) 216 9 15 20 22 45 97 117 196 2340
2020-08-05 00:00 3.10 399 4490 (1985) 7 (2012) 216 9 15 20 22 45 97 117 196 2340
2020-08-04 23:30 3.10 399 287 (1994) 6 (2012) 69 8 17 18 24 51 101 107 141 235
2020-08-04 23:00 3.11 402 287 (1994) 6 (2012) 69 8 17 18 24 51 101 107 141 235
2020-08-04 22:30 3.12 406 287 (1994) 6 (2012) 69 8 17 18 24 51 101 107 141 235
2020-08-04 22:00 3.12 406 287 (1994) 6 (2012) 69 8 17 18 24 51 101 107 141 235
2020-08-04 21:30 3.12 406 287 (1994) 6 (2012) 69 8 17 18 24 51 101 107 141 235
2020-08-04 21:00 3.13 409 287 (1994) 6 (2012) 69 8 17 18 24 51 101 107 141 235
2020-08-04 20:30 3.14 412 287 (1994) 6 (2012) 69 8 17 18 24 51 101 107 141 235
2020-08-04 20:00 3.14 412 287 (1994) 6 (2012) 69 8 17 18 24 51 101 107 141 235
2020-08-04 19:30 3.14 412 287 (1994) 6 (2012) 69 8 17 18 24 51 101 107 141 235
2020-08-04 19:00 3.15 415 287 (1994) 6 (2012) 69 8 17 18 24 51 101 107 141 235
2020-08-04 18:30 3.16 418 287 (1994) 6 (2012) 69 8 17 18 24 51 101 107 141 235
2020-08-04 18:00 3.16 418 287 (1994) 6 (2012) 69 8 17 18 24 51 101 107 141 235
2020-08-04 17:30 3.17 421 287 (1994) 6 (2012) 69 8 17 18 24 51 101 107 141 235
2020-08-04 17:00 3.18 424 287 (1994) 6 (2012) 69 8 17 18 24 51 101 107 141 235
2020-08-04 16:30 3.19 428 287 (1994) 6 (2012) 69 8 17 18 24 51 101 107 141 235
2020-08-04 16:00 3.19 428 287 (1994) 6 (2012) 69 8 17 18 24 51 101 107 141 235
2020-08-04 15:30 3.20 431 287 (1994) 6 (2012) 69 8 17 18 24 51 101 107 141 235
2020-08-04 15:00 3.21 434 287 (1994) 6 (2012) 69 8 17 18 24 51 101 107 141 235
2020-08-04 14:30 3.21 434 287 (1994) 6 (2012) 69 8 17 18 24 51 101 107 141 235
2020-08-04 14:00 3.22 437 287 (1994) 6 (2012) 69 8 17 18 24 51 101 107 141 235
2020-08-04 13:30 3.22 437 287 (1994) 6 (2012) 69 8 17 18 24 51 101 107 141 235
2020-08-04 13:00 3.23 440 287 (1994) 6 (2012) 69 8 17 18 24 51 101 107 141 235
2020-08-04 12:30 3.23 440 287 (1994) 6 (2012) 69 8 17 18 24 51 101 107 141 235
2020-08-04 12:00 3.24 444 287 (1994) 6 (2012) 69 8 17 18 24 51 101 107 141 235
2020-08-04 11:30 3.24 444 287 (1994) 6 (2012) 69 8 17 18 24 51 101 107 141 235
2020-08-04 11:00 3.25 447 287 (1994) 6 (2012) 69 8 17 18 24 51 101 107 141 235
2020-08-04 10:30 3.26 450 287 (1994) 6 (2012) 69 8 17 18 24 51 101 107 141 235
2020-08-04 10:00 3.26 450 287 (1994) 6 (2012) 69 8 17 18 24 51 101 107 141 235
2020-08-04 09:30 3.26 450 287 (1994) 6 (2012) 69 8 17 18 24 51 101 107 141 235
2020-08-04 09:00 3.27 453 287 (1994) 6 (2012) 69 8 17 18 24 51 101 107 141 235
2020-08-04 08:30 3.27 453 287 (1994) 6 (2012) 69 8 17 18 24 51 101 107 141 235
2020-08-04 08:00 3.28 457 287 (1994) 6 (2012) 69 8 17 18 24 51 101 107 141 235
2020-08-04 07:30 3.28 457 287 (1994) 6 (2012) 69 8 17 18 24 51 101 107 141 235
2020-08-04 07:00 3.28 457 287 (1994) 6 (2012) 69 8 17 18 24 51 101 107 141 235
2020-08-04 06:30 3.29 460 287 (1994) 6 (2012) 69 8 17 18 24 51 101 107 141 235
2020-08-04 06:00 3.31 467 287 (1994) 6 (2012) 69 8 17 18 24 51 101 107 141 235
2020-08-04 05:30 3.31 467 287 (1994) 6 (2012) 69 8 17 18 24 51 101 107 141 235
2020-08-04 05:00 3.31 467 287 (1994) 6 (2012) 69 8 17 18 24 51 101 107 141 235
2020-08-04 04:30 3.32 470 287 (1994) 6 (2012) 69 8 17 18 24 51 101 107 141 235
2020-08-04 04:00 3.33 473 287 (1994) 6 (2012) 69 8 17 18 24 51 101 107 141 235
2020-08-04 03:30 3.33 473 287 (1994) 6 (2012) 69 8 17 18 24 51 101 107 141 235
2020-08-04 03:00 3.34 477 287 (1994) 6 (2012) 69 8 17 18 24 51 101 107 141 235
2020-08-04 02:30 3.35 480 287 (1994) 6 (2012) 69 8 17 18 24 51 101 107 141 235
2020-08-04 02:00 3.35 480 287 (1994) 6 (2012) 69 8 17 18 24 51 101 107 141 235
2020-08-04 01:30 3.36 484 287 (1994) 6 (2012) 69 8 17 18 24 51 101 107 141 235
2020-08-04 01:00 3.37 487 287 (1994) 6 (2012) 69 8 17 18 24 51 101 107 141 235
2020-08-04 00:30 3.38 490 287 (1994) 6 (2012) 69 8 17 18 24 51 101 107 141 235
2020-08-04 00:00 3.38 490 287 (1994) 6 (2012) 69 8 17 18 24 51 101 107 141 235
2020-08-03 23:30 3.40 497 241 (2010) 5 (2012) 75 8 13 20 26 57 114 119 185 229
2020-08-03 23:00 3.41 501 241 (2010) 5 (2012) 75 8 13 20 26 57 114 119 185 229
2020-08-03 22:30 3.42 504 241 (2010) 5 (2012) 75 8 13 20 26 57 114 119 185 229
2020-08-03 22:00 3.43 508 241 (2010) 5 (2012) 75 8 13 20 26 57 114 119 185 229
2020-08-03 21:30 3.43 508 241 (2010) 5 (2012) 75 8 13 20 26 57 114 119 185 229
2020-08-03 21:00 3.45 515 241 (2010) 5 (2012) 75 8 13 20 26 57 114 119 185 229
2020-08-03 20:30 3.46 518 241 (2010) 5 (2012) 75 8 13 20 26 57 114 119 185 229
2020-08-03 20:00 3.47 522 241 (2010) 5 (2012) 75 8 13 20 26 57 114 119 185 229
2020-08-03 19:30 3.48 525 241 (2010) 5 (2012) 75 8 13 20 26 57 114 119 185 229
2020-08-03 19:00 3.48 525 241 (2010) 5 (2012) 75 8 13 20 26 57 114 119 185 229
2020-08-03 18:30 3.50 532 241 (2010) 5 (2012) 75 8 13 20 26 57 114 119 185 229
2020-08-03 18:00 3.51 536 241 (2010) 5 (2012) 75 8 13 20 26 57 114 119 185 229
2020-08-03 17:30 3.53 543 241 (2010) 5 (2012) 75 8 13 20 26 57 114 119 185 229
2020-08-03 17:00 3.54 547 241 (2010) 5 (2012) 75 8 13 20 26 57 114 119 185 229
2020-08-03 16:30 3.54 547 241 (2010) 5 (2012) 75 8 13 20 26 57 114 119 185 229
2020-08-03 16:00 3.55 551 241 (2010) 5 (2012) 75 8 13 20 26 57 114 119 185 229
2020-08-03 15:30 3.56 554 241 (2010) 5 (2012) 75 8 13 20 26 57 114 119 185 229
2020-08-03 15:00 3.58 562 241 (2010) 5 (2012) 75 8 13 20 26 57 114 119 185 229
2020-08-03 14:30 3.50 532 241 (2010) 5 (2012) 75 8 13 20 26 57 114 119 185 229
2020-08-03 14:00 3.59 565 241 (2010) 5 (2012) 75 8 13 20 26 57 114 119 185 229
2020-08-03 13:30 3.59 565 241 (2010) 5 (2012) 75 8 13 20 26 57 114 119 185 229
2020-08-03 13:00 3.60 569 241 (2010) 5 (2012) 75 8 13 20 26 57 114 119 185 229
2020-08-03 12:30 3.61 573 241 (2010) 5 (2012) 75 8 13 20 26 57 114 119 185 229
2020-08-03 12:00 3.62 576 241 (2010) 5 (2012) 75 8 13 20 26 57 114 119 185 229
2020-08-03 11:30 3.62 576 241 (2010) 5 (2012) 75 8 13 20 26 57 114 119 185 229
2020-08-03 11:00 3.63 580 241 (2010) 5 (2012) 75 8 13 20 26 57 114 119 185 229
2020-08-03 10:30 3.64 584 241 (2010) 5 (2012) 75 8 13 20 26 57 114 119 185 229
2020-08-03 10:00 3.64 584 241 (2010) 5 (2012) 75 8 13 20 26 57 114 119 185 229
2020-08-03 09:30 3.65 588 241 (2010) 5 (2012) 75 8 13 20 26 57 114 119 185 229
2020-08-03 09:00 3.65 588 241 (2010) 5 (2012) 75 8 13 20 26 57 114 119 185 229
2020-08-03 08:30 3.66 592 241 (2010) 5 (2012) 75 8 13 20 26 57 114 119 185 229
2020-08-03 08:00 3.66 592 241 (2010) 5 (2012) 75 8 13 20 26 57 114 119 185 229
2020-08-03 07:30 3.67 595 241 (2010) 5 (2012) 75 8 13 20 26 57 114 119 185 229
2020-08-03 07:00 3.68 599 241 (2010) 5 (2012) 75 8 13 20 26 57 114 119 185 229
2020-08-03 06:30 3.68 599 241 (2010) 5 (2012) 75 8 13 20 26 57 114 119 185 229
2020-08-03 06:00 3.68 599 241 (2010) 5 (2012) 75 8 13 20 26 57 114 119 185 229
2020-08-03 05:30 3.67 595 241 (2010) 5 (2012) 75 8 13 20 26 57 114 119 185 229
2020-08-03 05:00 3.67 595 241 (2010) 5 (2012) 75 8 13 20 26 57 114 119 185 229
2020-08-03 04:30 3.67 595 241 (2010) 5 (2012) 75 8 13 20 26 57 114 119 185 229
2020-08-03 04:00 3.67 595 241 (2010) 5 (2012) 75 8 13 20 26 57 114 119 185 229
2020-08-03 03:30 3.66 592 241 (2010) 5 (2012) 75 8 13 20 26 57 114 119 185 229
2020-08-03 03:00 3.66 592 241 (2010) 5 (2012) 75 8 13 20 26 57 114 119 185 229
2020-08-03 02:30 3.65 588 241 (2010) 5 (2012) 75 8 13 20 26 57 114 119 185 229
2020-08-03 02:00 3.66 592 241 (2010) 5 (2012) 75 8 13 20 26 57 114 119 185 229
2020-08-03 01:30 3.66 592 241 (2010) 5 (2012) 75 8 13 20 26 57 114 119 185 229
2020-08-03 01:00 3.66 592 241 (2010) 5 (2012) 75 8 13 20 26 57 114 119 185 229
2020-08-03 00:30 3.67 595 241 (2010) 5 (2012) 75 8 13 20 26 57 114 119 185 229
2020-08-03 00:00 3.68 599 241 (2010) 5 (2012) 75 8 13 20 26 57 114 119 185 229
2020-08-02 23:30 3.69 603 352 (2010) 5 (2012) 78 8 12 24 26 41 136 148 159 256
2020-08-02 23:00 3.70 607 352 (2010) 5 (2012) 78 8 12 24 26 41 136 148 159 256
2020-08-02 22:30 3.71 611 352 (2010) 5 (2012) 78 8 12 24 26 41 136 148 159 256
2020-08-02 22:00 3.73 618 352 (2010) 5 (2012) 78 8 12 24 26 41 136 148 159 256
2020-08-02 21:30 3.73 618 352 (2010) 5 (2012) 78 8 12 24 26 41 136 148 159 256
2020-08-02 21:00 3.75 626 352 (2010) 5 (2012) 78 8 12 24 26 41 136 148 159 256
2020-08-02 20:30 3.77 634 352 (2010) 5 (2012) 78 8 12 24 26 41 136 148 159 256
2020-08-02 20:00 3.78 638 352 (2010) 5 (2012) 78 8 12 24 26 41 136 148 159 256
2020-08-02 19:30 3.79 642 352 (2010) 5 (2012) 78 8 12 24 26 41 136 148 159 256
2020-08-02 19:00 3.80 646 352 (2010) 5 (2012) 78 8 12 24 26 41 136 148 159 256
2020-08-02 18:30 3.82 654 352 (2010) 5 (2012) 78 8 12 24 26 41 136 148 159 256
2020-08-02 18:00 3.83 658 352 (2010) 5 (2012) 78 8 12 24 26 41 136 148 159 256
2020-08-02 17:30 3.85 666 352 (2010) 5 (2012) 78 8 12 24 26 41 136 148 159 256
2020-08-02 17:00 3.87 674 352 (2010) 5 (2012) 78 8 12 24 26 41 136 148 159 256
2020-08-02 16:30 3.89 682 352 (2010) 5 (2012) 78 8 12 24 26 41 136 148 159 256
2020-08-02 16:00 3.91 691 352 (2010) 5 (2012) 78 8 12 24 26 41 136 148 159 256
2020-08-02 15:30 3.93 699 352 (2010) 5 (2012) 78 8 12 24 26 41 136 148 159 256
2020-08-02 15:00 3.95 707 352 (2010) 5 (2012) 78 8 12 24 26 41 136 148 159 256
2020-08-02 14:30 3.97 716 352 (2010) 5 (2012) 78 8 12 24 26 41 136 148 159 256
2020-08-02 14:00 3.99 724 352 (2010) 5 (2012) 78 8 12 24 26 41 136 148 159 256
2020-08-02 13:30 4.01 732 352 (2010) 5 (2012) 78 8 12 24 26 41 136 148 159 256
2020-08-02 13:00 4.03 741 352 (2010) 5 (2012) 78 8 12 24 26 41 136 148 159 256
2020-08-02 12:30 4.06 754 352 (2010) 5 (2012) 78 8 12 24 26 41 136 148 159 256
2020-08-02 12:00 4.08 763 352 (2010) 5 (2012) 78 8 12 24 26 41 136 148 159 256
2020-08-02 11:30 4.11 776 352 (2010) 5 (2012) 78 8 12 24 26 41 136 148 159 256
2020-08-02 11:00 4.13 785 352 (2010) 5 (2012) 78 8 12 24 26 41 136 148 159 256
2020-08-02 10:30 4.16 798 352 (2010) 5 (2012) 78 8 12 24 26 41 136 148 159 256
2020-08-02 10:00 4.18 807 352 (2010) 5 (2012) 78 8 12 24 26 41 136 148 159 256
2020-08-02 09:30 4.21 820 352 (2010) 5 (2012) 78 8 12 24 26 41 136 148 159 256
2020-08-02 09:00 4.24 834 352 (2010) 5 (2012) 78 8 12 24 26 41 136 148 159 256
2020-08-02 08:30 4.27 848 352 (2010) 5 (2012) 78 8 12 24 26 41 136 148 159 256
2020-08-02 08:00 4.31 866 352 (2010) 5 (2012) 78 8 12 24 26 41 136 148 159 256
2020-08-02 07:30 4.34 880 352 (2010) 5 (2012) 78 8 12 24 26 41 136 148 159 256
2020-08-02 07:00 4.38 899 352 (2010) 5 (2012) 78 8 12 24 26 41 136 148 159 256
2020-08-02 06:30 4.42 918 352 (2010) 5 (2012) 78 8 12 24 26 41 136 148 159 256
2020-08-02 06:00 4.46 938 352 (2010) 5 (2012) 78 8 12 24 26 41 136 148 159 256
2020-08-02 05:30 4.51 962 352 (2010) 5 (2012) 78 8 12 24 26 41 136 148 159 256
2020-08-02 05:00 4.56 987 352 (2010) 5 (2012) 78 8 12 24 26 41 136 148 159 256
2020-08-02 04:30 4.60 1010 352 (2010) 5 (2012) 78 8 12 24 26 41 136 148 159 256
2020-08-02 04:00 4.65 1030 352 (2010) 5 (2012) 78 8 12 24 26 41 136 148 159 256
2020-08-02 03:30 4.71 1060 352 (2010) 5 (2012) 78 8 12 24 26 41 136 148 159 256
2020-08-02 03:00 4.77 1090 352 (2010) 5 (2012) 78 8 12 24 26 41 136 148 159 256
2020-08-02 02:30 4.82 1120 352 (2010) 5 (2012) 78 8 12 24 26 41 136 148 159 256
2020-08-02 02:00 4.87 1150 352 (2010) 5 (2012) 78 8 12 24 26 41 136 148 159 256
2020-08-02 01:30 4.93 1180 352 (2010) 5 (2012) 78 8 12 24 26 41 136 148 159 256
2020-08-02 01:00 4.96 1200 352 (2010) 5 (2012) 78 8 12 24 26 41 136 148 159 256
2020-08-02 00:30 5.00 1220 352 (2010) 5 (2012) 78 8 12 24 26 41 136 148 159 256
2020-08-02 00:00 5.01 1230 352 (2010) 5 (2012) 78 8 12 24 26 41 136 148 159 256
2020-08-01 23:30 4.97 1200 639 (2010) 5 (2012) 88 9 13 23 25 46 129 141 160 406
2020-08-01 23:00 4.91 1170 639 (2010) 5 (2012) 88 9 13 23 25 46 129 141 160 406
2020-08-01 22:30 4.82 1120 639 (2010) 5 (2012) 88 9 13 23 25 46 129 141 160 406
2020-08-01 22:00 4.71 1060 639 (2010) 5 (2012) 88 9 13 23 25 46 129 141 160 406
2020-08-01 21:30 4.59 1000 639 (2010) 5 (2012) 88 9 13 23 25 46 129 141 160 406
2020-08-01 21:00 4.51 962 639 (2010) 5 (2012) 88 9 13 23 25 46 129 141 160 406
2020-08-01 20:30 4.48 947 639 (2010) 5 (2012) 88 9 13 23 25 46 129 141 160 406
2020-08-01 20:00 4.49 952 639 (2010) 5 (2012) 88 9 13 23 25 46 129 141 160 406
2020-08-01 19:30 4.50 957 639 (2010) 5 (2012) 88 9 13 23 25 46 129 141 160 406
2020-08-01 19:00 4.54 977 639 (2010) 5 (2012) 88 9 13 23 25 46 129 141 160 406
2020-08-01 18:30 4.57 992 639 (2010) 5 (2012) 88 9 13 23 25 46 129 141 160 406
2020-08-01 18:00 4.62 1020 639 (2010) 5 (2012) 88 9 13 23 25 46 129 141 160 406
2020-08-01 17:30 4.66 1040 639 (2010) 5 (2012) 88 9 13 23 25 46 129 141 160 406
2020-08-01 17:00 4.70 1060 639 (2010) 5 (2012) 88 9 13 23 25 46 129 141 160 406
2020-08-01 16:30 4.74 1080 639 (2010) 5 (2012) 88 9 13 23 25 46 129 141 160 406
2020-08-01 16:00 4.80 1110 639 (2010) 5 (2012) 88 9 13 23 25 46 129 141 160 406
2020-08-01 15:30 4.84 1130 639 (2010) 5 (2012) 88 9 13 23 25 46 129 141 160 406
2020-08-01 15:00 4.88 1150 639 (2010) 5 (2012) 88 9 13 23 25 46 129 141 160 406
2020-08-01 14:30 4.93 1180 639 (2010) 5 (2012) 88 9 13 23 25 46 129 141 160 406
2020-08-01 14:00 4.97 1200 639 (2010) 5 (2012) 88 9 13 23 25 46 129 141 160 406
2020-08-01 13:30 4.99 1210 639 (2010) 5 (2012) 88 9 13 23 25 46 129 141 160 406
2020-08-01 13:00 5.00 1220 639 (2010) 5 (2012) 88 9 13 23 25 46 129 141 160 406
2020-08-01 12:30 4.98 1210 639 (2010) 5 (2012) 88 9 13 23 25 46 129 141 160 406
2020-08-01 12:00 4.92 1180 639 (2010) 5 (2012) 88 9 13 23 25 46 129 141 160 406
2020-08-01 11:30 4.80 1110 639 (2010) 5 (2012) 88 9 13 23 25 46 129 141 160 406
2020-08-01 11:00 4.67 1040 639 (2010) 5 (2012) 88 9 13 23 25 46 129 141 160 406
2020-08-01 10:30 4.54 977 639 (2010) 5 (2012) 88 9 13 23 25 46 129 141 160 406
2020-08-01 10:00 4.46 938 639 (2010) 5 (2012) 88 9 13 23 25 46 129 141 160 406
2020-08-01 09:30 4.43 923 639 (2010) 5 (2012) 88 9 13 23 25 46 129 141 160 406
2020-08-01 09:00 4.44 928 639 (2010) 5 (2012) 88 9 13 23 25 46 129 141 160 406
2020-08-01 08:30 4.47 942 639 (2010) 5 (2012) 88 9 13 23 25 46 129 141 160 406
2020-08-01 08:00 4.51 962 639 (2010) 5 (2012) 88 9 13 23 25 46 129 141 160 406
2020-08-01 07:30 4.55 982 639 (2010) 5 (2012) 88 9 13 23 25 46 129 141 160 406
2020-08-01 07:00 4.59 1000 639 (2010) 5 (2012) 88 9 13 23 25 46 129 141 160 406
2020-08-01 06:30 4.63 1020 639 (2010) 5 (2012) 88 9 13 23 25 46 129 141 160 406
2020-08-01 06:00 4.68 1050 639 (2010) 5 (2012) 88 9 13 23 25 46 129 141 160 406
2020-08-01 05:30 4.74 1080 639 (2010) 5 (2012) 88 9 13 23 25 46 129 141 160 406
2020-08-01 05:00 4.78 1100 639 (2010) 5 (2012) 88 9 13 23 25 46 129 141 160 406
2020-08-01 04:30 4.82 1120 639 (2010) 5 (2012) 88 9 13 23 25 46 129 141 160 406
2020-08-01 04:00 4.86 1140 639 (2010) 5 (2012) 88 9 13 23 25 46 129 141 160 406
2020-08-01 03:30 4.88 1150 639 (2010) 5 (2012) 88 9 13 23 25 46 129 141 160 406
2020-08-01 03:00 4.92 1180 639 (2010) 5 (2012) 88 9 13 23 25 46 129 141 160 406
2020-08-01 02:30 4.97 1200 639 (2010) 5 (2012) 88 9 13 23 25 46 129 141 160 406
2020-08-01 02:00 5.04 1250 639 (2010) 5 (2012) 88 9 13 23 25 46 129 141 160 406
2020-08-01 01:30 5.10 1290 639 (2010) 5 (2012) 88 9 13 23 25 46 129 141 160 406
2020-08-01 01:00 5.18 1340 639 (2010) 5 (2012) 88 9 13 23 25 46 129 141 160 406
2020-08-01 00:30 5.24 1380 639 (2010) 5 (2012) 88 9 13 23 25 46 129 141 160 406
2020-08-01 00:00 5.31 1430 639 (2010) 5 (2012) 88 9 13 23 25 46 129 141 160 406
2020-07-31 23:30 5.32 1440 1240 (2010) 6 (2012) 114 9 13 27 27 52 148 157 193 720
2020-07-31 23:00 5.28 1410 1240 (2010) 6 (2012) 114 9 13 27 27 52 148 157 193 720
2020-07-31 22:30 5.28 1410 1240 (2010) 6 (2012) 114 9 13 27 27 52 148 157 193 720
2020-07-31 22:00 5.28 1410 1240 (2010) 6 (2012) 114 9 13 27 27 52 148 157 193 720
2020-07-31 21:30 5.25 1390 1240 (2010) 6 (2012) 114 9 13 27 27 52 148 157 193 720
2020-07-31 21:00 5.01 1230 1240 (2010) 6 (2012) 114 9 13 27 27 52 148 157 193 720
2020-07-31 20:30 4.70 1060 1240 (2010) 6 (2012) 114 9 13 27 27 52 148 157 193 720
2020-07-31 20:00 4.42 918 1240 (2010) 6 (2012) 114 9 13 27 27 52 148 157 193 720
2020-07-31 19:30 4.17 802 1240 (2010) 6 (2012) 114 9 13 27 27 52 148 157 193 720
2020-07-31 19:00 3.96 711 1240 (2010) 6 (2012) 114 9 13 27 27 52 148 157 193 720
2020-07-31 18:30 3.86 670 1240 (2010) 6 (2012) 114 9 13 27 27 52 148 157 193 720
2020-07-31 18:00 3.77 634 1240 (2010) 6 (2012) 114 9 13 27 27 52 148 157 193 720
2020-07-31 17:30 3.75 626 1240 (2010) 6 (2012) 114 9 13 27 27 52 148 157 193 720
2020-07-31 17:00 3.74 622 1240 (2010) 6 (2012) 114 9 13 27 27 52 148 157 193 720
2020-07-31 16:30 3.74 622 1240 (2010) 6 (2012) 114 9 13 27 27 52 148 157 193 720
2020-07-31 16:00 3.73 618 1240 (2010) 6 (2012) 114 9 13 27 27 52 148 157 193 720
2020-07-31 15:30 3.72 615 1240 (2010) 6 (2012) 114 9 13 27 27 52 148 157 193 720
2020-07-31 15:00 3.73 618 1240 (2010) 6 (2012) 114 9 13 27 27 52 148 157 193 720
2020-07-31 14:30 3.73 618 1240 (2010) 6 (2012) 114 9 13 27 27 52 148 157 193 720
2020-07-31 14:00 3.74 622 1240 (2010) 6 (2012) 114 9 13 27 27 52 148 157 193 720
2020-07-31 13:30 3.74 622 1240 (2010) 6 (2012) 114 9 13 27 27 52 148 157 193 720
2020-07-31 13:00 3.75 626 1240 (2010) 6 (2012) 114 9 13 27 27 52 148 157 193 720
2020-07-31 12:30 3.75 626 1240 (2010) 6 (2012) 114 9 13 27 27 52 148 157 193 720
2020-07-31 12:00 3.76 630 1240 (2010) 6 (2012) 114 9 13 27 27 52 148 157 193 720
2020-07-31 11:30 3.76 630 1240 (2010) 6 (2012) 114 9 13 27 27 52 148 157 193 720
2020-07-31 11:00 3.78 638 1240 (2010) 6 (2012) 114 9 13 27 27 52 148 157 193 720
2020-07-31 10:30 3.78 638 1240 (2010) 6 (2012) 114 9 13 27 27 52 148 157 193 720
2020-07-31 10:00 3.78 638 1240 (2010) 6 (2012) 114 9 13 27 27 52 148 157 193 720
2020-07-31 09:30 3.80 646 1240 (2010) 6 (2012) 114 9 13 27 27 52 148 157 193 720
2020-07-31 09:00 3.81 650 1240 (2010) 6 (2012) 114 9 13 27 27 52 148 157 193 720
2020-07-31 08:30 3.82 654 1240 (2010) 6 (2012) 114 9 13 27 27 52 148 157 193 720
2020-07-31 08:00 3.83 658 1240 (2010) 6 (2012) 114 9 13 27 27 52 148 157 193 720
2020-07-31 07:30 3.84 662 1240 (2010) 6 (2012) 114 9 13 27 27 52 148 157 193 720
2020-07-31 07:00 3.86 670 1240 (2010) 6 (2012) 114 9 13 27 27 52 148 157 193 720
2020-07-31 06:30 3.87 674 1240 (2010) 6 (2012) 114 9 13 27 27 52 148 157 193 720
2020-07-31 06:00 3.88 678 1240 (2010) 6 (2012) 114 9 13 27 27 52 148 157 193 720
2020-07-31 05:30 3.89 682 1240 (2010) 6 (2012) 114 9 13 27 27 52 148 157 193 720
2020-07-31 05:00 3.91 691 1240 (2010) 6 (2012) 114 9 13 27 27 52 148 157 193 720
2020-07-31 04:30 3.91 691 1240 (2010) 6 (2012) 114 9 13 27 27 52 148 157 193 720
2020-07-31 04:00 3.93 699 1240 (2010) 6 (2012) 114 9 13 27 27 52 148 157 193 720
2020-07-31 03:30 3.95 707 1240 (2010) 6 (2012) 114 9 13 27 27 52 148 157 193 720
2020-07-31 03:00 3.96 711 1240 (2010) 6 (2012) 114 9 13 27 27 52 148 157 193 720
2020-07-31 02:30 3.98 720 1240 (2010) 6 (2012) 114 9 13 27 27 52 148 157 193 720
2020-07-31 02:00 4.00 728 1240 (2010) 6 (2012) 114 9 13 27 27 52 148 157 193 720
2020-07-31 01:30 4.01 732 1240 (2010) 6 (2012) 114 9 13 27 27 52 148 157 193 720
2020-07-31 01:00 4.03 741 1240 (2010) 6 (2012) 114 9 13 27 27 52 148 157 193 720
2020-07-31 00:30 4.06 754 1240 (2010) 6 (2012) 114 9 13 27 27 52 148 157 193 720
2020-07-31 00:00 4.08 763 1240 (2010) 6 (2012) 114 9 13 27 27 52 148 157 193 720
2020-07-30 23:30 4.10 771 319 (1997) 7 (2012) 88 10 13 22 26 46 159 205 242 282
2020-07-30 23:00 4.14 789 319 (1997) 7 (2012) 88 10 13 22 26 46 159 205 242 282
2020-07-30 22:30 4.17 802 319 (1997) 7 (2012) 88 10 13 22 26 46 159 205 242 282
2020-07-30 22:00 4.20 816 319 (1997) 7 (2012) 88 10 13 22 26 46 159 205 242 282
2020-07-30 21:30 4.24 834 319 (1997) 7 (2012) 88 10 13 22 26 46 159 205 242 282
2020-07-30 21:00 4.29 857 319 (1997) 7 (2012) 88 10 13 22 26 46 159 205 242 282
2020-07-30 20:30 4.32 871 319 (1997) 7 (2012) 88 10 13 22 26 46 159 205 242 282
2020-07-30 20:00 4.37 894 319 (1997) 7 (2012) 88 10 13 22 26 46 159 205 242 282
2020-07-30 19:30 4.41 913 319 (1997) 7 (2012) 88 10 13 22 26 46 159 205 242 282
2020-07-30 19:00 4.46 938 319 (1997) 7 (2012) 88 10 13 22 26 46 159 205 242 282
2020-07-30 18:30 4.50 957 319 (1997) 7 (2012) 88 10 13 22 26 46 159 205 242 282
2020-07-30 18:00 4.51 962 319 (1997) 7 (2012) 88 10 13 22 26 46 159 205 242 282
2020-07-30 17:30 4.53 972 319 (1997) 7 (2012) 88 10 13 22 26 46 159 205 242 282
2020-07-30 17:00 4.51 962 319 (1997) 7 (2012) 88 10 13 22 26 46 159 205 242 282
2020-07-30 16:30 4.47 942 319 (1997) 7 (2012) 88 10 13 22 26 46 159 205 242 282
2020-07-30 16:00 4.39 904 319 (1997) 7 (2012) 88 10 13 22 26 46 159 205 242 282
2020-07-30 15:30 4.30 862 319 (1997) 7 (2012) 88 10 13 22 26 46 159 205 242 282
2020-07-30 15:00 4.22 825 319 (1997) 7 (2012) 88 10 13 22 26 46 159 205 242 282
2020-07-30 14:30 4.17 802 319 (1997) 7 (2012) 88 10 13 22 26 46 159 205 242 282
2020-07-30 14:00 4.15 793 319 (1997) 7 (2012) 88 10 13 22 26 46 159 205 242 282
2020-07-30 13:30 4.16 798 319 (1997) 7 (2012) 88 10 13 22 26 46 159 205 242 282
2020-07-30 13:00 4.16 798 319 (1997) 7 (2012) 88 10 13 22 26 46 159 205 242 282
2020-07-30 12:30 4.14 789 319 (1997) 7 (2012) 88 10 13 22 26 46 159 205 242 282
2020-07-30 12:00 4.10 771 319 (1997) 7 (2012) 88 10 13 22 26 46 159 205 242 282
2020-07-30 11:30 4.05 750 319 (1997) 7 (2012) 88 10 13 22 26 46 159 205 242 282
2020-07-30 11:00 4.01 732 319 (1997) 7 (2012) 88 10 13 22 26 46 159 205 242 282
2020-07-30 10:30 3.98 720 319 (1997) 7 (2012) 88 10 13 22 26 46 159 205 242 282
2020-07-30 10:00 3.96 711 319 (1997) 7 (2012) 88 10 13 22 26 46 159 205 242 282
2020-07-30 09:30 3.94 703 319 (1997) 7 (2012) 88 10 13 22 26 46 159 205 242 282
2020-07-30 09:00 3.90 686 319 (1997) 7 (2012) 88 10 13 22 26 46 159 205 242 282
2020-07-30 08:30 3.81 650 319 (1997) 7 (2012) 88 10 13 22 26 46 159 205 242 282
2020-07-30 08:00 3.67 595 319 (1997) 7 (2012) 88 10 13 22 26 46 159 205 242 282
2020-07-30 07:30 3.50 532 319 (1997) 7 (2012) 88 10 13 22 26 46 159 205 242 282
2020-07-30 07:00 3.40 497 319 (1997) 7 (2012) 88 10 13 22 26 46 159 205 242 282
2020-07-30 06:30 3.36 484 319 (1997) 7 (2012) 88 10 13 22 26 46 159 205 242 282
2020-07-30 06:00 3.35 480 319 (1997) 7 (2012) 88 10 13 22 26 46 159 205 242 282
2020-07-30 05:30 3.31 467 319 (1997) 7 (2012) 88 10 13 22 26 46 159 205 242 282
2020-07-30 05:00 3.20 431 319 (1997) 7 (2012) 88 10 13 22 26 46 159 205 242 282
2020-07-30 04:30 3.03 378 319 (1997) 7 (2012) 88 10 13 22 26 46 159 205 242 282
2020-07-30 04:00 2.99 366 319 (1997) 7 (2012) 88 10 13 22 26 46 159 205 242 282
2020-07-30 03:30 2.97 360 319 (1997) 7 (2012) 88 10 13 22 26 46 159 205 242 282
2020-07-30 03:00 2.96 358 319 (1997) 7 (2012) 88 10 13 22 26 46 159 205 242 282
2020-07-30 02:30 2.96 358 319 (1997) 7 (2012) 88 10 13 22 26 46 159 205 242 282
2020-07-30 02:00 2.94 352 319 (1997) 7 (2012) 88 10 13 22 26 46 159 205 242 282
2020-07-30 01:30 2.94 352 319 (1997) 7 (2012) 88 10 13 22 26 46 159 205 242 282
2020-07-30 01:00 2.95 355 319 (1997) 7 (2012) 88 10 13 22 26 46 159 205 242 282
2020-07-30 00:30 2.95 355 319 (1997) 7 (2012) 88 10 13 22 26 46 159 205 242 282
2020-07-30 00:00 2.94 352 319 (1997) 7 (2012) 88 10 13 22 26 46 159 205 242 282
2020-07-29 23:30 2.94 352 385 (2016) 6 (2012) 89 10 15 25 27 47 112 184 261 331
2020-07-29 23:00 2.94 352 385 (2016) 6 (2012) 89 10 15 25 27 47 112 184 261 331
2020-07-29 22:30 2.95 355 385 (2016) 6 (2012) 89 10 15 25 27 47 112 184 261 331
2020-07-29 22:00 2.95 355 385 (2016) 6 (2012) 89 10 15 25 27 47 112 184 261 331
2020-07-29 21:30 2.95 355 385 (2016) 6 (2012) 89 10 15 25 27 47 112 184 261 331
2020-07-29 21:00 2.96 358 385 (2016) 6 (2012) 89 10 15 25 27 47 112 184 261 331
2020-07-29 20:30 2.97 360 385 (2016) 6 (2012) 89 10 15 25 27 47 112 184 261 331
2020-07-29 20:00 2.97 360 385 (2016) 6 (2012) 89 10 15 25 27 47 112 184 261 331
2020-07-29 19:30 2.98 363 385 (2016) 6 (2012) 89 10 15 25 27 47 112 184 261 331
2020-07-29 19:00 2.99 366 385 (2016) 6 (2012) 89 10 15 25 27 47 112 184 261 331
2020-07-29 18:30 2.96 358 385 (2016) 6 (2012) 89 10 15 25 27 47 112 184 261 331
2020-07-29 18:00 3.00 369 385 (2016) 6 (2012) 89 10 15 25 27 47 112 184 261 331
2020-07-29 17:30 3.02 375 385 (2016) 6 (2012) 89 10 15 25 27 47 112 184 261 331
2020-07-29 17:00 3.04 381 385 (2016) 6 (2012) 89 10 15 25 27 47 112 184 261 331
2020-07-29 16:30 3.05 384 385 (2016) 6 (2012) 89 10 15 25 27 47 112 184 261 331
2020-07-29 16:00 3.07 390 385 (2016) 6 (2012) 89 10 15 25 27 47 112 184 261 331
2020-07-29 15:30 3.08 393 385 (2016) 6 (2012) 89 10 15 25 27 47 112 184 261 331
2020-07-29 15:00 3.10 399 385 (2016) 6 (2012) 89 10 15 25 27 47 112 184 261 331
2020-07-29 14:30 3.11 402 385 (2016) 6 (2012) 89 10 15 25 27 47 112 184 261 331
2020-07-29 14:00 3.12 406 385 (2016) 6 (2012) 89 10 15 25 27 47 112 184 261 331
2020-07-29 13:30 3.13 409 385 (2016) 6 (2012) 89 10 15 25 27 47 112 184 261 331
2020-07-29 13:00 3.14 412 385 (2016) 6 (2012) 89 10 15 25 27 47 112 184 261 331
2020-07-29 12:30 3.15 415 385 (2016) 6 (2012) 89 10 15 25 27 47 112 184 261 331
2020-07-29 12:00 3.14 412 385 (2016) 6 (2012) 89 10 15 25 27 47 112 184 261 331
2020-07-29 11:30 3.16 418 385 (2016) 6 (2012) 89 10 15 25 27 47 112 184 261 331
2020-07-29 11:00 3.17 421 385 (2016) 6 (2012) 89 10 15 25 27 47 112 184 261 331
2020-07-29 10:30 3.18 424 385 (2016) 6 (2012) 89 10 15 25 27 47 112 184 261 331
2020-07-29 10:00 3.19 428 385 (2016) 6 (2012) 89 10 15 25 27 47 112 184 261 331
2020-07-29 09:30 3.21 434 385 (2016) 6 (2012) 89 10 15 25 27 47 112 184 261 331
2020-07-29 09:00 3.22 437 385 (2016) 6 (2012) 89 10 15 25 27 47 112 184 261 331
2020-07-29 08:30 3.23 440 385 (2016) 6 (2012) 89 10 15 25 27 47 112 184 261 331
2020-07-29 08:00 3.24 444 385 (2016) 6 (2012) 89 10 15 25 27 47 112 184 261 331
2020-07-29 07:30 3.26 450 385 (2016) 6 (2012) 89 10 15 25 27 47 112 184 261 331
2020-07-29 07:00 3.26 450 385 (2016) 6 (2012) 89 10 15 25 27 47 112 184 261 331
2020-07-29 06:30 3.26 450 385 (2016) 6 (2012) 89 10 15 25 27 47 112 184 261 331
2020-07-29 06:00 3.25 447 385 (2016) 6 (2012) 89 10 15 25 27 47 112 184 261 331
2020-07-29 05:30 3.23 440 385 (2016) 6 (2012) 89 10 15 25 27 47 112 184 261 331
2020-07-29 05:00 3.17 421 385 (2016) 6 (2012) 89 10 15 25 27 47 112 184 261 331
2020-07-29 04:30 3.09 396 385 (2016) 6 (2012) 89 10 15 25 27 47 112 184 261 331
2020-07-29 04:00 2.95 355 385 (2016) 6 (2012) 89 10 15 25 27 47 112 184 261 331
2020-07-29 03:30 2.78 307 385 (2016) 6 (2012) 89 10 15 25 27 47 112 184 261 331
2020-07-29 03:00 2.62 264 385 (2016) 6 (2012) 89 10 15 25 27 47 112 184 261 331
2020-07-29 02:30 2.52 237 385 (2016) 6 (2012) 89 10 15 25 27 47 112 184 261 331
2020-07-29 02:00 2.49 229 385 (2016) 6 (2012) 89 10 15 25 27 47 112 184 261 331
2020-07-29 01:30 2.48 226 385 (2016) 6 (2012) 89 10 15 25 27 47 112 184 261 331
2020-07-29 01:00 2.48 226 385 (2016) 6 (2012) 89 10 15 25 27 47 112 184 261 331
2020-07-29 00:30 2.48 226 385 (2016) 6 (2012) 89 10 15 25 27 47 112 184 261 331
2020-07-29 00:00 2.48 226 385 (2016) 6 (2012) 89 10 15 25 27 47 112 184 261 331
2020-07-28 23:30 2.49 229 693 (2016) 7 (2012) 110 11 15 26 29 44 108 201 303 558
2020-07-28 23:00 2.49 229 693 (2016) 7 (2012) 110 11 15 26 29 44 108 201 303 558
2020-07-28 22:30 2.48 226 693 (2016) 7 (2012) 110 11 15 26 29 44 108 201 303 558
2020-07-28 22:00 2.49 229 693 (2016) 7 (2012) 110 11 15 26 29 44 108 201 303 558
2020-07-28 21:30 2.49 229 693 (2016) 7 (2012) 110 11 15 26 29 44 108 201 303 558
2020-07-28 21:00 2.49 229 693 (2016) 7 (2012) 110 11 15 26 29 44 108 201 303 558
2020-07-28 20:30 2.49 229 693 (2016) 7 (2012) 110 11 15 26 29 44 108 201 303 558
2020-07-28 20:00 2.49 229 693 (2016) 7 (2012) 110 11 15 26 29 44 108 201 303 558
2020-07-28 19:30 2.49 229 693 (2016) 7 (2012) 110 11 15 26 29 44 108 201 303 558
2020-07-28 19:00 2.50 231 693 (2016) 7 (2012) 110 11 15 26 29 44 108 201 303 558
2020-07-28 18:30 2.51 234 693 (2016) 7 (2012) 110 11 15 26 29 44 108 201 303 558
2020-07-28 18:00 2.51 234 693 (2016) 7 (2012) 110 11 15 26 29 44 108 201 303 558
2020-07-28 17:30 2.51 234 693 (2016) 7 (2012) 110 11 15 26 29 44 108 201 303 558
2020-07-28 17:00 2.52 237 693 (2016) 7 (2012) 110 11 15 26 29 44 108 201 303 558
2020-07-28 16:30 2.52 237 693 (2016) 7 (2012) 110 11 15 26 29 44 108 201 303 558
2020-07-28 16:00 2.53 239 693 (2016) 7 (2012) 110 11 15 26 29 44 108 201 303 558
2020-07-28 15:30 2.52 237 693 (2016) 7 (2012) 110 11 15 26 29 44 108 201 303 558
2020-07-28 15:00 2.53 239 693 (2016) 7 (2012) 110 11 15 26 29 44 108 201 303 558
2020-07-28 14:30 2.53 239 693 (2016) 7 (2012) 110 11 15 26 29 44 108 201 303 558
2020-07-28 14:00 2.54 242 693 (2016) 7 (2012) 110 11 15 26 29 44 108 201 303 558
2020-07-28 13:30 2.54 242 693 (2016) 7 (2012) 110 11 15 26 29 44 108 201 303 558
2020-07-28 13:00 2.54 242 693 (2016) 7 (2012) 110 11 15 26 29 44 108 201 303 558
2020-07-28 12:30 2.54 242 693 (2016) 7 (2012) 110 11 15 26 29 44 108 201 303 558
2020-07-28 12:00 2.54 242 693 (2016) 7 (2012) 110 11 15 26 29 44 108 201 303 558
2020-07-28 11:30 2.55 245 693 (2016) 7 (2012) 110 11 15 26 29 44 108 201 303 558
2020-07-28 11:00 2.55 245 693 (2016) 7 (2012) 110 11 15 26 29 44 108 201 303 558
2020-07-28 10:30 2.56 247 693 (2016) 7 (2012) 110 11 15 26 29 44 108 201 303 558
2020-07-28 10:00 2.56 247 693 (2016) 7 (2012) 110 11 15 26 29 44 108 201 303 558
2020-07-28 09:30 2.56 247 693 (2016) 7 (2012) 110 11 15 26 29 44 108 201 303 558
2020-07-28 09:00 2.56 247 693 (2016) 7 (2012) 110 11 15 26 29 44 108 201 303 558
2020-07-28 08:30 2.57 250 693 (2016) 7 (2012) 110 11 15 26 29 44 108 201 303 558
2020-07-28 08:00 2.57 250 693 (2016) 7 (2012) 110 11 15 26 29 44 108 201 303 558
2020-07-28 07:30 2.58 253 693 (2016) 7 (2012) 110 11 15 26 29 44 108 201 303 558
2020-07-28 07:00 2.58 253 693 (2016) 7 (2012) 110 11 15 26 29 44 108 201 303 558
2020-07-28 06:30 2.58 253 693 (2016) 7 (2012) 110 11 15 26 29 44 108 201 303 558
2020-07-28 06:00 2.58 253 693 (2016) 7 (2012) 110 11 15 26 29 44 108 201 303 558
2020-07-28 05:30 2.59 256 693 (2016) 7 (2012) 110 11 15 26 29 44 108 201 303 558
2020-07-28 05:00 2.58 253 693 (2016) 7 (2012) 110 11 15 26 29 44 108 201 303 558
2020-07-28 04:30 2.58 253 693 (2016) 7 (2012) 110 11 15 26 29 44 108 201 303 558
2020-07-28 04:00 2.57 250 693 (2016) 7 (2012) 110 11 15 26 29 44 108 201 303 558
2020-07-28 03:30 2.56 247 693 (2016) 7 (2012) 110 11 15 26 29 44 108 201 303 558
2020-07-28 03:00 2.54 242 693 (2016) 7 (2012) 110 11 15 26 29 44 108 201 303 558
2020-07-28 02:30 2.54 242 693 (2016) 7 (2012) 110 11 15 26 29 44 108 201 303 558
2020-07-28 02:00 2.54 242 693 (2016) 7 (2012) 110 11 15 26 29 44 108 201 303 558
2020-07-28 01:30 2.54 242 693 (2016) 7 (2012) 110 11 15 26 29 44 108 201 303 558
2020-07-28 01:00 2.53 239 693 (2016) 7 (2012) 110 11 15 26 29 44 108 201 303 558
2020-07-28 00:30 2.54 242 693 (2016) 7 (2012) 110 11 15 26 29 44 108 201 303 558
2020-07-28 00:00 2.54 242 693 (2016) 7 (2012) 110 11 15 26 29 44 108 201 303 558
2020-07-27 23:30 2.54 242 663 (1995) 7 (2012) 107 11 16 27 29 46 113 160 307 551
2020-07-27 23:00 2.54 242 663 (1995) 7 (2012) 107 11 16 27 29 46 113 160 307 551
2020-07-27 22:30 2.54 242 663 (1995) 7 (2012) 107 11 16 27 29 46 113 160 307 551
2020-07-27 22:00 2.55 245 663 (1995) 7 (2012) 107 11 16 27 29 46 113 160 307 551
2020-07-27 21:30 2.52 237 663 (1995) 7 (2012) 107 11 16 27 29 46 113 160 307 551
2020-07-27 21:00 2.52 237 663 (1995) 7 (2012) 107 11 16 27 29 46 113 160 307 551
2020-07-27 20:30 2.50 231 663 (1995) 7 (2012) 107 11 16 27 29 46 113 160 307 551
2020-07-27 20:00 2.48 226 663 (1995) 7 (2012) 107 11 16 27 29 46 113 160 307 551
2020-07-27 19:30 2.45 218 663 (1995) 7 (2012) 107 11 16 27 29 46 113 160 307 551
2020-07-27 19:00 2.43 213 663 (1995) 7 (2012) 107 11 16 27 29 46 113 160 307 551
2020-07-27 18:30 2.41 208 663 (1995) 7 (2012) 107 11 16 27 29 46 113 160 307 551
2020-07-27 18:00 2.42 211 663 (1995) 7 (2012) 107 11 16 27 29 46 113 160 307 551
2020-07-27 17:30 2.41 208 663 (1995) 7 (2012) 107 11 16 27 29 46 113 160 307 551
2020-07-27 17:00 2.41 208 663 (1995) 7 (2012) 107 11 16 27 29 46 113 160 307 551
2020-07-27 16:30 2.41 208 663 (1995) 7 (2012) 107 11 16 27 29 46 113 160 307 551
2020-07-27 16:00 2.40 206 663 (1995) 7 (2012) 107 11 16 27 29 46 113 160 307 551
2020-07-27 15:30 2.39 203 663 (1995) 7 (2012) 107 11 16 27 29 46 113 160 307 551
2020-07-27 15:00 2.39 203 663 (1995) 7 (2012) 107 11 16 27 29 46 113 160 307 551
2020-07-27 14:30 2.38 201 663 (1995) 7 (2012) 107 11 16 27 29 46 113 160 307 551
2020-07-27 14:00 2.39 203 663 (1995) 7 (2012) 107 11 16 27 29 46 113 160 307 551
2020-07-27 13:30 2.39 203 663 (1995) 7 (2012) 107 11 16 27 29 46 113 160 307 551
2020-07-27 13:00 2.39 203 663 (1995) 7 (2012) 107 11 16 27 29 46 113 160 307 551
2020-07-27 12:30 2.39 203 663 (1995) 7 (2012) 107 11 16 27 29 46 113 160 307 551
2020-07-27 12:00 2.39 203 663 (1995) 7 (2012) 107 11 16 27 29 46 113 160 307 551
2020-07-27 11:30 2.40 206 663 (1995) 7 (2012) 107 11 16 27 29 46 113 160 307 551
2020-07-27 11:00 2.39 203 663 (1995) 7 (2012) 107 11 16 27 29 46 113 160 307 551
2020-07-27 10:30 2.39 203 663 (1995) 7 (2012) 107 11 16 27 29 46 113 160 307 551
2020-07-27 10:00 2.39 203 663 (1995) 7 (2012) 107 11 16 27 29 46 113 160 307 551
2020-07-27 09:30 2.39 203 663 (1995) 7 (2012) 107 11 16 27 29 46 113 160 307 551
2020-07-27 09:00 2.39 203 663 (1995) 7 (2012) 107 11 16 27 29 46 113 160 307 551
2020-07-27 08:30 2.38 201 663 (1995) 7 (2012) 107 11 16 27 29 46 113 160 307 551
2020-07-27 08:00 2.38 201 663 (1995) 7 (2012) 107 11 16 27 29 46 113 160 307 551
2020-07-27 07:30 2.38 201 663 (1995) 7 (2012) 107 11 16 27 29 46 113 160 307 551
2020-07-27 07:00 2.38 201 663 (1995) 7 (2012) 107 11 16 27 29 46 113 160 307 551
2020-07-27 06:30 2.38 201 663 (1995) 7 (2012) 107 11 16 27 29 46 113 160 307 551
2020-07-27 06:00 2.38 201 663 (1995) 7 (2012) 107 11 16 27 29 46 113 160 307 551
2020-07-27 05:30 2.38 201 663 (1995) 7 (2012) 107 11 16 27 29 46 113 160 307 551
2020-07-27 05:00 2.39 203 663 (1995) 7 (2012) 107 11 16 27 29 46 113 160 307 551
2020-07-27 04:30 2.38 201 663 (1995) 7 (2012) 107 11 16 27 29 46 113 160 307 551
2020-07-27 04:00 2.39 203 663 (1995) 7 (2012) 107 11 16 27 29 46 113 160 307 551
2020-07-27 03:30 2.39 203 663 (1995) 7 (2012) 107 11 16 27 29 46 113 160 307 551
2020-07-27 03:00 2.39 203 663 (1995) 7 (2012) 107 11 16 27 29 46 113 160 307 551
2020-07-27 02:30 2.39 203 663 (1995) 7 (2012) 107 11 16 27 29 46 113 160 307 551
2020-07-27 02:00 2.39 203 663 (1995) 7 (2012) 107 11 16 27 29 46 113 160 307 551
2020-07-27 01:30 2.39 203 663 (1995) 7 (2012) 107 11 16 27 29 46 113 160 307 551
2020-07-27 01:00 2.39 203 663 (1995) 7 (2012) 107 11 16 27 29 46 113 160 307 551
2020-07-27 00:30 2.40 206 663 (1995) 7 (2012) 107 11 16 27 29 46 113 160 307 551
2020-07-27 00:00 2.40 206 663 (1995) 7 (2012) 107 11 16 27 29 46 113 160 307 551
2020-07-26 23:30 2.39 203 581 (1995) 6 (2012) 110 11 20 29 31 50 113 118 319 574
2020-07-26 23:00 2.39 203 581 (1995) 6 (2012) 110 11 20 29 31 50 113 118 319 574
2020-07-26 22:30 2.39 203 581 (1995) 6 (2012) 110 11 20 29 31 50 113 118 319 574
2020-07-26 22:00 2.39 203 581 (1995) 6 (2012) 110 11 20 29 31 50 113 118 319 574
2020-07-26 21:30 2.40 206 581 (1995) 6 (2012) 110 11 20 29 31 50 113 118 319 574
2020-07-26 21:00 2.40 206 581 (1995) 6 (2012) 110 11 20 29 31 50 113 118 319 574
2020-07-26 20:30 2.40 206 581 (1995) 6 (2012) 110 11 20 29 31 50 113 118 319 574
2020-07-26 20:00 2.40 206 581 (1995) 6 (2012) 110 11 20 29 31 50 113 118 319 574
2020-07-26 19:30 2.40 206 581 (1995) 6 (2012) 110 11 20 29 31 50 113 118 319 574
2020-07-26 19:00 2.40 206 581 (1995) 6 (2012) 110 11 20 29 31 50 113 118 319 574
2020-07-26 18:30 2.41 208 581 (1995) 6 (2012) 110 11 20 29 31 50 113 118 319 574
2020-07-26 18:00 2.41 208 581 (1995) 6 (2012) 110 11 20 29 31 50 113 118 319 574
2020-07-26 17:30 2.41 208 581 (1995) 6 (2012) 110 11 20 29 31 50 113 118 319 574
2020-07-26 17:00 2.41 208 581 (1995) 6 (2012) 110 11 20 29 31 50 113 118 319 574
2020-07-26 16:30 2.42 211 581 (1995) 6 (2012) 110 11 20 29 31 50 113 118 319 574
2020-07-26 16:00 2.41 208 581 (1995) 6 (2012) 110 11 20 29 31 50 113 118 319 574
2020-07-26 15:30 2.42 211 581 (1995) 6 (2012) 110 11 20 29 31 50 113 118 319 574
2020-07-26 15:00 2.42 211 581 (1995) 6 (2012) 110 11 20 29 31 50 113 118 319 574
2020-07-26 14:30 2.41 208 581 (1995) 6 (2012) 110 11 20 29 31 50 113 118 319 574
2020-07-26 14:00 2.42 211 581 (1995) 6 (2012) 110 11 20 29 31 50 113 118 319 574
2020-07-26 13:30 2.42 211 581 (1995) 6 (2012) 110 11 20 29 31 50 113 118 319 574
2020-07-26 13:00 2.42 211 581 (1995) 6 (2012) 110 11 20 29 31 50 113 118 319 574
2020-07-26 12:30 2.42 211 581 (1995) 6 (2012) 110 11 20 29 31 50 113 118 319 574
2020-07-26 12:00 2.42 211 581 (1995) 6 (2012) 110 11 20 29 31 50 113 118 319 574
2020-07-26 11:30 2.42 211 581 (1995) 6 (2012) 110 11 20 29 31 50 113 118 319 574
2020-07-26 11:00 2.42 211 581 (1995) 6 (2012) 110 11 20 29 31 50 113 118 319 574
2020-07-26 10:30 2.42 211 581 (1995) 6 (2012) 110 11 20 29 31 50 113 118 319 574
2020-07-26 10:00 2.42 211 581 (1995) 6 (2012) 110 11 20 29 31 50 113 118 319 574
2020-07-26 09:30 2.42 211 581 (1995) 6 (2012) 110 11 20 29 31 50 113 118 319 574
2020-07-26 09:00 2.42 211 581 (1995) 6 (2012) 110 11 20 29 31 50 113 118 319 574
2020-07-26 08:30 2.41 208 581 (1995) 6 (2012) 110 11 20 29 31 50 113 118 319 574
2020-07-26 08:00 2.41 208 581 (1995) 6 (2012) 110 11 20 29 31 50 113 118 319 574
2020-07-26 07:30 2.42 211 581 (1995) 6 (2012) 110 11 20 29 31 50 113 118 319 574
2020-07-26 07:00 2.41 208 581 (1995) 6 (2012) 110 11 20 29 31 50 113 118 319 574
2020-07-26 06:30 2.42 211 581 (1995) 6 (2012) 110 11 20 29 31 50 113 118 319 574
2020-07-26 06:00 2.41 208 581 (1995) 6 (2012) 110 11 20 29 31 50 113 118 319 574
2020-07-26 05:30 2.41 208 581 (1995) 6 (2012) 110 11 20 29 31 50 113 118 319 574
2020-07-26 05:00 2.41 208 581 (1995) 6 (2012) 110 11 20 29 31 50 113 118 319 574
2020-07-26 04:30 2.42 211 581 (1995) 6 (2012) 110 11 20 29 31 50 113 118 319 574
2020-07-26 04:00 2.42 211 581 (1995) 6 (2012) 110 11 20 29 31 50 113 118 319 574
2020-07-26 03:30 2.41 208 581 (1995) 6 (2012) 110 11 20 29 31 50 113 118 319 574
2020-07-26 03:00 2.41 208 581 (1995) 6 (2012) 110 11 20 29 31 50 113 118 319 574
2020-07-26 02:30 2.42 211 581 (1995) 6 (2012) 110 11 20 29 31 50 113 118 319 574
2020-07-26 02:00 2.42 211 581 (1995) 6 (2012) 110 11 20 29 31 50 113 118 319 574
2020-07-26 01:30 2.42 211 581 (1995) 6 (2012) 110 11 20 29 31 50 113 118 319 574
2020-07-26 01:00 2.42 211 581 (1995) 6 (2012) 110 11 20 29 31 50 113 118 319 574
2020-07-26 00:30 2.42 211 581 (1995) 6 (2012) 110 11 20 29 31 50 113 118 319 574
2020-07-26 00:00 2.42 211 581 (1995) 6 (2012) 110 11 20 29 31 50 113 118 319 574
2020-07-25 23:30 2.42 211 505 (1989) 6 (2012) 97 11 17 31 34 61 111 123 335 428
2020-07-25 23:00 2.42 211 505 (1989) 6 (2012) 97 11 17 31 34 61 111 123 335 428
2020-07-25 22:30 2.42 211 505 (1989) 6 (2012) 97 11 17 31 34 61 111 123 335 428
2020-07-25 22:00 2.43 213 505 (1989) 6 (2012) 97 11 17 31 34 61 111 123 335 428
2020-07-25 21:30 2.43 213 505 (1989) 6 (2012) 97 11 17 31 34 61 111 123 335 428
2020-07-25 21:00 2.43 213 505 (1989) 6 (2012) 97 11 17 31 34 61 111 123 335 428
2020-07-25 20:30 2.43 213 505 (1989) 6 (2012) 97 11 17 31 34 61 111 123 335 428
2020-07-25 20:00 2.43 213 505 (1989) 6 (2012) 97 11 17 31 34 61 111 123 335 428
2020-07-25 19:30 2.43 213 505 (1989) 6 (2012) 97 11 17 31 34 61 111 123 335 428
2020-07-25 19:00 2.43 213 505 (1989) 6 (2012) 97 11 17 31 34 61 111 123 335 428
2020-07-25 18:30 2.44 216 505 (1989) 6 (2012) 97 11 17 31 34 61 111 123 335 428
2020-07-25 18:00 2.44 216 505 (1989) 6 (2012) 97 11 17 31 34 61 111 123 335 428
2020-07-25 17:30 2.44 216 505 (1989) 6 (2012) 97 11 17 31 34 61 111 123 335 428
2020-07-25 17:00 2.44 216 505 (1989) 6 (2012) 97 11 17 31 34 61 111 123 335 428
2020-07-25 16:30 2.44 216 505 (1989) 6 (2012) 97 11 17 31 34 61 111 123 335 428
2020-07-25 16:00 2.43 213 505 (1989) 6 (2012) 97 11 17 31 34 61 111 123 335 428
2020-07-25 15:30 2.43 213 505 (1989) 6 (2012) 97 11 17 31 34 61 111 123 335 428
2020-07-25 15:00 2.44 216 505 (1989) 6 (2012) 97 11 17 31 34 61 111 123 335 428
2020-07-25 14:30 2.44 216 505 (1989) 6 (2012) 97 11 17 31 34 61 111 123 335 428
2020-07-25 14:00 2.41 208 505 (1989) 6 (2012) 97 11 17 31 34 61 111 123 335 428
2020-07-25 13:30 2.29 180 505 (1989) 6 (2012) 97 11 17 31 34 61 111 123 335 428
2020-07-25 13:00 2.37 199 505 (1989) 6 (2012) 97 11 17 31 34 61 111 123 335 428
2020-07-25 12:30 2.44 216 505 (1989) 6 (2012) 97 11 17 31 34 61 111 123 335 428
2020-07-25 12:00 2.44 216 505 (1989) 6 (2012) 97 11 17 31 34 61 111 123 335 428
2020-07-25 11:30 2.43 213 505 (1989) 6 (2012) 97 11 17 31 34 61 111 123 335 428
2020-07-25 11:00 2.43 213 505 (1989) 6 (2012) 97 11 17 31 34 61 111 123 335 428
2020-07-25 10:30 2.43 213 505 (1989) 6 (2012) 97 11 17 31 34 61 111 123 335 428
2020-07-25 10:00 2.43 213 505 (1989) 6 (2012) 97 11 17 31 34 61 111 123 335 428
2020-07-25 09:30 2.42 211 505 (1989) 6 (2012) 97 11 17 31 34 61 111 123 335 428
2020-07-25 09:00 2.43 213 505 (1989) 6 (2012) 97 11 17 31 34 61 111 123 335 428
2020-07-25 08:30 2.43 213 505 (1989) 6 (2012) 97 11 17 31 34 61 111 123 335 428
2020-07-25 08:00 2.42 211 505 (1989) 6 (2012) 97 11 17 31 34 61 111 123 335 428
2020-07-25 07:30 2.42 211 505 (1989) 6 (2012) 97 11 17 31 34 61 111 123 335 428
2020-07-25 07:00 2.42 211 505 (1989) 6 (2012) 97 11 17 31 34 61 111 123 335 428
2020-07-25 06:30 2.42 211 505 (1989) 6 (2012) 97 11 17 31 34 61 111 123 335 428
2020-07-25 06:00 2.42 211 505 (1989) 6 (2012) 97 11 17 31 34 61 111 123 335 428
2020-07-25 05:30 2.42 211 505 (1989) 6 (2012) 97 11 17 31 34 61 111 123 335 428
2020-07-25 05:00 2.42 211 505 (1989) 6 (2012) 97 11 17 31 34 61 111 123 335 428
2020-07-25 04:30 2.42 211 505 (1989) 6 (2012) 97 11 17 31 34 61 111 123 335 428
2020-07-25 04:00 2.42 211 505 (1989) 6 (2012) 97 11 17 31 34 61 111 123 335 428
2020-07-25 03:30 2.42 211 505 (1989) 6 (2012) 97 11 17 31 34 61 111 123 335 428
2020-07-25 03:00 2.41 208 505 (1989) 6 (2012) 97 11 17 31 34 61 111 123 335 428
2020-07-25 02:30 2.41 208 505 (1989) 6 (2012) 97 11 17 31 34 61 111 123 335 428
2020-07-25 02:00 2.42 211 505 (1989) 6 (2012) 97 11 17 31 34 61 111 123 335 428
2020-07-25 01:30 2.41 208 505 (1989) 6 (2012) 97 11 17 31 34 61 111 123 335 428
2020-07-25 01:00 2.41 208 505 (1989) 6 (2012) 97 11 17 31 34 61 111 123 335 428
2020-07-25 00:30 2.41 208 505 (1989) 6 (2012) 97 11 17 31 34 61 111 123 335 428
2020-07-25 00:00 2.41 208 505 (1989) 6 (2012) 97 11 17 31 34 61 111 123 335 428
2020-07-24 23:30 2.41 208 449 (2019) 7 (2012) 99 12 18 32 34 59 111 135 261 438
2020-07-24 23:00 2.41 208 449 (2019) 7 (2012) 99 12 18 32 34 59 111 135 261 438
2020-07-24 22:30 2.41 208 449 (2019) 7 (2012) 99 12 18 32 34 59 111 135 261 438
2020-07-24 22:00 2.41 208 449 (2019) 7 (2012) 99 12 18 32 34 59 111 135 261 438
2020-07-24 21:30 2.41 208 449 (2019) 7 (2012) 99 12 18 32 34 59 111 135 261 438
2020-07-24 21:00 2.41 208 449 (2019) 7 (2012) 99 12 18 32 34 59 111 135 261 438
2020-07-24 20:30 2.41 208 449 (2019) 7 (2012) 99 12 18 32 34 59 111 135 261 438
2020-07-24 20:00 2.41 208 449 (2019) 7 (2012) 99 12 18 32 34 59 111 135 261 438
2020-07-24 19:30 2.42 211 449 (2019) 7 (2012) 99 12 18 32 34 59 111 135 261 438
2020-07-24 19:00 2.42 211 449 (2019) 7 (2012) 99 12 18 32 34 59 111 135 261 438
2020-07-24 18:30 2.42 211 449 (2019) 7 (2012) 99 12 18 32 34 59 111 135 261 438
2020-07-24 18:00 2.42 211 449 (2019) 7 (2012) 99 12 18 32 34 59 111 135 261 438
2020-07-24 17:30 2.43 213 449 (2019) 7 (2012) 99 12 18 32 34 59 111 135 261 438
2020-07-24 17:00 2.43 213 449 (2019) 7 (2012) 99 12 18 32 34 59 111 135 261 438
2020-07-24 16:30 2.43 213 449 (2019) 7 (2012) 99 12 18 32 34 59 111 135 261 438
2020-07-24 16:00 2.43 213 449 (2019) 7 (2012) 99 12 18 32 34 59 111 135 261 438
2020-07-24 15:30 2.43 213 449 (2019) 7 (2012) 99 12 18 32 34 59 111 135 261 438
2020-07-24 15:00 2.43 213 449 (2019) 7 (2012) 99 12 18 32 34 59 111 135 261 438
2020-07-24 14:30 2.43 213 449 (2019) 7 (2012) 99 12 18 32 34 59 111 135 261 438
2020-07-24 14:00 2.43 213 449 (2019) 7 (2012) 99 12 18 32 34 59 111 135 261 438
2020-07-24 13:30 2.44 216 449 (2019) 7 (2012) 99 12 18 32 34 59 111 135 261 438
2020-07-24 13:00 2.43 213 449 (2019) 7 (2012) 99 12 18 32 34 59 111 135 261 438
2020-07-24 12:30 2.42 211 449 (2019) 7 (2012) 99 12 18 32 34 59 111 135 261 438
2020-07-24 12:00 2.44 216 449 (2019) 7 (2012) 99 12 18 32 34 59 111 135 261 438
2020-07-24 11:30 2.44 216 449 (2019) 7 (2012) 99 12 18 32 34 59 111 135 261 438
2020-07-24 11:00 2.44 216 449 (2019) 7 (2012) 99 12 18 32 34 59 111 135 261 438
2020-07-24 10:30 2.43 213 449 (2019) 7 (2012) 99 12 18 32 34 59 111 135 261 438
2020-07-24 10:00 2.43 213 449 (2019) 7 (2012) 99 12 18 32 34 59 111 135 261 438
2020-07-24 09:30 2.43 213 449 (2019) 7 (2012) 99 12 18 32 34 59 111 135 261 438
2020-07-24 09:00 2.43 213 449 (2019) 7 (2012) 99 12 18 32 34 59 111 135 261 438
2020-07-24 08:30 2.42 211 449 (2019) 7 (2012) 99 12 18 32 34 59 111 135 261 438
2020-07-24 08:00 2.42 211 449 (2019) 7 (2012) 99 12 18 32 34 59 111 135 261 438
2020-07-24 07:30 2.42 211 449 (2019) 7 (2012) 99 12 18 32 34 59 111 135 261 438
2020-07-24 07:00 2.42 211 449 (2019) 7 (2012) 99 12 18 32 34 59 111 135 261 438
2020-07-24 06:30 2.42 211 449 (2019) 7 (2012) 99 12 18 32 34 59 111 135 261 438
2020-07-24 06:00 2.42 211 449 (2019) 7 (2012) 99 12 18 32 34 59 111 135 261 438
2020-07-24 05:30 2.42 211 449 (2019) 7 (2012) 99 12 18 32 34 59 111 135 261 438
2020-07-24 05:00 2.42 211 449 (2019) 7 (2012) 99 12 18 32 34 59 111 135 261 438
2020-07-24 04:30 2.42 211 449 (2019) 7 (2012) 99 12 18 32 34 59 111 135 261 438
2020-07-24 04:00 2.42 211 449 (2019) 7 (2012) 99 12 18 32 34 59 111 135 261 438
2020-07-24 03:30 2.42 211 449 (2019) 7 (2012) 99 12 18 32 34 59 111 135 261 438
2020-07-24 03:00 2.42 211 449 (2019) 7 (2012) 99 12 18 32 34 59 111 135 261 438
2020-07-24 02:30 2.42 211 449 (2019) 7 (2012) 99 12 18 32 34 59 111 135 261 438
2020-07-24 02:00 2.42 211 449 (2019) 7 (2012) 99 12 18 32 34 59 111 135 261 438
2020-07-24 01:30 2.43 213 449 (2019) 7 (2012) 99 12 18 32 34 59 111 135 261 438
2020-07-24 01:00 2.42 211 449 (2019) 7 (2012) 99 12 18 32 34 59 111 135 261 438
2020-07-24 00:30 2.42 211 449 (2019) 7 (2012) 99 12 18 32 34 59 111 135 261 438
2020-07-24 00:00 2.43 213 449 (2019) 7 (2012) 99 12 18 32 34 59 111 135 261 438
2020-07-23 23:30 2.43 213 593 (1990) 8 (2012) 124 13 19 35 38 64 113 122 571 590
2020-07-23 23:00 2.43 213 593 (1990) 8 (2012) 124 13 19 35 38 64 113 122 571 590
2020-07-23 22:30 2.43 213 593 (1990) 8 (2012) 124 13 19 35 38 64 113 122 571 590
2020-07-23 22:00 2.43 213 593 (1990) 8 (2012) 124 13 19 35 38 64 113 122 571 590
2020-07-23 21:30 2.43 213 593 (1990) 8 (2012) 124 13 19 35 38 64 113 122 571 590
2020-07-23 21:00 2.43 213 593 (1990) 8 (2012) 124 13 19 35 38 64 113 122 571 590
2020-07-23 20:30 2.43 213 593 (1990) 8 (2012) 124 13 19 35 38 64 113 122 571 590
2020-07-23 20:00 2.43 213 593 (1990) 8 (2012) 124 13 19 35 38 64 113 122 571 590
2020-07-23 19:30 2.43 213 593 (1990) 8 (2012) 124 13 19 35 38 64 113 122 571 590
2020-07-23 19:00 2.44 216 593 (1990) 8 (2012) 124 13 19 35 38 64 113 122 571 590
2020-07-23 18:30 2.44 216 593 (1990) 8 (2012) 124 13 19 35 38 64 113 122 571 590
2020-07-23 18:00 2.43 213 593 (1990) 8 (2012) 124 13 19 35 38 64 113 122 571 590
2020-07-23 17:30 2.44 216 593 (1990) 8 (2012) 124 13 19 35 38 64 113 122 571 590
2020-07-23 17:00 2.44 216 593 (1990) 8 (2012) 124 13 19 35 38 64 113 122 571 590
2020-07-23 16:30 2.43 213 593 (1990) 8 (2012) 124 13 19 35 38 64 113 122 571 590
2020-07-23 16:00 2.45 218 593 (1990) 8 (2012) 124 13 19 35 38 64 113 122 571 590
2020-07-23 15:30 2.45 218 593 (1990) 8 (2012) 124 13 19 35 38 64 113 122 571 590
2020-07-23 15:00 2.45 218 593 (1990) 8 (2012) 124 13 19 35 38 64 113 122 571 590
2020-07-23 14:30 2.45 218 593 (1990) 8 (2012) 124 13 19 35 38 64 113 122 571 590
2020-07-23 14:00 2.46 221 593 (1990) 8 (2012) 124 13 19 35 38 64 113 122 571 590
2020-07-23 13:30 2.46 221 593 (1990) 8 (2012) 124 13 19 35 38 64 113 122 571 590
2020-07-23 13:00 2.46 221 593 (1990) 8 (2012) 124 13 19 35 38 64 113 122 571 590
2020-07-23 12:30 2.46 221 593 (1990) 8 (2012) 124 13 19 35 38 64 113 122 571 590
2020-07-23 12:00 2.46 221 593 (1990) 8 (2012) 124 13 19 35 38 64 113 122 571 590
2020-07-23 11:30 2.46 221 593 (1990) 8 (2012) 124 13 19 35 38 64 113 122 571 590
2020-07-23 11:00 2.46 221 593 (1990) 8 (2012) 124 13 19 35 38 64 113 122 571 590
2020-07-23 10:30 2.46 221 593 (1990) 8 (2012) 124 13 19 35 38 64 113 122 571 590
2020-07-23 10:00 2.46 221 593 (1990) 8 (2012) 124 13 19 35 38 64 113 122 571 590
2020-07-23 09:30 2.46 221 593 (1990) 8 (2012) 124 13 19 35 38 64 113 122 571 590
2020-07-23 09:00 2.46 221 593 (1990) 8 (2012) 124 13 19 35 38 64 113 122 571 590
2020-07-23 08:30 2.46 221 593 (1990) 8 (2012) 124 13 19 35 38 64 113 122 571 590
2020-07-23 08:00 2.46 221 593 (1990) 8 (2012) 124 13 19 35 38 64 113 122 571 590
2020-07-23 07:30 2.46 221 593 (1990) 8 (2012) 124 13 19 35 38 64 113 122 571 590
2020-07-23 07:00 2.46 221 593 (1990) 8 (2012) 124 13 19 35 38 64 113 122 571 590
2020-07-23 06:30 2.46 221 593 (1990) 8 (2012) 124 13 19 35 38 64 113 122 571 590
2020-07-23 06:00 2.47 224 593 (1990) 8 (2012) 124 13 19 35 38 64 113 122 571 590
2020-07-23 05:30 2.47 224 593 (1990) 8 (2012) 124 13 19 35 38 64 113 122 571 590
2020-07-23 05:00 2.47 224 593 (1990) 8 (2012) 124 13 19 35 38 64 113 122 571 590
2020-07-23 04:30 2.47 224 593 (1990) 8 (2012) 124 13 19 35 38 64 113 122 571 590
2020-07-23 04:00 2.47 224 593 (1990) 8 (2012) 124 13 19 35 38 64 113 122 571 590
2020-07-23 03:30 2.48 226 593 (1990) 8 (2012) 124 13 19 35 38 64 113 122 571 590
2020-07-23 03:00 2.48 226 593 (1990) 8 (2012) 124 13 19 35 38 64 113 122 571 590
2020-07-23 02:30 2.48 226 593 (1990) 8 (2012) 124 13 19 35 38 64 113 122 571 590
2020-07-23 02:00 2.49 229 593 (1990) 8 (2012) 124 13 19 35 38 64 113 122 571 590
2020-07-23 01:30 2.49 229 593 (1990) 8 (2012) 124 13 19 35 38 64 113 122 571 590
2020-07-23 01:00 2.49 229 593 (1990) 8 (2012) 124 13 19 35 38 64 113 122 571 590
2020-07-23 00:30 2.49 229 593 (1990) 8 (2012) 124 13 19 35 38 64 113 122 571 590
2020-07-23 00:00 2.49 229 593 (1990) 8 (2012) 124 13 19 35 38 64 113 122 571 590
2020-07-22 23:30 2.49 229 553 (2015) 10 (2012) 118 15 21 39 40 67 97 201 321 534
2020-07-22 23:00 2.50 231 553 (2015) 10 (2012) 118 15 21 39 40 67 97 201 321 534
2020-07-22 22:30 2.50 231 553 (2015) 10 (2012) 118 15 21 39 40 67 97 201 321 534
2020-07-22 22:00 2.49 229 553 (2015) 10 (2012) 118 15 21 39 40 67 97 201 321 534
2020-07-22 21:30 2.50 231 553 (2015) 10 (2012) 118 15 21 39 40 67 97 201 321 534
2020-07-22 21:00 2.49 229 553 (2015) 10 (2012) 118 15 21 39 40 67 97 201 321 534
2020-07-22 20:30 2.49 229 553 (2015) 10 (2012) 118 15 21 39 40 67 97 201 321 534
2020-07-22 20:00 2.49 229 553 (2015) 10 (2012) 118 15 21 39 40 67 97 201 321 534
2020-07-22 19:30 2.49 229 553 (2015) 10 (2012) 118 15 21 39 40 67 97 201 321 534
2020-07-22 19:00 2.48 226 553 (2015) 10 (2012) 118 15 21 39 40 67 97 201 321 534
2020-07-22 18:30 2.48 226 553 (2015) 10 (2012) 118 15 21 39 40 67 97 201 321 534
2020-07-22 18:00 2.48 226 553 (2015) 10 (2012) 118 15 21 39 40 67 97 201 321 534
2020-07-22 17:30 2.48 226 553 (2015) 10 (2012) 118 15 21 39 40 67 97 201 321 534
2020-07-22 17:00 2.47 224 553 (2015) 10 (2012) 118 15 21 39 40 67 97 201 321 534
2020-07-22 16:30 2.47 224 553 (2015) 10 (2012) 118 15 21 39 40 67 97 201 321 534
2020-07-22 16:00 2.46 221 553 (2015) 10 (2012) 118 15 21 39 40 67 97 201 321 534
2020-07-22 15:30 2.47 224 553 (2015) 10 (2012) 118 15 21 39 40 67 97 201 321 534
2020-07-22 15:00 2.47 224 553 (2015) 10 (2012) 118 15 21 39 40 67 97 201 321 534
2020-07-22 14:30 2.46 221 553 (2015) 10 (2012) 118 15 21 39 40 67 97 201 321 534
2020-07-22 14:00 2.46 221 553 (2015) 10 (2012) 118 15 21 39 40 67 97 201 321 534
2020-07-22 13:30 2.46 221 553 (2015) 10 (2012) 118 15 21 39 40 67 97 201 321 534
2020-07-22 13:00 2.46 221 553 (2015) 10 (2012) 118 15 21 39 40 67 97 201 321 534
2020-07-22 12:30 2.47 224 553 (2015) 10 (2012) 118 15 21 39 40 67 97 201 321 534
2020-07-22 12:00 2.46 221 553 (2015) 10 (2012) 118 15 21 39 40 67 97 201 321 534
2020-07-22 11:30 2.47 224 553 (2015) 10 (2012) 118 15 21 39 40 67 97 201 321 534
2020-07-22 11:00 2.47 224 553 (2015) 10 (2012) 118 15 21 39 40 67 97 201 321 534
2020-07-22 10:30 2.46 221 553 (2015) 10 (2012) 118 15 21 39 40 67 97 201 321 534
2020-07-22 10:00 2.46 221 553 (2015) 10 (2012) 118 15 21 39 40 67 97 201 321 534
2020-07-22 09:30 2.46 221 553 (2015) 10 (2012) 118 15 21 39 40 67 97 201 321 534
2020-07-22 09:00 2.46 221 553 (2015) 10 (2012) 118 15 21 39 40 67 97 201 321 534
2020-07-22 08:30 2.46 221 553 (2015) 10 (2012) 118 15 21 39 40 67 97 201 321 534
2020-07-22 08:00 2.46 221 553 (2015) 10 (2012) 118 15 21 39 40 67 97 201 321 534
2020-07-22 07:30 2.46 221 553 (2015) 10 (2012) 118 15 21 39 40 67 97 201 321 534
2020-07-22 07:00 2.46 221 553 (2015) 10 (2012) 118 15 21 39 40 67 97 201 321 534
2020-07-22 06:30 2.46 221 553 (2015) 10 (2012) 118 15 21 39 40 67 97 201 321 534
2020-07-22 06:00 2.46 221 553 (2015) 10 (2012) 118 15 21 39 40 67 97 201 321 534
2020-07-22 05:30 2.47 224 553 (2015) 10 (2012) 118 15 21 39 40 67 97 201 321 534
2020-07-22 05:00 2.47 224 553 (2015) 10 (2012) 118 15 21 39 40 67 97 201 321 534
2020-07-22 04:30 2.47 224 553 (2015) 10 (2012) 118 15 21 39 40 67 97 201 321 534
2020-07-22 04:00 2.47 224 553 (2015) 10 (2012) 118 15 21 39 40 67 97 201 321 534
2020-07-22 03:30 2.48 226 553 (2015) 10 (2012) 118 15 21 39 40 67 97 201 321 534
2020-07-22 03:00 2.48 226 553 (2015) 10 (2012) 118 15 21 39 40 67 97 201 321 534
2020-07-22 02:30 2.49 229 553 (2015) 10 (2012) 118 15 21 39 40 67 97 201 321 534
2020-07-22 02:00 2.49 229 553 (2015) 10 (2012) 118 15 21 39 40 67 97 201 321 534
2020-07-22 01:30 2.49 229 553 (2015) 10 (2012) 118 15 21 39 40 67 97 201 321 534
2020-07-22 01:00 2.50 231 553 (2015) 10 (2012) 118 15 21 39 40 67 97 201 321 534
2020-07-22 00:30 2.51 234 553 (2015) 10 (2012) 118 15 21 39 40 67 97 201 321 534
2020-07-22 00:00 2.51 234 553 (2015) 10 (2012) 118 15 21 39 40 67 97 201 321 534
2020-07-21 23:30 2.52 237 606 (2015) 12 (2012) 113 18 26 36 39 56 93 103 373 606
2020-07-21 23:00 2.52 237 606 (2015) 12 (2012) 113 18 26 36 39 56 93 103 373 606
2020-07-21 22:30 2.53 239 606 (2015) 12 (2012) 113 18 26 36 39 56 93 103 373 606
2020-07-21 22:00 2.53 239 606 (2015) 12 (2012) 113 18 26 36 39 56 93 103 373 606
2020-07-21 21:30 2.54 242 606 (2015) 12 (2012) 113 18 26 36 39 56 93 103 373 606
2020-07-21 21:00 2.54 242 606 (2015) 12 (2012) 113 18 26 36 39 56 93 103 373 606
2020-07-21 20:30 2.55 245 606 (2015) 12 (2012) 113 18 26 36 39 56 93 103 373 606
2020-07-21 20:00 2.55 245 606 (2015) 12 (2012) 113 18 26 36 39 56 93 103 373 606
2020-07-21 19:30 2.54 242 606 (2015) 12 (2012) 113 18 26 36 39 56 93 103 373 606
2020-07-21 19:00 2.55 245 606 (2015) 12 (2012) 113 18 26 36 39 56 93 103 373 606
2020-07-21 18:30 2.54 242 606 (2015) 12 (2012) 113 18 26 36 39 56 93 103 373 606
2020-07-21 18:00 2.55 245 606 (2015) 12 (2012) 113 18 26 36 39 56 93 103 373 606
2020-07-21 17:30 2.57 250 606 (2015) 12 (2012) 113 18 26 36 39 56 93 103 373 606
2020-07-21 17:00 2.50 231 606 (2015) 12 (2012) 113 18 26 36 39 56 93 103 373 606
2020-07-21 16:30 2.44 216 606 (2015) 12 (2012) 113 18 26 36 39 56 93 103 373 606
2020-07-21 16:00 2.40 206 606 (2015) 12 (2012) 113 18 26 36 39 56 93 103 373 606
2020-07-21 15:30 2.50 231 606 (2015) 12 (2012) 113 18 26 36 39 56 93 103 373 606
2020-07-21 15:00 2.50 231 606 (2015) 12 (2012) 113 18 26 36 39 56 93 103 373 606
2020-07-21 14:30 2.50 231 606 (2015) 12 (2012) 113 18 26 36 39 56 93 103 373 606
2020-07-21 14:00 2.50 231 606 (2015) 12 (2012) 113 18 26 36 39 56 93 103 373 606
2020-07-21 13:30 2.51 234 606 (2015) 12 (2012) 113 18 26 36 39 56 93 103 373 606
2020-07-21 13:00 2.51 234 606 (2015) 12 (2012) 113 18 26 36 39 56 93 103 373 606
2020-07-21 12:30 2.52 237 606 (2015) 12 (2012) 113 18 26 36 39 56 93 103 373 606
2020-07-21 12:00 2.52 237 606 (2015) 12 (2012) 113 18 26 36 39 56 93 103 373 606
2020-07-21 11:30 2.52 237 606 (2015) 12 (2012) 113 18 26 36 39 56 93 103 373 606
2020-07-21 11:00 2.52 237 606 (2015) 12 (2012) 113 18 26 36 39 56 93 103 373 606
2020-07-21 10:30 2.52 237 606 (2015) 12 (2012) 113 18 26 36 39 56 93 103 373 606
2020-07-21 10:00 2.52 237 606 (2015) 12 (2012) 113 18 26 36 39 56 93 103 373 606
2020-07-21 09:30 2.52 237 606 (2015) 12 (2012) 113 18 26 36 39 56 93 103 373 606
2020-07-21 09:00 2.52 237 606 (2015) 12 (2012) 113 18 26 36 39 56 93 103 373 606
2020-07-21 08:30 2.51 234 606 (2015) 12 (2012) 113 18 26 36 39 56 93 103 373 606
2020-07-21 08:00 2.52 237 606 (2015) 12 (2012) 113 18 26 36 39 56 93 103 373 606
2020-07-21 07:30 2.52 237 606 (2015) 12 (2012) 113 18 26 36 39 56 93 103 373 606
2020-07-21 07:00 2.52 237 606 (2015) 12 (2012) 113 18 26 36 39 56 93 103 373 606
2020-07-21 06:30 2.52 237 606 (2015) 12 (2012) 113 18 26 36 39 56 93 103 373 606
2020-07-21 06:00 2.53 239 606 (2015) 12 (2012) 113 18 26 36 39 56 93 103 373 606
2020-07-21 05:30 2.53 239 606 (2015) 12 (2012) 113 18 26 36 39 56 93 103 373 606
2020-07-21 05:00 2.53 239 606 (2015) 12 (2012) 113 18 26 36 39 56 93 103 373 606
2020-07-21 04:30 2.53 239 606 (2015) 12 (2012) 113 18 26 36 39 56 93 103 373 606
2020-07-21 04:00 2.53 239 606 (2015) 12 (2012) 113 18 26 36 39 56 93 103 373 606
2020-07-21 03:30 2.53 239 606 (2015) 12 (2012) 113 18 26 36 39 56 93 103 373 606
2020-07-21 03:00 2.54 242 606 (2015) 12 (2012) 113 18 26 36 39 56 93 103 373 606
2020-07-21 02:30 2.54 242 606 (2015) 12 (2012) 113 18 26 36 39 56 93 103 373 606
2020-07-21 02:00 2.54 242 606 (2015) 12 (2012) 113 18 26 36 39 56 93 103 373 606
2020-07-21 01:30 2.54 242 606 (2015) 12 (2012) 113 18 26 36 39 56 93 103 373 606
2020-07-21 01:00 2.54 242 606 (2015) 12 (2012) 113 18 26 36 39 56 93 103 373 606
2020-07-21 00:30 2.54 242 606 (2015) 12 (2012) 113 18 26 36 39 56 93 103 373 606
2020-07-21 00:00 2.55 245 606 (2015) 12 (2012) 113 18 26 36 39 56 93 103 373 606
2020-07-20 23:30 2.55 245 928 (2019) 15 (2012) 107 20 27 30 40 59 92 102 213 648
2020-07-20 23:00 2.55 245 928 (2019) 15 (2012) 107 20 27 30 40 59 92 102 213 648
2020-07-20 22:30 2.55 245 928 (2019) 15 (2012) 107 20 27 30 40 59 92 102 213 648
2020-07-20 22:00 2.56 247 928 (2019) 15 (2012) 107 20 27 30 40 59 92 102 213 648
2020-07-20 21:30 2.56 247 928 (2019) 15 (2012) 107 20 27 30 40 59 92 102 213 648
2020-07-20 21:00 2.56 247 928 (2019) 15 (2012) 107 20 27 30 40 59 92 102 213 648
2020-07-20 20:30 2.56 247 928 (2019) 15 (2012) 107 20 27 30 40 59 92 102 213 648
2020-07-20 20:00 2.56 247 928 (2019) 15 (2012) 107 20 27 30 40 59 92 102 213 648
2020-07-20 19:30 2.57 250 928 (2019) 15 (2012) 107 20 27 30 40 59 92 102 213 648
2020-07-20 19:00 2.57 250 928 (2019) 15 (2012) 107 20 27 30 40 59 92 102 213 648
2020-07-20 18:30 2.57 250 928 (2019) 15 (2012) 107 20 27 30 40 59 92 102 213 648
2020-07-20 18:00 2.58 253 928 (2019) 15 (2012) 107 20 27 30 40 59 92 102 213 648
2020-07-20 17:30 2.58 253 928 (2019) 15 (2012) 107 20 27 30 40 59 92 102 213 648
2020-07-20 17:00 2.56 247 928 (2019) 15 (2012) 107 20 27 30 40 59 92 102 213 648
2020-07-20 16:30 2.60 259 928 (2019) 15 (2012) 107 20 27 30 40 59 92 102 213 648
2020-07-20 16:00 2.60 259 928 (2019) 15 (2012) 107 20 27 30 40 59 92 102 213 648
2020-07-20 15:30 2.60 259 928 (2019) 15 (2012) 107 20 27 30 40 59 92 102 213 648
2020-07-20 15:00 2.60 259 928 (2019) 15 (2012) 107 20 27 30 40 59 92 102 213 648
2020-07-20 14:30 2.60 259 928 (2019) 15 (2012) 107 20 27 30 40 59 92 102 213 648
2020-07-20 14:00 2.61 261 928 (2019) 15 (2012) 107 20 27 30 40 59 92 102 213 648
2020-07-20 13:30 2.57 250 928 (2019) 15 (2012) 107 20 27 30 40 59 92 102 213 648
2020-07-20 13:00 2.47 224 928 (2019) 15 (2012) 107 20 27 30 40 59 92 102 213 648
2020-07-20 12:30 2.60 259 928 (2019) 15 (2012) 107 20 27 30 40 59 92 102 213 648
2020-07-20 12:00 2.60 259 928 (2019) 15 (2012) 107 20 27 30 40 59 92 102 213 648
2020-07-20 11:30 2.60 259 928 (2019) 15 (2012) 107 20 27 30 40 59 92 102 213 648
2020-07-20 11:00 2.61 261 928 (2019) 15 (2012) 107 20 27 30 40 59 92 102 213 648
2020-07-20 10:30 2.60 259 928 (2019) 15 (2012) 107 20 27 30 40 59 92 102 213 648
2020-07-20 10:00 2.61 261 928 (2019) 15 (2012) 107 20 27 30 40 59 92 102 213 648
2020-07-20 09:30 2.61 261 928 (2019) 15 (2012) 107 20 27 30 40 59 92 102 213 648
2020-07-20 09:00 2.61 261 928 (2019) 15 (2012) 107 20 27 30 40 59 92 102 213 648
2020-07-20 08:30 2.61 261 928 (2019) 15 (2012) 107 20 27 30 40 59 92 102 213 648
2020-07-20 08:00 2.61 261 928 (2019) 15 (2012) 107 20 27 30 40 59 92 102 213 648
2020-07-20 07:30 2.61 261 928 (2019) 15 (2012) 107 20 27 30 40 59 92 102 213 648
2020-07-20 07:00 2.61 261 928 (2019) 15 (2012) 107 20 27 30 40 59 92 102 213 648
2020-07-20 06:30 2.62 264 928 (2019) 15 (2012) 107 20 27 30 40 59 92 102 213 648
2020-07-20 06:00 2.62 264 928 (2019) 15 (2012) 107 20 27 30 40 59 92 102 213 648
2020-07-20 05:30 2.63 267 928 (2019) 15 (2012) 107 20 27 30 40 59 92 102 213 648
2020-07-20 05:00 2.63 267 928 (2019) 15 (2012) 107 20 27 30 40 59 92 102 213 648
2020-07-20 04:30 2.63 267 928 (2019) 15 (2012) 107 20 27 30 40 59 92 102 213 648
2020-07-20 04:00 2.64 270 928 (2019) 15 (2012) 107 20 27 30 40 59 92 102 213 648
2020-07-20 03:30 2.64 270 928 (2019) 15 (2012) 107 20 27 30 40 59 92 102 213 648
2020-07-20 03:00 2.65 273 928 (2019) 15 (2012) 107 20 27 30 40 59 92 102 213 648
2020-07-20 02:30 2.65 273 928 (2019) 15 (2012) 107 20 27 30 40 59 92 102 213 648
2020-07-20 02:00 2.66 276 928 (2019) 15 (2012) 107 20 27 30 40 59 92 102 213 648
2020-07-20 01:30 2.66 276 928 (2019) 15 (2012) 107 20 27 30 40 59 92 102 213 648
2020-07-20 01:00 2.66 276 928 (2019) 15 (2012) 107 20 27 30 40 59 92 102 213 648
2020-07-20 00:30 2.67 278 928 (2019) 15 (2012) 107 20 27 30 40 59 92 102 213 648
2020-07-20 00:00 2.67 278 928 (2019) 15 (2012) 107 20 27 30 40 59 92 102 213 648
2020-07-19 23:30 2.68 281 2080 (2019) 14 (2012) 144 19 28 33 41 67 100 113 140 1200
2020-07-19 23:00 2.68 281 2080 (2019) 14 (2012) 144 19 28 33 41 67 100 113 140 1200
2020-07-19 22:30 2.69 284 2080 (2019) 14 (2012) 144 19 28 33 41 67 100 113 140 1200
2020-07-19 22:00 2.69 284 2080 (2019) 14 (2012) 144 19 28 33 41 67 100 113 140 1200
2020-07-19 21:30 2.69 284 2080 (2019) 14 (2012) 144 19 28 33 41 67 100 113 140 1200
2020-07-19 21:00 2.70 286 2080 (2019) 14 (2012) 144 19 28 33 41 67 100 113 140 1200
2020-07-19 20:30 2.70 286 2080 (2019) 14 (2012) 144 19 28 33 41 67 100 113 140 1200
2020-07-19 20:00 2.70 286 2080 (2019) 14 (2012) 144 19 28 33 41 67 100 113 140 1200
2020-07-19 19:30 2.71 289 2080 (2019) 14 (2012) 144 19 28 33 41 67 100 113 140 1200
2020-07-19 19:00 2.71 289 2080 (2019) 14 (2012) 144 19 28 33 41 67 100 113 140 1200
2020-07-19 18:30 2.71 289 2080 (2019) 14 (2012) 144 19 28 33 41 67 100 113 140 1200
2020-07-19 18:00 2.72 292 2080 (2019) 14 (2012) 144 19 28 33 41 67 100 113 140 1200
2020-07-19 17:30 2.72 292 2080 (2019) 14 (2012) 144 19 28 33 41 67 100 113 140 1200
2020-07-19 17:00 2.72 292 2080 (2019) 14 (2012) 144 19 28 33 41 67 100 113 140 1200
2020-07-19 16:30 2.72 292 2080 (2019) 14 (2012) 144 19 28 33 41 67 100 113 140 1200
2020-07-19 16:00 2.72 292 2080 (2019) 14 (2012) 144 19 28 33 41 67 100 113 140 1200
2020-07-19 15:30 2.72 292 2080 (2019) 14 (2012) 144 19 28 33 41 67 100 113 140 1200
2020-07-19 15:00 2.73 294 2080 (2019) 14 (2012) 144 19 28 33 41 67 100 113 140 1200
2020-07-19 14:30 2.72 292 2080 (2019) 14 (2012) 144 19 28 33 41 67 100 113 140 1200
2020-07-19 14:00 2.72 292 2080 (2019) 14 (2012) 144 19 28 33 41 67 100 113 140 1200
2020-07-19 13:30 2.72 292 2080 (2019) 14 (2012) 144 19 28 33 41 67 100 113 140 1200
2020-07-19 13:00 2.72 292 2080 (2019) 14 (2012) 144 19 28 33 41 67 100 113 140 1200
2020-07-19 12:30 2.71 289 2080 (2019) 14 (2012) 144 19 28 33 41 67 100 113 140 1200
2020-07-19 12:00 2.71 289 2080 (2019) 14 (2012) 144 19 28 33 41 67 100 113 140 1200
2020-07-19 11:30 2.71 289 2080 (2019) 14 (2012) 144 19 28 33 41 67 100 113 140 1200
2020-07-19 11:00 2.71 289 2080 (2019) 14 (2012) 144 19 28 33 41 67 100 113 140 1200
2020-07-19 10:30 2.71 289 2080 (2019) 14 (2012) 144 19 28 33 41 67 100 113 140 1200
2020-07-19 10:00 2.71 289 2080 (2019) 14 (2012) 144 19 28 33 41 67 100 113 140 1200
2020-07-19 09:30 2.71 289 2080 (2019) 14 (2012) 144 19 28 33 41 67 100 113 140 1200
2020-07-19 09:00 2.72 292 2080 (2019) 14 (2012) 144 19 28 33 41 67 100 113 140 1200
2020-07-19 08:30 2.72 292 2080 (2019) 14 (2012) 144 19 28 33 41 67 100 113 140 1200
2020-07-19 08:00 2.72 292 2080 (2019) 14 (2012) 144 19 28 33 41 67 100 113 140 1200
2020-07-19 07:30 2.73 294 2080 (2019) 14 (2012) 144 19 28 33 41 67 100 113 140 1200
2020-07-19 07:00 2.73 294 2080 (2019) 14 (2012) 144 19 28 33 41 67 100 113 140 1200
2020-07-19 06:30 2.74 297 2080 (2019) 14 (2012) 144 19 28 33 41 67 100 113 140 1200
2020-07-19 06:00 2.75 300 2080 (2019) 14 (2012) 144 19 28 33 41 67 100 113 140 1200
2020-07-19 05:30 2.75 300 2080 (2019) 14 (2012) 144 19 28 33 41 67 100 113 140 1200
2020-07-19 05:00 2.76 302 2080 (2019) 14 (2012) 144 19 28 33 41 67 100 113 140 1200
2020-07-19 04:30 2.77 305 2080 (2019) 14 (2012) 144 19 28 33 41 67 100 113 140 1200
2020-07-19 04:00 2.78 307 2080 (2019) 14 (2012) 144 19 28 33 41 67 100 113 140 1200
2020-07-19 03:30 2.79 310 2080 (2019) 14 (2012) 144 19 28 33 41 67 100 113 140 1200
2020-07-19 03:00 2.80 313 2080 (2019) 14 (2012) 144 19 28 33 41 67 100 113 140 1200
2020-07-19 02:30 2.80 313 2080 (2019) 14 (2012) 144 19 28 33 41 67 100 113 140 1200
2020-07-19 02:00 2.81 316 2080 (2019) 14 (2012) 144 19 28 33 41 67 100 113 140 1200
2020-07-19 01:30 2.82 318 2080 (2019) 14 (2012) 144 19 28 33 41 67 100 113 140 1200
2020-07-19 01:00 2.83 321 2080 (2019) 14 (2012) 144 19 28 33 41 67 100 113 140 1200
2020-07-19 00:30 2.84 324 2080 (2019) 14 (2012) 144 19 28 33 41 67 100 113 140 1200
2020-07-19 00:00 2.85 326 2080 (2019) 14 (2012) 144 19 28 33 41 67 100 113 140 1200
2020-07-18 23:30 2.85 326 6870 (2019) 9 (2012) 320 17 27 35 41 76 117 124 198 3620
2020-07-18 23:00 2.86 329 6870 (2019) 9 (2012) 320 17 27 35 41 76 117 124 198 3620
2020-07-18 22:30 2.86 329 6870 (2019) 9 (2012) 320 17 27 35 41 76 117 124 198 3620
2020-07-18 22:00 2.87 332 6870 (2019) 9 (2012) 320 17 27 35 41 76 117 124 198 3620
2020-07-18 21:30 2.87 332 6870 (2019) 9 (2012) 320 17 27 35 41 76 117 124 198 3620
2020-07-18 21:00 2.87 332 6870 (2019) 9 (2012) 320 17 27 35 41 76 117 124 198 3620
2020-07-18 20:30 2.87 332 6870 (2019) 9 (2012) 320 17 27 35 41 76 117 124 198 3620
2020-07-18 20:00 2.86 329 6870 (2019) 9 (2012) 320 17 27 35 41 76 117 124 198 3620
2020-07-18 19:30 2.85 326 6870 (2019) 9 (2012) 320 17 27 35 41 76 117 124 198 3620
2020-07-18 19:00 2.83 321 6870 (2019) 9 (2012) 320 17 27 35 41 76 117 124 198 3620
2020-07-18 18:30 2.81 316 6870 (2019) 9 (2012) 320 17 27 35 41 76 117 124 198 3620
2020-07-18 18:00 2.77 305 6870 (2019) 9 (2012) 320 17 27 35 41 76 117 124 198 3620
2020-07-18 17:30 2.74 297 6870 (2019) 9 (2012) 320 17 27 35 41 76 117 124 198 3620
2020-07-18 17:00 2.71 289 6870 (2019) 9 (2012) 320 17 27 35 41 76 117 124 198 3620
2020-07-18 16:30 2.67 278 6870 (2019) 9 (2012) 320 17 27 35 41 76 117 124 198 3620
2020-07-18 16:00 2.64 270 6870 (2019) 9 (2012) 320 17 27 35 41 76 117 124 198 3620
2020-07-18 15:30 2.63 267 6870 (2019) 9 (2012) 320 17 27 35 41 76 117 124 198 3620
2020-07-18 15:00 2.62 264 6870 (2019) 9 (2012) 320 17 27 35 41 76 117 124 198 3620
2020-07-18 14:30 2.62 264 6870 (2019) 9 (2012) 320 17 27 35 41 76 117 124 198 3620
2020-07-18 14:00 2.61 261 6870 (2019) 9 (2012) 320 17 27 35 41 76 117 124 198 3620
2020-07-18 13:30 2.62 264 6870 (2019) 9 (2012) 320 17 27 35 41 76 117 124 198 3620
2020-07-18 13:00 2.62 264 6870 (2019) 9 (2012) 320 17 27 35 41 76 117 124 198 3620
2020-07-18 12:30 2.61 261 6870 (2019) 9 (2012) 320 17 27 35 41 76 117 124 198 3620
2020-07-18 12:00 2.61 261 6870 (2019) 9 (2012) 320 17 27 35 41 76 117 124 198 3620
2020-07-18 11:30 2.59 256 6870 (2019) 9 (2012) 320 17 27 35 41 76 117 124 198 3620
2020-07-18 11:00 2.58 253 6870 (2019) 9 (2012) 320 17 27 35 41 76 117 124 198 3620
2020-07-18 10:30 2.55 245 6870 (2019) 9 (2012) 320 17 27 35 41 76 117 124 198 3620
2020-07-18 10:00 2.53 239 6870 (2019) 9 (2012) 320 17 27 35 41 76 117 124 198 3620
2020-07-18 09:30 2.49 229 6870 (2019) 9 (2012) 320 17 27 35 41 76 117 124 198 3620
2020-07-18 09:00 2.47 224 6870 (2019) 9 (2012) 320 17 27 35 41 76 117 124 198 3620
2020-07-18 08:30 2.45 218 6870 (2019) 9 (2012) 320 17 27 35 41 76 117 124 198 3620
2020-07-18 08:00 2.43 213 6870 (2019) 9 (2012) 320 17 27 35 41 76 117 124 198 3620
2020-07-18 07:30 2.43 213 6870 (2019) 9 (2012) 320 17 27 35 41 76 117 124 198 3620
2020-07-18 07:00 2.42 211 6870 (2019) 9 (2012) 320 17 27 35 41 76 117 124 198 3620
2020-07-18 06:30 2.42 211 6870 (2019) 9 (2012) 320 17 27 35 41 76 117 124 198 3620
2020-07-18 06:00 2.42 211 6870 (2019) 9 (2012) 320 17 27 35 41 76 117 124 198 3620
2020-07-18 05:30 2.42 211 6870 (2019) 9 (2012) 320 17 27 35 41 76 117 124 198 3620
2020-07-18 05:00 2.42 211 6870 (2019) 9 (2012) 320 17 27 35 41 76 117 124 198 3620
2020-07-18 04:30 2.42 211 6870 (2019) 9 (2012) 320 17 27 35 41 76 117 124 198 3620
2020-07-18 04:00 2.43 213 6870 (2019) 9 (2012) 320 17 27 35 41 76 117 124 198 3620
2020-07-18 03:30 2.43 213 6870 (2019) 9 (2012) 320 17 27 35 41 76 117 124 198 3620
2020-07-18 03:00 2.44 216 6870 (2019) 9 (2012) 320 17 27 35 41 76 117 124 198 3620
2020-07-18 02:30 2.44 216 6870 (2019) 9 (2012) 320 17 27 35 41 76 117 124 198 3620
2020-07-18 02:00 2.45 218 6870 (2019) 9 (2012) 320 17 27 35 41 76 117 124 198 3620
2020-07-18 01:30 2.45 218 6870 (2019) 9 (2012) 320 17 27 35 41 76 117 124 198 3620
2020-07-18 01:00 2.45 218 6870 (2019) 9 (2012) 320 17 27 35 41 76 117 124 198 3620
2020-07-18 00:30 2.46 221 6870 (2019) 9 (2012) 320 17 27 35 41 76 117 124 198 3620
2020-07-18 00:00 2.47 224 6870 (2019) 9 (2012) 320 17 27 35 41 76 117 124 198 3620
2020-07-17 23:30 2.47 224 2260 (2019) 9 (2012) 178 17 29 33 39 74 149 162 335 1340
2020-07-17 23:00 2.48 226 2260 (2019) 9 (2012) 178 17 29 33 39 74 149 162 335 1340
2020-07-17 22:30 2.49 229 2260 (2019) 9 (2012) 178 17 29 33 39 74 149 162 335 1340
2020-07-17 22:00 2.50 231 2260 (2019) 9 (2012) 178 17 29 33 39 74 149 162 335 1340
2020-07-17 21:30 2.50 231 2260 (2019) 9 (2012) 178 17 29 33 39 74 149 162 335 1340
2020-07-17 21:00 2.50 231 2260 (2019) 9 (2012) 178 17 29 33 39 74 149 162 335 1340
2020-07-17 20:30 2.50 231 2260 (2019) 9 (2012) 178 17 29 33 39 74 149 162 335 1340
2020-07-17 20:00 2.48 226 2260 (2019) 9 (2012) 178 17 29 33 39 74 149 162 335 1340
2020-07-17 19:30 2.46 221 2260 (2019) 9 (2012) 178 17 29 33 39 74 149 162 335 1340
2020-07-17 19:00 2.42 211 2260 (2019) 9 (2012) 178 17 29 33 39 74 149 162 335 1340
2020-07-17 18:30 2.40 206 2260 (2019) 9 (2012) 178 17 29 33 39 74 149 162 335 1340
2020-07-17 18:00 2.39 203 2260 (2019) 9 (2012) 178 17 29 33 39 74 149 162 335 1340
2020-07-17 17:30 2.39 203 2260 (2019) 9 (2012) 178 17 29 33 39 74 149 162 335 1340
2020-07-17 17:00 2.39 203 2260 (2019) 9 (2012) 178 17 29 33 39 74 149 162 335 1340
2020-07-17 16:30 2.39 203 2260 (2019) 9 (2012) 178 17 29 33 39 74 149 162 335 1340
2020-07-17 16:00 2.40 206 2260 (2019) 9 (2012) 178 17 29 33 39 74 149 162 335 1340
2020-07-17 15:30 2.39 203 2260 (2019) 9 (2012) 178 17 29 33 39 74 149 162 335 1340
2020-07-17 15:00 2.30 182 2260 (2019) 9 (2012) 178 17 29 33 39 74 149 162 335 1340
2020-07-17 14:30 2.23 166 2260 (2019) 9 (2012) 178 17 29 33 39 74 149 162 335 1340
2020-07-17 14:00 2.15 149 2260 (2019) 9 (2012) 178 17 29 33 39 74 149 162 335 1340
2020-07-17 13:30 2.17 153 2260 (2019) 9 (2012) 178 17 29 33 39 74 149 162 335 1340
2020-07-17 13:00 2.28 177 2260 (2019) 9 (2012) 178 17 29 33 39 74 149 162 335 1340
2020-07-17 12:30 2.30 182 2260 (2019) 9 (2012) 178 17 29 33 39 74 149 162 335 1340
2020-07-17 12:00 2.30 182 2260 (2019) 9 (2012) 178 17 29 33 39 74 149 162 335 1340
2020-07-17 11:30 2.30 182 2260 (2019) 9 (2012) 178 17 29 33 39 74 149 162 335 1340
2020-07-17 11:00 2.30 182 2260 (2019) 9 (2012) 178 17 29 33 39 74 149 162 335 1340
2020-07-17 10:30 2.30 182 2260 (2019) 9 (2012) 178 17 29 33 39 74 149 162 335 1340
2020-07-17 10:00 2.29 180 2260 (2019) 9 (2012) 178 17 29 33 39 74 149 162 335 1340
2020-07-17 09:30 2.29 180 2260 (2019) 9 (2012) 178 17 29 33 39 74 149 162 335 1340
2020-07-17 09:00 2.29 180 2260 (2019) 9 (2012) 178 17 29 33 39 74 149 162 335 1340
2020-07-17 08:30 2.29 180 2260 (2019) 9 (2012) 178 17 29 33 39 74 149 162 335 1340
2020-07-17 08:00 2.29 180 2260 (2019) 9 (2012) 178 17 29 33 39 74 149 162 335 1340
2020-07-17 07:30 2.29 180 2260 (2019) 9 (2012) 178 17 29 33 39 74 149 162 335 1340
2020-07-17 07:00 2.28 177 2260 (2019) 9 (2012) 178 17 29 33 39 74 149 162 335 1340
2020-07-17 06:30 2.28 177 2260 (2019) 9 (2012) 178 17 29 33 39 74 149 162 335 1340
2020-07-17 06:00 2.28 177 2260 (2019) 9 (2012) 178 17 29 33 39 74 149 162 335 1340
2020-07-17 05:30 2.28 177 2260 (2019) 9 (2012) 178 17 29 33 39 74 149 162 335 1340
2020-07-17 05:00 2.29 180 2260 (2019) 9 (2012) 178 17 29 33 39 74 149 162 335 1340
2020-07-17 04:30 2.28 177 2260 (2019) 9 (2012) 178 17 29 33 39 74 149 162 335 1340
2020-07-17 04:00 2.28 177 2260 (2019) 9 (2012) 178 17 29 33 39 74 149 162 335 1340
2020-07-17 03:30 2.28 177 2260 (2019) 9 (2012) 178 17 29 33 39 74 149 162 335 1340
2020-07-17 03:00 2.28 177 2260 (2019) 9 (2012) 178 17 29 33 39 74 149 162 335 1340
2020-07-17 02:30 2.29 180 2260 (2019) 9 (2012) 178 17 29 33 39 74 149 162 335 1340
2020-07-17 02:00 2.28 177 2260 (2019) 9 (2012) 178 17 29 33 39 74 149 162 335 1340
2020-07-17 01:30 2.28 177 2260 (2019) 9 (2012) 178 17 29 33 39 74 149 162 335 1340
2020-07-17 01:00 2.28 177 2260 (2019) 9 (2012) 178 17 29 33 39 74 149 162 335 1340
2020-07-17 00:30 2.28 177 2260 (2019) 9 (2012) 178 17 29 33 39 74 149 162 335 1340
2020-07-17 00:00 2.29 180 2260 (2019) 9 (2012) 178 17 29 33 39 74 149 162 335 1340
2020-07-16 23:30 2.28 177 1640 (2019) 9 (2012) 177 17 27 32 40 82 201 227 323 1070
2020-07-16 23:00 2.28 177 1640 (2019) 9 (2012) 177 17 27 32 40 82 201 227 323 1070
2020-07-16 22:30 2.28 177 1640 (2019) 9 (2012) 177 17 27 32 40 82 201 227 323 1070
2020-07-16 22:00 2.28 177 1640 (2019) 9 (2012) 177 17 27 32 40 82 201 227 323 1070
2020-07-16 21:30 2.28 177 1640 (2019) 9 (2012) 177 17 27 32 40 82 201 227 323 1070
2020-07-16 21:00 2.29 180 1640 (2019) 9 (2012) 177 17 27 32 40 82 201 227 323 1070
2020-07-16 20:30 2.29 180 1640 (2019) 9 (2012) 177 17 27 32 40 82 201 227 323 1070
2020-07-16 20:00 2.29 180 1640 (2019) 9 (2012) 177 17 27 32 40 82 201 227 323 1070
2020-07-16 19:30 2.29 180 1640 (2019) 9 (2012) 177 17 27 32 40 82 201 227 323 1070
2020-07-16 19:00 2.29 180 1640 (2019) 9 (2012) 177 17 27 32 40 82 201 227 323 1070
2020-07-16 18:30 2.29 180 1640 (2019) 9 (2012) 177 17 27 32 40 82 201 227 323 1070
2020-07-16 18:00 2.30 182 1640 (2019) 9 (2012) 177 17 27 32 40 82 201 227 323 1070
2020-07-16 17:30 2.30 182 1640 (2019) 9 (2012) 177 17 27 32 40 82 201 227 323 1070
2020-07-16 17:00 2.30 182 1640 (2019) 9 (2012) 177 17 27 32 40 82 201 227 323 1070
2020-07-16 16:30 2.30 182 1640 (2019) 9 (2012) 177 17 27 32 40 82 201 227 323 1070
2020-07-16 16:00 2.31 184 1640 (2019) 9 (2012) 177 17 27 32 40 82 201 227 323 1070
2020-07-16 15:30 2.31 184 1640 (2019) 9 (2012) 177 17 27 32 40 82 201 227 323 1070
2020-07-16 15:00 2.31 184 1640 (2019) 9 (2012) 177 17 27 32 40 82 201 227 323 1070
2020-07-16 14:30 2.31 184 1640 (2019) 9 (2012) 177 17 27 32 40 82 201 227 323 1070
2020-07-16 14:00 2.31 184 1640 (2019) 9 (2012) 177 17 27 32 40 82 201 227 323 1070
2020-07-16 13:30 2.31 184 1640 (2019) 9 (2012) 177 17 27 32 40 82 201 227 323 1070
2020-07-16 13:00 2.31 184 1640 (2019) 9 (2012) 177 17 27 32 40 82 201 227 323 1070
2020-07-16 12:30 2.31 184 1640 (2019) 9 (2012) 177 17 27 32 40 82 201 227 323 1070
2020-07-16 12:00 2.31 184 1640 (2019) 9 (2012) 177 17 27 32 40 82 201 227 323 1070
2020-07-16 11:30 2.31 184 1640 (2019) 9 (2012) 177 17 27 32 40 82 201 227 323 1070
2020-07-16 11:00 2.31 184 1640 (2019) 9 (2012) 177 17 27 32 40 82 201 227 323 1070
2020-07-16 10:30 2.30 182 1640 (2019) 9 (2012) 177 17 27 32 40 82 201 227 323 1070
2020-07-16 10:00 2.30 182 1640 (2019) 9 (2012) 177 17 27 32 40 82 201 227 323 1070
2020-07-16 09:30 2.30 182 1640 (2019) 9 (2012) 177 17 27 32 40 82 201 227 323 1070
2020-07-16 08:30 2.30 182 1640 (2019) 9 (2012) 177 17 27 32 40 82 201 227 323 1070
2020-07-16 08:00 2.30 182 1640 (2019) 9 (2012) 177 17 27 32 40 82 201 227 323 1070
2020-07-16 07:30 2.30 182 1640 (2019) 9 (2012) 177 17 27 32 40 82 201 227 323 1070
2020-07-16 07:00 2.30 182 1640 (2019) 9 (2012) 177 17 27 32 40 82 201 227 323 1070
2020-07-16 06:30 2.30 182 1640 (2019) 9 (2012) 177 17 27 32 40 82 201 227 323 1070
2020-07-16 06:00 2.30 182 1640 (2019) 9 (2012) 177 17 27 32 40 82 201 227 323 1070
2020-07-16 05:00 2.30 182 1640 (2019) 9 (2012) 177 17 27 32 40 82 201 227 323 1070
2020-07-16 04:30 2.30 182 1640 (2019) 9 (2012) 177 17 27 32 40 82 201 227 323 1070
2020-07-16 04:00 2.30 182 1640 (2019) 9 (2012) 177 17 27 32 40 82 201 227 323 1070
2020-07-16 03:30 2.30 182 1640 (2019) 9 (2012) 177 17 27 32 40 82 201 227 323 1070
2020-07-16 02:30 2.31 184 1640 (2019) 9 (2012) 177 17 27 32 40 82 201 227 323 1070
2020-07-16 02:00 2.30 182 1640 (2019) 9 (2012) 177 17 27 32 40 82 201 227 323 1070
2020-07-16 01:30 2.30 182 1640 (2019) 9 (2012) 177 17 27 32 40 82 201 227 323 1070
2020-07-16 01:00 2.30 182 1640 (2019) 9 (2012) 177 17 27 32 40 82 201 227 323 1070
2020-07-16 00:30 2.30 182 1640 (2019) 9 (2012) 177 17 27 32 40 82 201 227 323 1070
2020-07-16 00:00 2.30 182 1640 (2019) 9 (2012) 177 17 27 32 40 82 201 227 323 1070
2020-07-15 23:30 2.30 182 749 (2017) 10 (2012) 143 17 28 36 40 80 142 252 401 689
2020-07-15 23:00 2.30 182 749 (2017) 10 (2012) 143 17 28 36 40 80 142 252 401 689
2020-07-15 22:30 2.31 184 749 (2017) 10 (2012) 143 17 28 36 40 80 142 252 401 689
2020-07-15 22:00 2.31 184 749 (2017) 10 (2012) 143 17 28 36 40 80 142 252 401 689
2020-07-15 21:30 2.30 182 749 (2017) 10 (2012) 143 17 28 36 40 80 142 252 401 689
2020-07-15 20:30 2.30 182 749 (2017) 10 (2012) 143 17 28 36 40 80 142 252 401 689
2020-07-15 19:30 2.31 184 749 (2017) 10 (2012) 143 17 28 36 40 80 142 252 401 689
2020-07-15 19:00 2.31 184 749 (2017) 10 (2012) 143 17 28 36 40 80 142 252 401 689
2020-07-15 18:30 2.31 184 749 (2017) 10 (2012) 143 17 28 36 40 80 142 252 401 689
2020-07-15 18:00 2.31 184 749 (2017) 10 (2012) 143 17 28 36 40 80 142 252 401 689
2020-07-15 17:30 2.32 187 749 (2017) 10 (2012) 143 17 28 36 40 80 142 252 401 689
2020-07-15 17:00 2.31 184 749 (2017) 10 (2012) 143 17 28 36 40 80 142 252 401 689
2020-07-15 16:30 2.32 187 749 (2017) 10 (2012) 143 17 28 36 40 80 142 252 401 689
2020-07-15 16:00 2.31 184 749 (2017) 10 (2012) 143 17 28 36 40 80 142 252 401 689
2020-07-15 15:30 2.32 187 749 (2017) 10 (2012) 143 17 28 36 40 80 142 252 401 689
2020-07-15 15:00 2.32 187 749 (2017) 10 (2012) 143 17 28 36 40 80 142 252 401 689
2020-07-15 14:30 2.31 184 749 (2017) 10 (2012) 143 17 28 36 40 80 142 252 401 689
2020-07-15 14:00 2.32 187 749 (2017) 10 (2012) 143 17 28 36 40 80 142 252 401 689
2020-07-15 13:30 2.33 189 749 (2017) 10 (2012) 143 17 28 36 40 80 142 252 401 689
2020-07-15 13:00 2.32 187 749 (2017) 10 (2012) 143 17 28 36 40 80 142 252 401 689
2020-07-15 12:30 2.30 182 749 (2017) 10 (2012) 143 17 28 36 40 80 142 252 401 689
2020-07-15 12:00 2.32 187 749 (2017) 10 (2012) 143 17 28 36 40 80 142 252 401 689
2020-07-15 11:30 2.32 187 749 (2017) 10 (2012) 143 17 28 36 40 80 142 252 401 689
2020-07-15 11:00 2.32 187 749 (2017) 10 (2012) 143 17 28 36 40 80 142 252 401 689
2020-07-15 10:30 2.32 187 749 (2017) 10 (2012) 143 17 28 36 40 80 142 252 401 689
2020-07-15 10:00 2.32 187 749 (2017) 10 (2012) 143 17 28 36 40 80 142 252 401 689
2020-07-15 09:30 2.32 187 749 (2017) 10 (2012) 143 17 28 36 40 80 142 252 401 689
2020-07-15 09:00 2.32 187 749 (2017) 10 (2012) 143 17 28 36 40 80 142 252 401 689
2020-07-15 08:30 2.31 184 749 (2017) 10 (2012) 143 17 28 36 40 80 142 252 401 689
2020-07-15 08:00 2.31 184 749 (2017) 10 (2012) 143 17 28 36 40 80 142 252 401 689
2020-07-15 07:30 2.32 187 749 (2017) 10 (2012) 143 17 28 36 40 80 142 252 401 689
2020-07-15 07:00 2.31 184 749 (2017) 10 (2012) 143 17 28 36 40 80 142 252 401 689
2020-07-15 06:30 2.32 187 749 (2017) 10 (2012) 143 17 28 36 40 80 142 252 401 689
2020-07-15 06:00 2.31 184 749 (2017) 10 (2012) 143 17 28 36 40 80 142 252 401 689
2020-07-15 05:30 2.31 184 749 (2017) 10 (2012) 143 17 28 36 40 80 142 252 401 689
2020-07-15 05:00 2.32 187 749 (2017) 10 (2012) 143 17 28 36 40 80 142 252 401 689
2020-07-15 04:30 2.32 187 749 (2017) 10 (2012) 143 17 28 36 40 80 142 252 401 689
2020-07-15 04:00 2.31 184 749 (2017) 10 (2012) 143 17 28 36 40 80 142 252 401 689
2020-07-15 03:30 2.32 187 749 (2017) 10 (2012) 143 17 28 36 40 80 142 252 401 689
2020-07-15 03:00 2.32 187 749 (2017) 10 (2012) 143 17 28 36 40 80 142 252 401 689
2020-07-15 02:30 2.32 187 749 (2017) 10 (2012) 143 17 28 36 40 80 142 252 401 689
2020-07-15 02:00 2.32 187 749 (2017) 10 (2012) 143 17 28 36 40 80 142 252 401 689
2020-07-15 01:30 2.32 187 749 (2017) 10 (2012) 143 17 28 36 40 80 142 252 401 689
2020-07-15 01:00 2.32 187 749 (2017) 10 (2012) 143 17 28 36 40 80 142 252 401 689
2020-07-15 00:30 2.32 187 749 (2017) 10 (2012) 143 17 28 36 40 80 142 252 401 689
2020-07-15 00:00 2.32 187 749 (2017) 10 (2012) 143 17 28 36 40 80 142 252 401 689
2020-07-14 23:30 2.33 189 825 (2015) 10 (2012) 146 18 28 42 43 67 119 164 548 693
2020-07-14 23:00 2.33 189 825 (2015) 10 (2012) 146 18 28 42 43 67 119 164 548 693
2020-07-14 22:30 2.32 187 825 (2015) 10 (2012) 146 18 28 42 43 67 119 164 548 693
2020-07-14 22:00 2.32 187 825 (2015) 10 (2012) 146 18 28 42 43 67 119 164 548 693
2020-07-14 21:30 2.32 187 825 (2015) 10 (2012) 146 18 28 42 43 67 119 164 548 693
2020-07-14 21:00 2.33 189 825 (2015) 10 (2012) 146 18 28 42 43 67 119 164 548 693
2020-07-14 20:30 2.33 189 825 (2015) 10 (2012) 146 18 28 42 43 67 119 164 548 693
2020-07-14 20:00 2.33 189 825 (2015) 10 (2012) 146 18 28 42 43 67 119 164 548 693
2020-07-14 19:30 2.33 189 825 (2015) 10 (2012) 146 18 28 42 43 67 119 164 548 693
2020-07-14 19:00 2.33 189 825 (2015) 10 (2012) 146 18 28 42 43 67 119 164 548 693
2020-07-14 18:30 2.34 191 825 (2015) 10 (2012) 146 18 28 42 43 67 119 164 548 693
2020-07-14 18:00 2.34 191 825 (2015) 10 (2012) 146 18 28 42 43 67 119 164 548 693
2020-07-14 17:30 2.36 196 825 (2015) 10 (2012) 146 18 28 42 43 67 119 164 548 693
2020-07-14 17:00 2.36 196 825 (2015) 10 (2012) 146 18 28 42 43 67 119 164 548 693
2020-07-14 16:30 2.36 196 825 (2015) 10 (2012) 146 18 28 42 43 67 119 164 548 693
2020-07-14 16:00 2.37 199 825 (2015) 10 (2012) 146 18 28 42 43 67 119 164 548 693
2020-07-14 15:30 2.37 199 825 (2015) 10 (2012) 146 18 28 42 43 67 119 164 548 693
2020-07-14 15:00 2.37 199 825 (2015) 10 (2012) 146 18 28 42 43 67 119 164 548 693
2020-07-14 14:30 2.37 199 825 (2015) 10 (2012) 146 18 28 42 43 67 119 164 548 693
2020-07-14 14:00 2.36 196 825 (2015) 10 (2012) 146 18 28 42 43 67 119 164 548 693
2020-07-14 13:30 2.37 199 825 (2015) 10 (2012) 146 18 28 42 43 67 119 164 548 693
2020-07-14 13:00 2.37 199 825 (2015) 10 (2012) 146 18 28 42 43 67 119 164 548 693
2020-07-14 12:30 2.37 199 825 (2015) 10 (2012) 146 18 28 42 43 67 119 164 548 693
2020-07-14 12:00 2.37 199 825 (2015) 10 (2012) 146 18 28 42 43 67 119 164 548 693
2020-07-14 11:30 2.37 199 825 (2015) 10 (2012) 146 18 28 42 43 67 119 164 548 693
2020-07-14 11:00 2.37 199 825 (2015) 10 (2012) 146 18 28 42 43 67 119 164 548 693
2020-07-14 10:30 2.37 199 825 (2015) 10 (2012) 146 18 28 42 43 67 119 164 548 693
2020-07-14 10:00 2.37 199 825 (2015) 10 (2012) 146 18 28 42 43 67 119 164 548 693
2020-07-14 09:30 2.37 199 825 (2015) 10 (2012) 146 18 28 42 43 67 119 164 548 693
2020-07-14 09:00 2.36 196 825 (2015) 10 (2012) 146 18 28 42 43 67 119 164 548 693
2020-07-14 08:30 2.37 199 825 (2015) 10 (2012) 146 18 28 42 43 67 119 164 548 693
2020-07-14 08:00 2.36 196 825 (2015) 10 (2012) 146 18 28 42 43 67 119 164 548 693
2020-07-14 07:30 2.36 196 825 (2015) 10 (2012) 146 18 28 42 43 67 119 164 548 693
2020-07-14 07:00 2.36 196 825 (2015) 10 (2012) 146 18 28 42 43 67 119 164 548 693
2020-07-14 06:30 2.36 196 825 (2015) 10 (2012) 146 18 28 42 43 67 119 164 548 693
2020-07-14 06:00 2.36 196 825 (2015) 10 (2012) 146 18 28 42 43 67 119 164 548 693
2020-07-14 05:30 2.36 196 825 (2015) 10 (2012) 146 18 28 42 43 67 119 164 548 693
2020-07-14 05:00 2.36 196 825 (2015) 10 (2012) 146 18 28 42 43 67 119 164 548 693
2020-07-14 04:30 2.36 196 825 (2015) 10 (2012) 146 18 28 42 43 67 119 164 548 693
2020-07-14 04:00 2.36 196 825 (2015) 10 (2012) 146 18 28 42 43 67 119 164 548 693
2020-07-14 03:30 2.36 196 825 (2015) 10 (2012) 146 18 28 42 43 67 119 164 548 693
2020-07-14 03:00 2.37 199 825 (2015) 10 (2012) 146 18 28 42 43 67 119 164 548 693
2020-07-14 02:30 2.37 199 825 (2015) 10 (2012) 146 18 28 42 43 67 119 164 548 693
2020-07-14 02:00 2.37 199 825 (2015) 10 (2012) 146 18 28 42 43 67 119 164 548 693
2020-07-14 01:30 2.36 196 825 (2015) 10 (2012) 146 18 28 42 43 67 119 164 548 693
2020-07-14 01:00 2.37 199 825 (2015) 10 (2012) 146 18 28 42 43 67 119 164 548 693
2020-07-14 00:30 2.36 196 825 (2015) 10 (2012) 146 18 28 42 43 67 119 164 548 693
2020-07-14 00:00 2.37 199 825 (2015) 10 (2012) 146 18 28 42 43 67 119 164 548 693
2020-07-13 23:30 2.37 199 1260 (1986) 7 (2012) 197 18 30 46 46 70 134 160 1090 1240
2020-07-13 23:00 2.37 199 1260 (1986) 7 (2012) 197 18 30 46 46 70 134 160 1090 1240
2020-07-13 22:30 2.37 199 1260 (1986) 7 (2012) 197 18 30 46 46 70 134 160 1090 1240
2020-07-13 22:00 2.37 199 1260 (1986) 7 (2012) 197 18 30 46 46 70 134 160 1090 1240
2020-07-13 21:30 2.37 199 1260 (1986) 7 (2012) 197 18 30 46 46 70 134 160 1090 1240
2020-07-13 21:00 2.37 199 1260 (1986) 7 (2012) 197 18 30 46 46 70 134 160 1090 1240
2020-07-13 20:30 2.37 199 1260 (1986) 7 (2012) 197 18 30 46 46 70 134 160 1090 1240
2020-07-13 20:00 2.38 201 1260 (1986) 7 (2012) 197 18 30 46 46 70 134 160 1090 1240
2020-07-13 19:30 2.38 201 1260 (1986) 7 (2012) 197 18 30 46 46 70 134 160 1090 1240
2020-07-13 19:00 2.38 201 1260 (1986) 7 (2012) 197 18 30 46 46 70 134 160 1090 1240
2020-07-13 18:30 2.38 201 1260 (1986) 7 (2012) 197 18 30 46 46 70 134 160 1090 1240
2020-07-13 18:00 2.38 201 1260 (1986) 7 (2012) 197 18 30 46 46 70 134 160 1090 1240
2020-07-13 17:30 2.38 201 1260 (1986) 7 (2012) 197 18 30 46 46 70 134 160 1090 1240
2020-07-13 17:00 2.39 203 1260 (1986) 7 (2012) 197 18 30 46 46 70 134 160 1090 1240
2020-07-13 16:30 2.39 203 1260 (1986) 7 (2012) 197 18 30 46 46 70 134 160 1090 1240
2020-07-13 16:00 2.39 203 1260 (1986) 7 (2012) 197 18 30 46 46 70 134 160 1090 1240
2020-07-13 15:30 2.39 203 1260 (1986) 7 (2012) 197 18 30 46 46 70 134 160 1090 1240
2020-07-13 15:00 2.39 203 1260 (1986) 7 (2012) 197 18 30 46 46 70 134 160 1090 1240
2020-07-13 14:30 2.40 206 1260 (1986) 7 (2012) 197 18 30 46 46 70 134 160 1090 1240
2020-07-13 14:00 2.39 203 1260 (1986) 7 (2012) 197 18 30 46 46 70 134 160 1090 1240
2020-07-13 13:30 2.40 206 1260 (1986) 7 (2012) 197 18 30 46 46 70 134 160 1090 1240
2020-07-13 13:00 2.40 206 1260 (1986) 7 (2012) 197 18 30 46 46 70 134 160 1090 1240
2020-07-13 12:30 2.40 206 1260 (1986) 7 (2012) 197 18 30 46 46 70 134 160 1090 1240
2020-07-13 12:00 2.40 206 1260 (1986) 7 (2012) 197 18 30 46 46 70 134 160 1090 1240
2020-07-13 11:30 2.40 206 1260 (1986) 7 (2012) 197 18 30 46 46 70 134 160 1090 1240
2020-07-13 11:00 2.40 206 1260 (1986) 7 (2012) 197 18 30 46 46 70 134 160 1090 1240
2020-07-13 10:30 2.40 206 1260 (1986) 7 (2012) 197 18 30 46 46 70 134 160 1090 1240
2020-07-13 10:00 2.39 203 1260 (1986) 7 (2012) 197 18 30 46 46 70 134 160 1090 1240
2020-07-13 09:30 2.39 203 1260 (1986) 7 (2012) 197 18 30 46 46 70 134 160 1090 1240
2020-07-13 09:00 2.40 206 1260 (1986) 7 (2012) 197 18 30 46 46 70 134 160 1090 1240
2020-07-13 08:30 2.39 203 1260 (1986) 7 (2012) 197 18 30 46 46 70 134 160 1090 1240
2020-07-13 08:00 2.39 203 1260 (1986) 7 (2012) 197 18 30 46 46 70 134 160 1090 1240
2020-07-13 07:30 2.39 203 1260 (1986) 7 (2012) 197 18 30 46 46 70 134 160 1090 1240
2020-07-13 07:00 2.39 203 1260 (1986) 7 (2012) 197 18 30 46 46 70 134 160 1090 1240
2020-07-13 06:30 2.39 203 1260 (1986) 7 (2012) 197 18 30 46 46 70 134 160 1090 1240
2020-07-13 06:00 2.39 203 1260 (1986) 7 (2012) 197 18 30 46 46 70 134 160 1090 1240
2020-07-13 05:30 2.39 203 1260 (1986) 7 (2012) 197 18 30 46 46 70 134 160 1090 1240
2020-07-13 05:00 2.39 203 1260 (1986) 7 (2012) 197 18 30 46 46 70 134 160 1090 1240
2020-07-13 04:30 2.39 203 1260 (1986) 7 (2012) 197 18 30 46 46 70 134 160 1090 1240
2020-07-13 04:00 2.39 203 1260 (1986) 7 (2012) 197 18 30 46 46 70 134 160 1090 1240
2020-07-13 03:30 2.39 203 1260 (1986) 7 (2012) 197 18 30 46 46 70 134 160 1090 1240
2020-07-13 03:00 2.40 206 1260 (1986) 7 (2012) 197 18 30 46 46 70 134 160 1090 1240
2020-07-13 02:30 2.39 203 1260 (1986) 7 (2012) 197 18 30 46 46 70 134 160 1090 1240
2020-07-13 02:00 2.39 203 1260 (1986) 7 (2012) 197 18 30 46 46 70 134 160 1090 1240
2020-07-13 01:30 2.39 203 1260 (1986) 7 (2012) 197 18 30 46 46 70 134 160 1090 1240
2020-07-13 01:00 2.40 206 1260 (1986) 7 (2012) 197 18 30 46 46 70 134 160 1090 1240
2020-07-13 00:30 2.40 206 1260 (1986) 7 (2012) 197 18 30 46 46 70 134 160 1090 1240
2020-07-13 00:00 2.39 203 1260 (1986) 7 (2012) 197 18 30 46 46 70 134 160 1090 1240
2020-07-12 23:30 2.39 203 2350 (2015) 7 (2012) 179 17 30 49 49 75 146 158 253 1350
2020-07-12 23:00 2.40 206 2350 (2015) 7 (2012) 179 17 30 49 49 75 146 158 253 1350
2020-07-12 22:30 2.40 206 2350 (2015) 7 (2012) 179 17 30 49 49 75 146 158 253 1350
2020-07-12 22:00 2.40 206 2350 (2015) 7 (2012) 179 17 30 49 49 75 146 158 253 1350
2020-07-12 21:30 2.40 206 2350 (2015) 7 (2012) 179 17 30 49 49 75 146 158 253 1350
2020-07-12 21:00 2.40 206 2350 (2015) 7 (2012) 179 17 30 49 49 75 146 158 253 1350
2020-07-12 20:30 2.40 206 2350 (2015) 7 (2012) 179 17 30 49 49 75 146 158 253 1350
2020-07-12 20:00 2.40 206 2350 (2015) 7 (2012) 179 17 30 49 49 75 146 158 253 1350
2020-07-12 19:30 2.40 206 2350 (2015) 7 (2012) 179 17 30 49 49 75 146 158 253 1350
2020-07-12 19:00 2.41 208 2350 (2015) 7 (2012) 179 17 30 49 49 75 146 158 253 1350
2020-07-12 18:30 2.41 208 2350 (2015) 7 (2012) 179 17 30 49 49 75 146 158 253 1350
2020-07-12 18:00 2.41 208 2350 (2015) 7 (2012) 179 17 30 49 49 75 146 158 253 1350
2020-07-12 17:30 2.42 211 2350 (2015) 7 (2012) 179 17 30 49 49 75 146 158 253 1350
2020-07-12 17:00 2.42 211 2350 (2015) 7 (2012) 179 17 30 49 49 75 146 158 253 1350
2020-07-12 16:30 2.42 211 2350 (2015) 7 (2012) 179 17 30 49 49 75 146 158 253 1350
2020-07-12 16:00 2.42 211 2350 (2015) 7 (2012) 179 17 30 49 49 75 146 158 253 1350
2020-07-12 15:30 2.42 211 2350 (2015) 7 (2012) 179 17 30 49 49 75 146 158 253 1350
2020-07-12 15:00 2.43 213 2350 (2015) 7 (2012) 179 17 30 49 49 75 146 158 253 1350
2020-07-12 14:30 2.43 213 2350 (2015) 7 (2012) 179 17 30 49 49 75 146 158 253 1350
2020-07-12 14:00 2.43 213 2350 (2015) 7 (2012) 179 17 30 49 49 75 146 158 253 1350
2020-07-12 13:30 2.43 213 2350 (2015) 7 (2012) 179 17 30 49 49 75 146 158 253 1350
2020-07-12 13:00 2.43 213 2350 (2015) 7 (2012) 179 17 30 49 49 75 146 158 253 1350
2020-07-12 12:30 2.43 213 2350 (2015) 7 (2012) 179 17 30 49 49 75 146 158 253 1350
2020-07-12 12:00 2.43 213 2350 (2015) 7 (2012) 179 17 30 49 49 75 146 158 253 1350
2020-07-12 11:30 2.43 213 2350 (2015) 7 (2012) 179 17 30 49 49 75 146 158 253 1350
2020-07-12 11:00 2.43 213 2350 (2015) 7 (2012) 179 17 30 49 49 75 146 158 253 1350
2020-07-12 10:30 2.42 211 2350 (2015) 7 (2012) 179 17 30 49 49 75 146 158 253 1350
2020-07-12 10:00 2.43 213 2350 (2015) 7 (2012) 179 17 30 49 49 75 146 158 253 1350
2020-07-12 09:30 2.43 213 2350 (2015) 7 (2012) 179 17 30 49 49 75 146 158 253 1350
2020-07-12 09:00 2.42 211 2350 (2015) 7 (2012) 179 17 30 49 49 75 146 158 253 1350
2020-07-12 08:30 2.42 211 2350 (2015) 7 (2012) 179 17 30 49 49 75 146 158 253 1350
2020-07-12 08:00 2.42 211 2350 (2015) 7 (2012) 179 17 30 49 49 75 146 158 253 1350
2020-07-12 07:30 2.42 211 2350 (2015) 7 (2012) 179 17 30 49 49 75 146 158 253 1350
2020-07-12 07:00 2.42 211 2350 (2015) 7 (2012) 179 17 30 49 49 75 146 158 253 1350
2020-07-12 06:30 2.42 211 2350 (2015) 7 (2012) 179 17 30 49 49 75 146 158 253 1350
2020-07-12 06:00 2.42 211 2350 (2015) 7 (2012) 179 17 30 49 49 75 146 158 253 1350
2020-07-12 05:30 2.42 211 2350 (2015) 7 (2012) 179 17 30 49 49 75 146 158 253 1350
2020-07-12 05:00 2.42 211 2350 (2015) 7 (2012) 179 17 30 49 49 75 146 158 253 1350
2020-07-12 04:30 2.42 211 2350 (2015) 7 (2012) 179 17 30 49 49 75 146 158 253 1350
2020-07-12 04:00 2.42 211 2350 (2015) 7 (2012) 179 17 30 49 49 75 146 158 253 1350
2020-07-12 03:30 2.43 213 2350 (2015) 7 (2012) 179 17 30 49 49 75 146 158 253 1350
2020-07-12 03:00 2.43 213 2350 (2015) 7 (2012) 179 17 30 49 49 75 146 158 253 1350
2020-07-12 02:30 2.43 213 2350 (2015) 7 (2012) 179 17 30 49 49 75 146 158 253 1350
2020-07-12 02:00 2.42 211 2350 (2015) 7 (2012) 179 17 30 49 49 75 146 158 253 1350
2020-07-12 01:30 2.43 213 2350 (2015) 7 (2012) 179 17 30 49 49 75 146 158 253 1350
2020-07-12 01:00 2.43 213 2350 (2015) 7 (2012) 179 17 30 49 49 75 146 158 253 1350
2020-07-12 00:30 2.42 211 2350 (2015) 7 (2012) 179 17 30 49 49 75 146 158 253 1350
2020-07-12 00:00 2.43 213 2350 (2015) 7 (2012) 179 17 30 49 49 75 146 158 253 1350
2020-07-11 23:30 2.43 213 7290 (2015) 8 (2012) 351 13 33 47 48 79 131 150 261 3930
2020-07-11 23:00 2.43 213 7290 (2015) 8 (2012) 351 13 33 47 48 79 131 150 261 3930
2020-07-11 22:30 2.43 213 7290 (2015) 8 (2012) 351 13 33 47 48 79 131 150 261 3930
2020-07-11 22:00 2.43 213 7290 (2015) 8 (2012) 351 13 33 47 48 79 131 150 261 3930
2020-07-11 21:30 2.44 216 7290 (2015) 8 (2012) 351 13 33 47 48 79 131 150 261 3930
2020-07-11 21:00 2.43 213 7290 (2015) 8 (2012) 351 13 33 47 48 79 131 150 261 3930
2020-07-11 20:30 2.44 216 7290 (2015) 8 (2012) 351 13 33 47 48 79 131 150 261 3930
2020-07-11 20:00 2.43 213 7290 (2015) 8 (2012) 351 13 33 47 48 79 131 150 261 3930
2020-07-11 19:30 2.44 216 7290 (2015) 8 (2012) 351 13 33 47 48 79 131 150 261 3930
2020-07-11 19:00 2.44 216 7290 (2015) 8 (2012) 351 13 33 47 48 79 131 150 261 3930
2020-07-11 18:30 2.44 216 7290 (2015) 8 (2012) 351 13 33 47 48 79 131 150 261 3930
2020-07-11 18:00 2.44 216 7290 (2015) 8 (2012) 351 13 33 47 48 79 131 150 261 3930
2020-07-11 17:30 2.45 218 7290 (2015) 8 (2012) 351 13 33 47 48 79 131 150 261 3930
2020-07-11 17:00 2.45 218 7290 (2015) 8 (2012) 351 13 33 47 48 79 131 150 261 3930
2020-07-11 16:30 2.45 218 7290 (2015) 8 (2012) 351 13 33 47 48 79 131 150 261 3930
2020-07-11 16:00 2.46 221 7290 (2015) 8 (2012) 351 13 33 47 48 79 131 150 261 3930
2020-07-11 15:30 2.46 221 7290 (2015) 8 (2012) 351 13 33 47 48 79 131 150 261 3930
2020-07-11 15:00 2.46 221 7290 (2015) 8 (2012) 351 13 33 47 48 79 131 150 261 3930
2020-07-11 14:30 2.46 221 7290 (2015) 8 (2012) 351 13 33 47 48 79 131 150 261 3930
2020-07-11 14:00 2.46 221 7290 (2015) 8 (2012) 351 13 33 47 48 79 131 150 261 3930
2020-07-11 13:30 2.46 221 7290 (2015) 8 (2012) 351 13 33 47 48 79 131 150 261 3930
2020-07-11 13:00 2.46 221 7290 (2015) 8 (2012) 351 13 33 47 48 79 131 150 261 3930
2020-07-11 12:30 2.46 221 7290 (2015) 8 (2012) 351 13 33 47 48 79 131 150 261 3930
2020-07-11 12:00 2.46 221 7290 (2015) 8 (2012) 351 13 33 47 48 79 131 150 261 3930
2020-07-11 11:30 2.46 221 7290 (2015) 8 (2012) 351 13 33 47 48 79 131 150 261 3930
2020-07-11 11:00 2.46 221 7290 (2015) 8 (2012) 351 13 33 47 48 79 131 150 261 3930
2020-07-11 10:30 2.46 221 7290 (2015) 8 (2012) 351 13 33 47 48 79 131 150 261 3930
2020-07-11 10:00 2.46 221 7290 (2015) 8 (2012) 351 13 33 47 48 79 131 150 261 3930
2020-07-11 09:30 2.46 221 7290 (2015) 8 (2012) 351 13 33 47 48 79 131 150 261 3930
2020-07-11 09:00 2.45 218 7290 (2015) 8 (2012) 351 13 33 47 48 79 131 150 261 3930
2020-07-11 08:30 2.45 218 7290 (2015) 8 (2012) 351 13 33 47 48 79 131 150 261 3930
2020-07-11 08:00 2.46 221 7290 (2015) 8 (2012) 351 13 33 47 48 79 131 150 261 3930
2020-07-11 07:30 2.46 221 7290 (2015) 8 (2012) 351 13 33 47 48 79 131 150 261 3930
2020-07-11 07:00 2.45 218 7290 (2015) 8 (2012) 351 13 33 47 48 79 131 150 261 3930
2020-07-11 06:30 2.46 221 7290 (2015) 8 (2012) 351 13 33 47 48 79 131 150 261 3930
2020-07-11 06:00 2.45 218 7290 (2015) 8 (2012) 351 13 33 47 48 79 131 150 261 3930
2020-07-11 05:30 2.46 221 7290 (2015) 8 (2012) 351 13 33 47 48 79 131 150 261 3930
2020-07-11 05:00 2.46 221 7290 (2015) 8 (2012) 351 13 33 47 48 79 131 150 261 3930
2020-07-11 04:30 2.46 221 7290 (2015) 8 (2012) 351 13 33 47 48 79 131 150 261 3930
2020-07-11 04:00 2.46 221 7290 (2015) 8 (2012) 351 13 33 47 48 79 131 150 261 3930
2020-07-11 03:30 2.47 224 7290 (2015) 8 (2012) 351 13 33 47 48 79 131 150 261 3930
2020-07-11 03:00 2.46 221 7290 (2015) 8 (2012) 351 13 33 47 48 79 131 150 261 3930
2020-07-11 02:30 2.47 224 7290 (2015) 8 (2012) 351 13 33 47 48 79 131 150 261 3930
2020-07-11 02:00 2.46 221 7290 (2015) 8 (2012) 351 13 33 47 48 79 131 150 261 3930
2020-07-11 01:30 2.46 221 7290 (2015) 8 (2012) 351 13 33 47 48 79 131 150 261 3930
2020-07-11 01:00 2.47 224 7290 (2015) 8 (2012) 351 13 33 47 48 79 131 150 261 3930
2020-07-11 00:30 2.46 221 7290 (2015) 8 (2012) 351 13 33 47 48 79 131 150 261 3930
2020-07-11 00:00 2.47 224 7290 (2015) 8 (2012) 351 13 33 47 48 79 131 150 261 3930
2020-07-10 23:30 2.47 224 7030 (2015) 9 (2012) 378 12 37 47 53 80 157 172 289 4150
2020-07-10 23:00 2.47 224 7030 (2015) 9 (2012) 378 12 37 47 53 80 157 172 289 4150
2020-07-10 22:30 2.47 224 7030 (2015) 9 (2012) 378 12 37 47 53 80 157 172 289 4150
2020-07-10 22:00 2.48 226 7030 (2015) 9 (2012) 378 12 37 47 53 80 157 172 289 4150
2020-07-10 21:30 2.47 224 7030 (2015) 9 (2012) 378 12 37 47 53 80 157 172 289 4150
2020-07-10 21:00 2.48 226 7030 (2015) 9 (2012) 378 12 37 47 53 80 157 172 289 4150
2020-07-10 20:30 2.48 226 7030 (2015) 9 (2012) 378 12 37 47 53 80 157 172 289 4150
2020-07-10 20:00 2.49 229 7030 (2015) 9 (2012) 378 12 37 47 53 80 157 172 289 4150
2020-07-10 19:30 2.49 229 7030 (2015) 9 (2012) 378 12 37 47 53 80 157 172 289 4150
2020-07-10 19:00 2.49 229 7030 (2015) 9 (2012) 378 12 37 47 53 80 157 172 289 4150
2020-07-10 18:30 2.49 229 7030 (2015) 9 (2012) 378 12 37 47 53 80 157 172 289 4150
2020-07-10 18:00 2.50 231 7030 (2015) 9 (2012) 378 12 37 47 53 80 157 172 289 4150
2020-07-10 17:30 2.50 231 7030 (2015) 9 (2012) 378 12 37 47 53 80 157 172 289 4150
2020-07-10 17:00 2.50 231 7030 (2015) 9 (2012) 378 12 37 47 53 80 157 172 289 4150
2020-07-10 16:30 2.51 234 7030 (2015) 9 (2012) 378 12 37 47 53 80 157 172 289 4150
2020-07-10 16:00 2.51 234 7030 (2015) 9 (2012) 378 12 37 47 53 80 157 172 289 4150
2020-07-10 15:30 2.51 234 7030 (2015) 9 (2012) 378 12 37 47 53 80 157 172 289 4150
2020-07-10 15:00 2.52 237 7030 (2015) 9 (2012) 378 12 37 47 53 80 157 172 289 4150
2020-07-10 14:30 2.52 237 7030 (2015) 9 (2012) 378 12 37 47 53 80 157 172 289 4150
2020-07-10 14:00 2.51 234 7030 (2015) 9 (2012) 378 12 37 47 53 80 157 172 289 4150
2020-07-10 13:30 2.52 237 7030 (2015) 9 (2012) 378 12 37 47 53 80 157 172 289 4150
2020-07-10 13:00 2.53 239 7030 (2015) 9 (2012) 378 12 37 47 53 80 157 172 289 4150
2020-07-10 12:30 2.52 237 7030 (2015) 9 (2012) 378 12 37 47 53 80 157 172 289 4150
2020-07-10 12:00 2.53 239 7030 (2015) 9 (2012) 378 12 37 47 53 80 157 172 289 4150
2020-07-10 11:30 2.53 239 7030 (2015) 9 (2012) 378 12 37 47 53 80 157 172 289 4150
2020-07-10 11:00 2.53 239 7030 (2015) 9 (2012) 378 12 37 47 53 80 157 172 289 4150
2020-07-10 10:30 2.53 239 7030 (2015) 9 (2012) 378 12 37 47 53 80 157 172 289 4150
2020-07-10 10:00 2.53 239 7030 (2015) 9 (2012) 378 12 37 47 53 80 157 172 289 4150
2020-07-10 09:30 2.53 239 7030 (2015) 9 (2012) 378 12 37 47 53 80 157 172 289 4150
2020-07-10 09:00 2.53 239 7030 (2015) 9 (2012) 378 12 37 47 53 80 157 172 289 4150
2020-07-10 08:30 2.53 239 7030 (2015) 9 (2012) 378 12 37 47 53 80 157 172 289 4150
2020-07-10 08:00 2.53 239 7030 (2015) 9 (2012) 378 12 37 47 53 80 157 172 289 4150
2020-07-10 07:30 2.53 239 7030 (2015) 9 (2012) 378 12 37 47 53 80 157 172 289 4150
2020-07-10 07:00 2.53 239 7030 (2015) 9 (2012) 378 12 37 47 53 80 157 172 289 4150
2020-07-10 06:30 2.53 239 7030 (2015) 9 (2012) 378 12 37 47 53 80 157 172 289 4150
2020-07-10 06:00 2.54 242 7030 (2015) 9 (2012) 378 12 37 47 53 80 157 172 289 4150
2020-07-10 05:30 2.54 242 7030 (2015) 9 (2012) 378 12 37 47 53 80 157 172 289 4150
2020-07-10 05:00 2.54 242 7030 (2015) 9 (2012) 378 12 37 47 53 80 157 172 289 4150
2020-07-10 04:30 2.55 245 7030 (2015) 9 (2012) 378 12 37 47 53 80 157 172 289 4150
2020-07-10 04:00 2.55 245 7030 (2015) 9 (2012) 378 12 37 47 53 80 157 172 289 4150
2020-07-10 03:30 2.55 245 7030 (2015) 9 (2012) 378 12 37 47 53 80 157 172 289 4150
2020-07-10 03:00 2.55 245 7030 (2015) 9 (2012) 378 12 37 47 53 80 157 172 289 4150
2020-07-10 02:30 2.56 247 7030 (2015) 9 (2012) 378 12 37 47 53 80 157 172 289 4150
2020-07-10 02:00 2.56 247 7030 (2015) 9 (2012) 378 12 37 47 53 80 157 172 289 4150
2020-07-10 01:30 2.56 247 7030 (2015) 9 (2012) 378 12 37 47 53 80 157 172 289 4150
2020-07-10 01:00 2.56 247 7030 (2015) 9 (2012) 378 12 37 47 53 80 157 172 289 4150
2020-07-10 00:30 2.56 247 7030 (2015) 9 (2012) 378 12 37 47 53 80 157 172 289 4150
2020-07-10 00:00 2.57 250 7030 (2015) 9 (2012) 378 12 37 47 53 80 157 172 289 4150
2020-07-09 23:30 2.57 250 870 (2015) 9 (2012) 150 14 40 50 61 92 167 190 460 680
2020-07-09 23:00 2.56 247 870 (2015) 9 (2012) 150 14 40 50 61 92 167 190 460 680
2020-07-09 22:30 2.57 250 870 (2015) 9 (2012) 150 14 40 50 61 92 167 190 460 680
2020-07-09 22:00 2.56 247 870 (2015) 9 (2012) 150 14 40 50 61 92 167 190 460 680
2020-07-09 21:30 2.56 247 870 (2015) 9 (2012) 150 14 40 50 61 92 167 190 460 680
2020-07-09 21:00 2.56 247 870 (2015) 9 (2012) 150 14 40 50 61 92 167 190 460 680
2020-07-09 20:30 2.56 247 870 (2015) 9 (2012) 150 14 40 50 61 92 167 190 460 680
2020-07-09 20:00 2.55 245 870 (2015) 9 (2012) 150 14 40 50 61 92 167 190 460 680
2020-07-09 19:30 2.55 245 870 (2015) 9 (2012) 150 14 40 50 61 92 167 190 460 680
2020-07-09 19:00 2.55 245 870 (2015) 9 (2012) 150 14 40 50 61 92 167 190 460 680
2020-07-09 18:30 2.54 242 870 (2015) 9 (2012) 150 14 40 50 61 92 167 190 460 680
2020-07-09 18:00 2.53 239 870 (2015) 9 (2012) 150 14 40 50 61 92 167 190 460 680
2020-07-09 17:30 2.53 239 870 (2015) 9 (2012) 150 14 40 50 61 92 167 190 460 680
2020-07-09 17:00 2.52 237 870 (2015) 9 (2012) 150 14 40 50 61 92 167 190 460 680
2020-07-09 16:30 2.52 237 870 (2015) 9 (2012) 150 14 40 50 61 92 167 190 460 680
2020-07-09 16:00 2.52 237 870 (2015) 9 (2012) 150 14 40 50 61 92 167 190 460 680
2020-07-09 15:30 2.51 234 870 (2015) 9 (2012) 150 14 40 50 61 92 167 190 460 680
2020-07-09 15:00 2.52 237 870 (2015) 9 (2012) 150 14 40 50 61 92 167 190 460 680
2020-07-09 14:30 2.51 234 870 (2015) 9 (2012) 150 14 40 50 61 92 167 190 460 680
2020-07-09 14:00 2.51 234 870 (2015) 9 (2012) 150 14 40 50 61 92 167 190 460 680
2020-07-09 13:30 2.51 234 870 (2015) 9 (2012) 150 14 40 50 61 92 167 190 460 680
2020-07-09 12:30 2.51 234 870 (2015) 9 (2012) 150 14 40 50 61 92 167 190 460 680
2020-07-09 12:00 2.51 234 870 (2015) 9 (2012) 150 14 40 50 61 92 167 190 460 680
2020-07-09 11:30 2.51 234 870 (2015) 9 (2012) 150 14 40 50 61 92 167 190 460 680
2020-07-09 11:00 2.51 234 870 (2015) 9 (2012) 150 14 40 50 61 92 167 190 460 680
2020-07-09 10:30 2.51 234 870 (2015) 9 (2012) 150 14 40 50 61 92 167 190 460 680
2020-07-09 10:00 2.51 234 870 (2015) 9 (2012) 150 14 40 50 61 92 167 190 460 680
2020-07-09 09:30 2.51 234 870 (2015) 9 (2012) 150 14 40 50 61 92 167 190 460 680
2020-07-09 09:00 2.51 234 870 (2015) 9 (2012) 150 14 40 50 61 92 167 190 460 680
2020-07-09 08:30 2.51 234 870 (2015) 9 (2012) 150 14 40 50 61 92 167 190 460 680
2020-07-09 08:00 2.50 231 870 (2015) 9 (2012) 150 14 40 50 61 92 167 190 460 680
2020-07-09 07:30 2.51 234 870 (2015) 9 (2012) 150 14 40 50 61 92 167 190 460 680
2020-07-09 07:00 2.50 231 870 (2015) 9 (2012) 150 14 40 50 61 92 167 190 460 680
2020-07-09 06:30 2.50 231 870 (2015) 9 (2012) 150 14 40 50 61 92 167 190 460 680
2020-07-09 06:00 2.50 231 870 (2015) 9 (2012) 150 14 40 50 61 92 167 190 460 680
2020-07-09 05:30 2.51 234 870 (2015) 9 (2012) 150 14 40 50 61 92 167 190 460 680
2020-07-09 05:00 2.51 234 870 (2015) 9 (2012) 150 14 40 50 61 92 167 190 460 680
2020-07-09 04:30 2.51 234 870 (2015) 9 (2012) 150 14 40 50 61 92 167 190 460 680
2020-07-09 04:00 2.51 234 870 (2015) 9 (2012) 150 14 40 50 61 92 167 190 460 680
2020-07-09 03:30 2.51 234 870 (2015) 9 (2012) 150 14 40 50 61 92 167 190 460 680
2020-07-09 03:00 2.51 234 870 (2015) 9 (2012) 150 14 40 50 61 92 167 190 460 680
2020-07-09 02:30 2.51 234 870 (2015) 9 (2012) 150 14 40 50 61 92 167 190 460 680
2020-07-09 02:00 2.51 234 870 (2015) 9 (2012) 150 14 40 50 61 92 167 190 460 680
2020-07-09 01:30 2.51 234 870 (2015) 9 (2012) 150 14 40 50 61 92 167 190 460 680
2020-07-09 01:00 2.51 234 870 (2015) 9 (2012) 150 14 40 50 61 92 167 190 460 680
2020-07-09 00:30 2.52 237 870 (2015) 9 (2012) 150 14 40 50 61 92 167 190 460 680
2020-07-09 00:00 2.52 237 870 (2015) 9 (2012) 150 14 40 50 61 92 167 190 460 680
2020-07-08 23:30 2.52 237 612 (1987) 7 (2012) 138 14 35 53 63 87 149 193 334 602
2020-07-08 23:00 2.52 237 612 (1987) 7 (2012) 138 14 35 53 63 87 149 193 334 602
2020-07-08 22:30 2.52 237 612 (1987) 7 (2012) 138 14 35 53 63 87 149 193 334 602
2020-07-08 22:00 2.52 237 612 (1987) 7 (2012) 138 14 35 53 63 87 149 193 334 602
2020-07-08 21:30 2.52 237 612 (1987) 7 (2012) 138 14 35 53 63 87 149 193 334 602
2020-07-08 21:00 2.52 237 612 (1987) 7 (2012) 138 14 35 53 63 87 149 193 334 602
2020-07-08 20:30 2.52 237 612 (1987) 7 (2012) 138 14 35 53 63 87 149 193 334 602
2020-07-08 20:00 2.52 237 612 (1987) 7 (2012) 138 14 35 53 63 87 149 193 334 602
2020-07-08 19:30 2.52 237 612 (1987) 7 (2012) 138 14 35 53 63 87 149 193 334 602
2020-07-08 19:00 2.52 237 612 (1987) 7 (2012) 138 14 35 53 63 87 149 193 334 602
2020-07-08 18:30 2.52 237 612 (1987) 7 (2012) 138 14 35 53 63 87 149 193 334 602
2020-07-08 18:00 2.53 239 612 (1987) 7 (2012) 138 14 35 53 63 87 149 193 334 602
2020-07-08 17:30 2.53 239 612 (1987) 7 (2012) 138 14 35 53 63 87 149 193 334 602
2020-07-08 17:00 2.53 239 612 (1987) 7 (2012) 138 14 35 53 63 87 149 193 334 602
2020-07-08 16:30 2.53 239 612 (1987) 7 (2012) 138 14 35 53 63 87 149 193 334 602
2020-07-08 16:00 2.53 239 612 (1987) 7 (2012) 138 14 35 53 63 87 149 193 334 602
2020-07-08 15:30 2.53 239 612 (1987) 7 (2012) 138 14 35 53 63 87 149 193 334 602
2020-07-08 15:00 2.53 239 612 (1987) 7 (2012) 138 14 35 53 63 87 149 193 334 602
2020-07-08 14:30 2.53 239 612 (1987) 7 (2012) 138 14 35 53 63 87 149 193 334 602
2020-07-08 14:00 2.53 239 612 (1987) 7 (2012) 138 14 35 53 63 87 149 193 334 602
2020-07-08 13:30 2.53 239 612 (1987) 7 (2012) 138 14 35 53 63 87 149 193 334 602
2020-07-08 13:00 2.53 239 612 (1987) 7 (2012) 138 14 35 53 63 87 149 193 334 602
2020-07-08 12:30 2.53 239 612 (1987) 7 (2012) 138 14 35 53 63 87 149 193 334 602
2020-07-08 12:00 2.53 239 612 (1987) 7 (2012) 138 14 35 53 63 87 149 193 334 602
2020-07-08 11:30 2.53 239 612 (1987) 7 (2012) 138 14 35 53 63 87 149 193 334 602
2020-07-08 11:00 2.53 239 612 (1987) 7 (2012) 138 14 35 53 63 87 149 193 334 602
2020-07-08 10:30 2.53 239 612 (1987) 7 (2012) 138 14 35 53 63 87 149 193 334 602
2020-07-08 10:00 2.53 239 612 (1987) 7 (2012) 138 14 35 53 63 87 149 193 334 602
2020-07-08 09:30 2.53 239 612 (1987) 7 (2012) 138 14 35 53 63 87 149 193 334 602
2020-07-08 09:00 2.53 239 612 (1987) 7 (2012) 138 14 35 53 63 87 149 193 334 602
2020-07-08 08:30 2.52 237 612 (1987) 7 (2012) 138 14 35 53 63 87 149 193 334 602
2020-07-08 08:00 2.53 239 612 (1987) 7 (2012) 138 14 35 53 63 87 149 193 334 602
2020-07-08 07:30 2.52 237 612 (1987) 7 (2012) 138 14 35 53 63 87 149 193 334 602
2020-07-08 07:00 2.53 239 612 (1987) 7 (2012) 138 14 35 53 63 87 149 193 334 602
2020-07-08 06:30 2.53 239 612 (1987) 7 (2012) 138 14 35 53 63 87 149 193 334 602
2020-07-08 06:00 2.53 239 612 (1987) 7 (2012) 138 14 35 53 63 87 149 193 334 602
2020-07-08 05:30 2.53 239 612 (1987) 7 (2012) 138 14 35 53 63 87 149 193 334 602
2020-07-08 05:00 2.53 239 612 (1987) 7 (2012) 138 14 35 53 63 87 149 193 334 602
2020-07-08 04:30 2.54 242 612 (1987) 7 (2012) 138 14 35 53 63 87 149 193 334 602
2020-07-08 04:00 2.54 242 612 (1987) 7 (2012) 138 14 35 53 63 87 149 193 334 602
2020-07-08 03:30 2.54 242 612 (1987) 7 (2012) 138 14 35 53 63 87 149 193 334 602
2020-07-08 03:00 2.54 242 612 (1987) 7 (2012) 138 14 35 53 63 87 149 193 334 602
2020-07-08 02:30 2.54 242 612 (1987) 7 (2012) 138 14 35 53 63 87 149 193 334 602
2020-07-08 02:00 2.54 242 612 (1987) 7 (2012) 138 14 35 53 63 87 149 193 334 602
2020-07-08 01:30 2.54 242 612 (1987) 7 (2012) 138 14 35 53 63 87 149 193 334 602
2020-07-08 01:00 2.55 245 612 (1987) 7 (2012) 138 14 35 53 63 87 149 193 334 602
2020-07-08 00:30 2.55 245 612 (1987) 7 (2012) 138 14 35 53 63 87 149 193 334 602
2020-07-08 00:00 2.55 245 612 (1987) 7 (2012) 138 14 35 53 63 87 149 193 334 602
2020-07-07 23:30 2.55 245 456 (1987) 8 (2012) 132 16 32 49 57 92 179 225 275 432
2020-07-07 23:00 2.55 245 456 (1987) 8 (2012) 132 16 32 49 57 92 179 225 275 432
2020-07-07 22:30 2.56 247 456 (1987) 8 (2012) 132 16 32 49 57 92 179 225 275 432
2020-07-07 22:00 2.56 247 456 (1987) 8 (2012) 132 16 32 49 57 92 179 225 275 432
2020-07-07 21:30 2.56 247 456 (1987) 8 (2012) 132 16 32 49 57 92 179 225 275 432
2020-07-07 21:00 2.56 247 456 (1987) 8 (2012) 132 16 32 49 57 92 179 225 275 432
2020-07-07 20:30 2.57 250 456 (1987) 8 (2012) 132 16 32 49 57 92 179 225 275 432
2020-07-07 20:00 2.57 250 456 (1987) 8 (2012) 132 16 32 49 57 92 179 225 275 432
2020-07-07 19:30 2.57 250 456 (1987) 8 (2012) 132 16 32 49 57 92 179 225 275 432
2020-07-07 19:00 2.57 250 456 (1987) 8 (2012) 132 16 32 49 57 92 179 225 275 432
2020-07-07 18:30 2.57 250 456 (1987) 8 (2012) 132 16 32 49 57 92 179 225 275 432
2020-07-07 18:00 2.57 250 456 (1987) 8 (2012) 132 16 32 49 57 92 179 225 275 432
2020-07-07 17:30 2.58 253 456 (1987) 8 (2012) 132 16 32 49 57 92 179 225 275 432
2020-07-07 17:00 2.58 253 456 (1987) 8 (2012) 132 16 32 49 57 92 179 225 275 432
2020-07-07 16:30 2.59 256 456 (1987) 8 (2012) 132 16 32 49 57 92 179 225 275 432
2020-07-07 16:00 2.56 247 456 (1987) 8 (2012) 132 16 32 49 57 92 179 225 275 432
2020-07-07 15:30 2.60 259 456 (1987) 8 (2012) 132 16 32 49 57 92 179 225 275 432
2020-07-07 15:00 2.60 259 456 (1987) 8 (2012) 132 16 32 49 57 92 179 225 275 432
2020-07-07 14:30 2.60 259 456 (1987) 8 (2012) 132 16 32 49 57 92 179 225 275 432
2020-07-07 14:00 2.60 259 456 (1987) 8 (2012) 132 16 32 49 57 92 179 225 275 432
2020-07-07 13:30 2.59 256 456 (1987) 8 (2012) 132 16 32 49 57 92 179 225 275 432
2020-07-07 13:00 2.61 261 456 (1987) 8 (2012) 132 16 32 49 57 92 179 225 275 432
2020-07-07 12:30 2.61 261 456 (1987) 8 (2012) 132 16 32 49 57 92 179 225 275 432
2020-07-07 12:00 2.61 261 456 (1987) 8 (2012) 132 16 32 49 57 92 179 225 275 432
2020-07-07 11:30 2.61 261 456 (1987) 8 (2012) 132 16 32 49 57 92 179 225 275 432
2020-07-07 11:00 2.61 261 456 (1987) 8 (2012) 132 16 32 49 57 92 179 225 275 432
2020-07-07 10:30 2.60 259 456 (1987) 8 (2012) 132 16 32 49 57 92 179 225 275 432
2020-07-07 10:00 2.61 261 456 (1987) 8 (2012) 132 16 32 49 57 92 179 225 275 432
2020-07-07 09:30 2.60 259 456 (1987) 8 (2012) 132 16 32 49 57 92 179 225 275 432
2020-07-07 09:00 2.60 259 456 (1987) 8 (2012) 132 16 32 49 57 92 179 225 275 432
2020-07-07 08:30 2.60 259 456 (1987) 8 (2012) 132 16 32 49 57 92 179 225 275 432
2020-07-07 08:00 2.59 256 456 (1987) 8 (2012) 132 16 32 49 57 92 179 225 275 432
2020-07-07 07:30 2.59 256 456 (1987) 8 (2012) 132 16 32 49 57 92 179 225 275 432
2020-07-07 07:00 2.59 256 456 (1987) 8 (2012) 132 16 32 49 57 92 179 225 275 432
2020-07-07 06:30 2.59 256 456 (1987) 8 (2012) 132 16 32 49 57 92 179 225 275 432
2020-07-07 06:00 2.59 256 456 (1987) 8 (2012) 132 16 32 49 57 92 179 225 275 432
2020-07-07 05:30 2.58 253 456 (1987) 8 (2012) 132 16 32 49 57 92 179 225 275 432
2020-07-07 05:00 2.59 256 456 (1987) 8 (2012) 132 16 32 49 57 92 179 225 275 432
2020-07-07 04:30 2.59 256 456 (1987) 8 (2012) 132 16 32 49 57 92 179 225 275 432
2020-07-07 04:00 2.58 253 456 (1987) 8 (2012) 132 16 32 49 57 92 179 225 275 432
2020-07-07 03:30 2.59 256 456 (1987) 8 (2012) 132 16 32 49 57 92 179 225 275 432
2020-07-07 03:00 2.59 256 456 (1987) 8 (2012) 132 16 32 49 57 92 179 225 275 432
2020-07-07 02:30 2.58 253 456 (1987) 8 (2012) 132 16 32 49 57 92 179 225 275 432
2020-07-07 02:00 2.58 253 456 (1987) 8 (2012) 132 16 32 49 57 92 179 225 275 432
2020-07-07 01:30 2.59 256 456 (1987) 8 (2012) 132 16 32 49 57 92 179 225 275 432
2020-07-07 01:00 2.58 253 456 (1987) 8 (2012) 132 16 32 49 57 92 179 225 275 432
2020-07-07 00:30 2.58 253 456 (1987) 8 (2012) 132 16 32 49 57 92 179 225 275 432
2020-07-07 00:00 2.58 253 456 (1987) 8 (2012) 132 16 32 49 57 92 179 225 275 432
2020-07-06 23:30 2.58 253 410 (2015) 7 (2012) 140 17 33 46 56 103 239 268 321 389
2020-07-06 23:00 2.58 253 410 (2015) 7 (2012) 140 17 33 46 56 103 239 268 321 389
2020-07-06 22:30 2.58 253 410 (2015) 7 (2012) 140 17 33 46 56 103 239 268 321 389
2020-07-06 22:00 2.59 256 410 (2015) 7 (2012) 140 17 33 46 56 103 239 268 321 389
2020-07-06 21:30 2.59 256 410 (2015) 7 (2012) 140 17 33 46 56 103 239 268 321 389
2020-07-06 21:00 2.59 256 410 (2015) 7 (2012) 140 17 33 46 56 103 239 268 321 389
2020-07-06 20:30 2.59 256 410 (2015) 7 (2012) 140 17 33 46 56 103 239 268 321 389
2020-07-06 20:00 2.59 256 410 (2015) 7 (2012) 140 17 33 46 56 103 239 268 321 389
2020-07-06 19:30 2.60 259 410 (2015) 7 (2012) 140 17 33 46 56 103 239 268 321 389
2020-07-06 19:00 2.60 259 410 (2015) 7 (2012) 140 17 33 46 56 103 239 268 321 389
2020-07-06 18:30 2.60 259 410 (2015) 7 (2012) 140 17 33 46 56 103 239 268 321 389
2020-07-06 18:00 2.60 259 410 (2015) 7 (2012) 140 17 33 46 56 103 239 268 321 389
2020-07-06 17:30 2.61 261 410 (2015) 7 (2012) 140 17 33 46 56 103 239 268 321 389
2020-07-06 17:00 2.61 261 410 (2015) 7 (2012) 140 17 33 46 56 103 239 268 321 389
2020-07-06 16:30 2.61 261 410 (2015) 7 (2012) 140 17 33 46 56 103 239 268 321 389
2020-07-06 16:00 2.62 264 410 (2015) 7 (2012) 140 17 33 46 56 103 239 268 321 389
2020-07-06 15:30 2.62 264 410 (2015) 7 (2012) 140 17 33 46 56 103 239 268 321 389
2020-07-06 15:00 2.63 267 410 (2015) 7 (2012) 140 17 33 46 56 103 239 268 321 389
2020-07-06 14:30 2.63 267 410 (2015) 7 (2012) 140 17 33 46 56 103 239 268 321 389
2020-07-06 14:00 2.63 267 410 (2015) 7 (2012) 140 17 33 46 56 103 239 268 321 389
2020-07-06 13:30 2.63 267 410 (2015) 7 (2012) 140 17 33 46 56 103 239 268 321 389
2020-07-06 13:00 2.63 267 410 (2015) 7 (2012) 140 17 33 46 56 103 239 268 321 389
2020-07-06 12:30 2.63 267 410 (2015) 7 (2012) 140 17 33 46 56 103 239 268 321 389
2020-07-06 12:00 2.63 267 410 (2015) 7 (2012) 140 17 33 46 56 103 239 268 321 389
2020-07-06 11:30 2.64 270 410 (2015) 7 (2012) 140 17 33 46 56 103 239 268 321 389
2020-07-06 11:00 2.63 267 410 (2015) 7 (2012) 140 17 33 46 56 103 239 268 321 389
2020-07-06 10:30 2.63 267 410 (2015) 7 (2012) 140 17 33 46 56 103 239 268 321 389
2020-07-06 10:00 2.63 267 410 (2015) 7 (2012) 140 17 33 46 56 103 239 268 321 389
2020-07-06 09:30 2.64 270 410 (2015) 7 (2012) 140 17 33 46 56 103 239 268 321 389
2020-07-06 09:00 2.64 270 410 (2015) 7 (2012) 140 17 33 46 56 103 239 268 321 389
2020-07-06 08:30 2.63 267 410 (2015) 7 (2012) 140 17 33 46 56 103 239 268 321 389
2020-07-06 08:00 2.63 267 410 (2015) 7 (2012) 140 17 33 46 56 103 239 268 321 389
2020-07-06 07:30 2.63 267 410 (2015) 7 (2012) 140 17 33 46 56 103 239 268 321 389
2020-07-06 07:00 2.64 270 410 (2015) 7 (2012) 140 17 33 46 56 103 239 268 321 389
2020-07-06 06:30 2.63 267 410 (2015) 7 (2012) 140 17 33 46 56 103 239 268 321 389
2020-07-06 06:00 2.64 270 410 (2015) 7 (2012) 140 17 33 46 56 103 239 268 321 389
2020-07-06 05:30 2.64 270 410 (2015) 7 (2012) 140 17 33 46 56 103 239 268 321 389
2020-07-06 05:00 2.64 270 410 (2015) 7 (2012) 140 17 33 46 56 103 239 268 321 389
2020-07-06 04:30 2.64 270 410 (2015) 7 (2012) 140 17 33 46 56 103 239 268 321 389
2020-07-06 04:00 2.64 270 410 (2015) 7 (2012) 140 17 33 46 56 103 239 268 321 389
2020-07-06 03:30 2.64 270 410 (2015) 7 (2012) 140 17 33 46 56 103 239 268 321 389
2020-07-06 03:00 2.64 270 410 (2015) 7 (2012) 140 17 33 46 56 103 239 268 321 389
2020-07-06 02:30 2.65 273 410 (2015) 7 (2012) 140 17 33 46 56 103 239 268 321 389
2020-07-06 02:00 2.65 273 410 (2015) 7 (2012) 140 17 33 46 56 103 239 268 321 389
2020-07-06 01:30 2.65 273 410 (2015) 7 (2012) 140 17 33 46 56 103 239 268 321 389
2020-07-06 01:00 2.65 273 410 (2015) 7 (2012) 140 17 33 46 56 103 239 268 321 389
2020-07-06 00:30 2.65 273 410 (2015) 7 (2012) 140 17 33 46 56 103 239 268 321 389
2020-07-06 00:00 2.65 273 410 (2015) 7 (2012) 140 17 33 46 56 103 239 268 321 389
2020-07-05 23:30 2.65 273 506 (2015) 6 (2012) 136 17 29 40 52 106 165 208 337 469
2020-07-05 23:00 2.66 276 506 (2015) 6 (2012) 136 17 29 40 52 106 165 208 337 469
2020-07-05 22:30 2.66 276 506 (2015) 6 (2012) 136 17 29 40 52 106 165 208 337 469
2020-07-05 22:00 2.66 276 506 (2015) 6 (2012) 136 17 29 40 52 106 165 208 337 469
2020-07-05 21:30 2.66 276 506 (2015) 6 (2012) 136 17 29 40 52 106 165 208 337 469
2020-07-05 21:00 2.67 278 506 (2015) 6 (2012) 136 17 29 40 52 106 165 208 337 469
2020-07-05 20:30 2.67 278 506 (2015) 6 (2012) 136 17 29 40 52 106 165 208 337 469
2020-07-05 20:00 2.67 278 506 (2015) 6 (2012) 136 17 29 40 52 106 165 208 337 469
2020-07-05 19:30 2.68 281 506 (2015) 6 (2012) 136 17 29 40 52 106 165 208 337 469
2020-07-05 19:00 2.67 278 506 (2015) 6 (2012) 136 17 29 40 52 106 165 208 337 469
2020-07-05 18:30 2.68 281 506 (2015) 6 (2012) 136 17 29 40 52 106 165 208 337 469
2020-07-05 18:00 2.68 281 506 (2015) 6 (2012) 136 17 29 40 52 106 165 208 337 469
2020-07-05 17:30 2.69 284 506 (2015) 6 (2012) 136 17 29 40 52 106 165 208 337 469
2020-07-05 17:00 2.69 284 506 (2015) 6 (2012) 136 17 29 40 52 106 165 208 337 469
2020-07-05 16:30 2.69 284 506 (2015) 6 (2012) 136 17 29 40 52 106 165 208 337 469
2020-07-05 16:00 2.70 286 506 (2015) 6 (2012) 136 17 29 40 52 106 165 208 337 469
2020-07-05 15:30 2.71 289 506 (2015) 6 (2012) 136 17 29 40 52 106 165 208 337 469
2020-07-05 15:00 2.71 289 506 (2015) 6 (2012) 136 17 29 40 52 106 165 208 337 469
2020-07-05 14:30 2.71 289 506 (2015) 6 (2012) 136 17 29 40 52 106 165 208 337 469
2020-07-05 14:00 2.71 289 506 (2015) 6 (2012) 136 17 29 40 52 106 165 208 337 469
2020-07-05 13:30 2.72 292 506 (2015) 6 (2012) 136 17 29 40 52 106 165 208 337 469
2020-07-05 13:00 2.72 292 506 (2015) 6 (2012) 136 17 29 40 52 106 165 208 337 469
2020-07-05 12:30 2.72 292 506 (2015) 6 (2012) 136 17 29 40 52 106 165 208 337 469
2020-07-05 12:00 2.72 292 506 (2015) 6 (2012) 136 17 29 40 52 106 165 208 337 469
2020-07-05 11:30 2.73 294 506 (2015) 6 (2012) 136 17 29 40 52 106 165 208 337 469
2020-07-05 11:00 2.73 294 506 (2015) 6 (2012) 136 17 29 40 52 106 165 208 337 469
2020-07-05 10:30 2.73 294 506 (2015) 6 (2012) 136 17 29 40 52 106 165 208 337 469
2020-07-05 10:00 2.73 294 506 (2015) 6 (2012) 136 17 29 40 52 106 165 208 337 469
2020-07-05 09:30 2.73 294 506 (2015) 6 (2012) 136 17 29 40 52 106 165 208 337 469
2020-07-05 09:00 2.74 297 506 (2015) 6 (2012) 136 17 29 40 52 106 165 208 337 469
2020-07-05 08:30 2.73 294 506 (2015) 6 (2012) 136 17 29 40 52 106 165 208 337 469
2020-07-05 08:00 2.74 297 506 (2015) 6 (2012) 136 17 29 40 52 106 165 208 337 469
2020-07-05 07:30 2.74 297 506 (2015) 6 (2012) 136 17 29 40 52 106 165 208 337 469
2020-07-05 07:00 2.74 297 506 (2015) 6 (2012) 136 17 29 40 52 106 165 208 337 469
2020-07-05 06:30 2.75 300 506 (2015) 6 (2012) 136 17 29 40 52 106 165 208 337 469
2020-07-05 06:00 2.75 300 506 (2015) 6 (2012) 136 17 29 40 52 106 165 208 337 469
2020-07-05 05:30 2.75 300 506 (2015) 6 (2012) 136 17 29 40 52 106 165 208 337 469
2020-07-05 05:00 2.76 302 506 (2015) 6 (2012) 136 17 29 40 52 106 165 208 337 469
2020-07-05 04:30 2.76 302 506 (2015) 6 (2012) 136 17 29 40 52 106 165 208 337 469
2020-07-05 04:00 2.77 305 506 (2015) 6 (2012) 136 17 29 40 52 106 165 208 337 469
2020-07-05 03:30 2.77 305 506 (2015) 6 (2012) 136 17 29 40 52 106 165 208 337 469
2020-07-05 03:00 2.78 307 506 (2015) 6 (2012) 136 17 29 40 52 106 165 208 337 469
2020-07-05 02:30 2.79 310 506 (2015) 6 (2012) 136 17 29 40 52 106 165 208 337 469
2020-07-05 02:00 2.79 310 506 (2015) 6 (2012) 136 17 29 40 52 106 165 208 337 469
2020-07-05 01:30 2.80 313 506 (2015) 6 (2012) 136 17 29 40 52 106 165 208 337 469
2020-07-05 01:00 2.80 313 506 (2015) 6 (2012) 136 17 29 40 52 106 165 208 337 469
2020-07-05 00:30 2.81 316 506 (2015) 6 (2012) 136 17 29 40 52 106 165 208 337 469
2020-07-05 00:00 2.82 318 506 (2015) 6 (2012) 136 17 29 40 52 106 165 208 337 469
2020-07-04 23:30 2.83 321 701 (2015) 6 (2012) 146 17 27 41 47 110 152 162 441 597
2020-07-04 23:00 2.83 321 701 (2015) 6 (2012) 146 17 27 41 47 110 152 162 441 597
2020-07-04 22:30 2.84 324 701 (2015) 6 (2012) 146 17 27 41 47 110 152 162 441 597
2020-07-04 22:00 2.85 326 701 (2015) 6 (2012) 146 17 27 41 47 110 152 162 441 597
2020-07-04 21:30 2.86 329 701 (2015) 6 (2012) 146 17 27 41 47 110 152 162 441 597
2020-07-04 21:00 2.87 332 701 (2015) 6 (2012) 146 17 27 41 47 110 152 162 441 597
2020-07-04 20:30 2.88 335 701 (2015) 6 (2012) 146 17 27 41 47 110 152 162 441 597
2020-07-04 20:00 2.89 338 701 (2015) 6 (2012) 146 17 27 41 47 110 152 162 441 597
2020-07-04 19:30 2.91 343 701 (2015) 6 (2012) 146 17 27 41 47 110 152 162 441 597
2020-07-04 19:00 2.91 343 701 (2015) 6 (2012) 146 17 27 41 47 110 152 162 441 597
2020-07-04 18:30 2.92 346 701 (2015) 6 (2012) 146 17 27 41 47 110 152 162 441 597
2020-07-04 18:00 2.94 352 701 (2015) 6 (2012) 146 17 27 41 47 110 152 162 441 597
2020-07-04 17:30 2.95 355 701 (2015) 6 (2012) 146 17 27 41 47 110 152 162 441 597
2020-07-04 17:00 2.96 358 701 (2015) 6 (2012) 146 17 27 41 47 110 152 162 441 597
2020-07-04 16:30 2.96 358 701 (2015) 6 (2012) 146 17 27 41 47 110 152 162 441 597
2020-07-04 16:00 2.98 363 701 (2015) 6 (2012) 146 17 27 41 47 110 152 162 441 597
2020-07-04 15:30 2.99 366 701 (2015) 6 (2012) 146 17 27 41 47 110 152 162 441 597
2020-07-04 15:00 2.99 366 701 (2015) 6 (2012) 146 17 27 41 47 110 152 162 441 597
2020-07-04 14:30 2.99 366 701 (2015) 6 (2012) 146 17 27 41 47 110 152 162 441 597
2020-07-04 14:00 2.99 366 701 (2015) 6 (2012) 146 17 27 41 47 110 152 162 441 597
2020-07-04 13:30 2.99 366 701 (2015) 6 (2012) 146 17 27 41 47 110 152 162 441 597
2020-07-04 13:00 2.98 363 701 (2015) 6 (2012) 146 17 27 41 47 110 152 162 441 597
2020-07-04 12:30 2.96 358 701 (2015) 6 (2012) 146 17 27 41 47 110 152 162 441 597
2020-07-04 12:00 2.94 352 701 (2015) 6 (2012) 146 17 27 41 47 110 152 162 441 597
2020-07-04 11:30 2.93 349 701 (2015) 6 (2012) 146 17 27 41 47 110 152 162 441 597
2020-07-04 11:00 2.90 340 701 (2015) 6 (2012) 146 17 27 41 47 110 152 162 441 597
2020-07-04 10:30 2.88 335 701 (2015) 6 (2012) 146 17 27 41 47 110 152 162 441 597
2020-07-04 10:00 2.87 332 701 (2015) 6 (2012) 146 17 27 41 47 110 152 162 441 597
2020-07-04 09:30 2.84 324 701 (2015) 6 (2012) 146 17 27 41 47 110 152 162 441 597
2020-07-04 09:00 2.83 321 701 (2015) 6 (2012) 146 17 27 41 47 110 152 162 441 597
2020-07-04 08:30 2.82 318 701 (2015) 6 (2012) 146 17 27 41 47 110 152 162 441 597
2020-07-04 08:00 2.81 316 701 (2015) 6 (2012) 146 17 27 41 47 110 152 162 441 597
2020-07-04 07:30 2.81 316 701 (2015) 6 (2012) 146 17 27 41 47 110 152 162 441 597
2020-07-04 07:00 2.81 316 701 (2015) 6 (2012) 146 17 27 41 47 110 152 162 441 597
2020-07-04 06:30 2.81 316 701 (2015) 6 (2012) 146 17 27 41 47 110 152 162 441 597
2020-07-04 06:00 2.82 318 701 (2015) 6 (2012) 146 17 27 41 47 110 152 162 441 597
2020-07-04 05:30 2.82 318 701 (2015) 6 (2012) 146 17 27 41 47 110 152 162 441 597
2020-07-04 05:00 2.83 321 701 (2015) 6 (2012) 146 17 27 41 47 110 152 162 441 597
2020-07-04 04:30 2.84 324 701 (2015) 6 (2012) 146 17 27 41 47 110 152 162 441 597
2020-07-04 04:00 2.84 324 701 (2015) 6 (2012) 146 17 27 41 47 110 152 162 441 597
2020-07-04 03:30 2.85 326 701 (2015) 6 (2012) 146 17 27 41 47 110 152 162 441 597
2020-07-04 03:00 2.86 329 701 (2015) 6 (2012) 146 17 27 41 47 110 152 162 441 597
2020-07-04 02:30 2.86 329 701 (2015) 6 (2012) 146 17 27 41 47 110 152 162 441 597
2020-07-04 02:00 2.87 332 701 (2015) 6 (2012) 146 17 27 41 47 110 152 162 441 597
2020-07-04 01:30 2.87 332 701 (2015) 6 (2012) 146 17 27 41 47 110 152 162 441 597
2020-07-04 01:00 2.88 335 701 (2015) 6 (2012) 146 17 27 41 47 110 152 162 441 597
2020-07-04 00:30 2.89 338 701 (2015) 6 (2012) 146 17 27 41 47 110 152 162 441 597
2020-07-04 00:00 2.89 338 701 (2015) 6 (2012) 146 17 27 41 47 110 152 162 441 597
2020-07-03 23:30 2.89 338 1610 (2015) 6 (2012) 183 17 30 42 49 89 165 174 432 1120
2020-07-03 23:00 2.89 338 1610 (2015) 6 (2012) 183 17 30 42 49 89 165 174 432 1120
2020-07-03 22:30 2.89 338 1610 (2015) 6 (2012) 183 17 30 42 49 89 165 174 432 1120
2020-07-03 22:00 2.89 338 1610 (2015) 6 (2012) 183 17 30 42 49 89 165 174 432 1120
2020-07-03 21:30 2.89 338 1610 (2015) 6 (2012) 183 17 30 42 49 89 165 174 432 1120
2020-07-03 21:00 2.90 340 1610 (2015) 6 (2012) 183 17 30 42 49 89 165 174 432 1120
2020-07-03 20:30 2.90 340 1610 (2015) 6 (2012) 183 17 30 42 49 89 165 174 432 1120
2020-07-03 20:00 2.91 343 1610 (2015) 6 (2012) 183 17 30 42 49 89 165 174 432 1120
2020-07-03 19:30 2.92 346 1610 (2015) 6 (2012) 183 17 30 42 49 89 165 174 432 1120
2020-07-03 19:00 2.93 349 1610 (2015) 6 (2012) 183 17 30 42 49 89 165 174 432 1120
2020-07-03 18:30 2.94 352 1610 (2015) 6 (2012) 183 17 30 42 49 89 165 174 432 1120
2020-07-03 18:00 2.95 355 1610 (2015) 6 (2012) 183 17 30 42 49 89 165 174 432 1120
2020-07-03 17:30 2.94 352 1610 (2015) 6 (2012) 183 17 30 42 49 89 165 174 432 1120
2020-07-03 17:00 2.93 349 1610 (2015) 6 (2012) 183 17 30 42 49 89 165 174 432 1120
2020-07-03 16:30 2.87 332 1610 (2015) 6 (2012) 183 17 30 42 49 89 165 174 432 1120
2020-07-03 16:00 2.92 346 1610 (2015) 6 (2012) 183 17 30 42 49 89 165 174 432 1120
2020-07-03 15:30 2.93 349 1610 (2015) 6 (2012) 183 17 30 42 49 89 165 174 432 1120
2020-07-03 15:00 2.94 352 1610 (2015) 6 (2012) 183 17 30 42 49 89 165 174 432 1120
2020-07-03 14:30 2.94 352 1610 (2015) 6 (2012) 183 17 30 42 49 89 165 174 432 1120
2020-07-03 14:00 2.93 349 1610 (2015) 6 (2012) 183 17 30 42 49 89 165 174 432 1120
2020-07-03 13:30 2.95 355 1610 (2015) 6 (2012) 183 17 30 42 49 89 165 174 432 1120
2020-07-03 13:00 2.95 355 1610 (2015) 6 (2012) 183 17 30 42 49 89 165 174 432 1120
2020-07-03 12:30 2.96 358 1610 (2015) 6 (2012) 183 17 30 42 49 89 165 174 432 1120
2020-07-03 12:00 2.96 358 1610 (2015) 6 (2012) 183 17 30 42 49 89 165 174 432 1120
2020-07-03 11:30 2.96 358 1610 (2015) 6 (2012) 183 17 30 42 49 89 165 174 432 1120
2020-07-03 11:00 2.96 358 1610 (2015) 6 (2012) 183 17 30 42 49 89 165 174 432 1120
2020-07-03 10:30 2.97 360 1610 (2015) 6 (2012) 183 17 30 42 49 89 165 174 432 1120
2020-07-03 10:00 2.97 360 1610 (2015) 6 (2012) 183 17 30 42 49 89 165 174 432 1120
2020-07-03 09:30 2.97 360 1610 (2015) 6 (2012) 183 17 30 42 49 89 165 174 432 1120
2020-07-03 09:00 2.97 360 1610 (2015) 6 (2012) 183 17 30 42 49 89 165 174 432 1120
2020-07-03 08:30 2.97 360 1610 (2015) 6 (2012) 183 17 30 42 49 89 165 174 432 1120
2020-07-03 08:00 2.97 360 1610 (2015) 6 (2012) 183 17 30 42 49 89 165 174 432 1120
2020-07-03 07:30 2.97 360 1610 (2015) 6 (2012) 183 17 30 42 49 89 165 174 432 1120
2020-07-03 07:00 2.98 363 1610 (2015) 6 (2012) 183 17 30 42 49 89 165 174 432 1120
2020-07-03 06:30 2.98 363 1610 (2015) 6 (2012) 183 17 30 42 49 89 165 174 432 1120
2020-07-03 06:00 2.98 363 1610 (2015) 6 (2012) 183 17 30 42 49 89 165 174 432 1120
2020-07-03 05:30 2.99 366 1610 (2015) 6 (2012) 183 17 30 42 49 89 165 174 432 1120
2020-07-03 05:00 2.99 366 1610 (2015) 6 (2012) 183 17 30 42 49 89 165 174 432 1120
2020-07-03 04:30 3.00 369 1610 (2015) 6 (2012) 183 17 30 42 49 89 165 174 432 1120
2020-07-03 04:00 3.00 369 1610 (2015) 6 (2012) 183 17 30 42 49 89 165 174 432 1120
2020-07-03 03:30 3.01 372 1610 (2015) 6 (2012) 183 17 30 42 49 89 165 174 432 1120
2020-07-03 03:00 3.02 375 1610 (2015) 6 (2012) 183 17 30 42 49 89 165 174 432 1120
2020-07-03 02:30 3.02 375 1610 (2015) 6 (2012) 183 17 30 42 49 89 165 174 432 1120
2020-07-03 02:00 3.03 378 1610 (2015) 6 (2012) 183 17 30 42 49 89 165 174 432 1120
2020-07-03 01:30 3.04 381 1610 (2015) 6 (2012) 183 17 30 42 49 89 165 174 432 1120
2020-07-03 01:00 3.05 384 1610 (2015) 6 (2012) 183 17 30 42 49 89 165 174 432 1120
2020-07-03 00:30 3.06 387 1610 (2015) 6 (2012) 183 17 30 42 49 89 165 174 432 1120
2020-07-03 00:00 3.07 390 1610 (2015) 6 (2012) 183 17 30 42 49 89 165 174 432 1120
2020-07-02 23:30 3.08 393 1560 (2015) 6 (2012) 208 14 34 45 58 91 206 274 463 1290
2020-07-02 23:00 3.09 396 1560 (2015) 6 (2012) 208 14 34 45 58 91 206 274 463 1290
2020-07-02 22:30 3.10 399 1560 (2015) 6 (2012) 208 14 34 45 58 91 206 274 463 1290
2020-07-02 22:00 3.11 402 1560 (2015) 6 (2012) 208 14 34 45 58 91 206 274 463 1290
2020-07-02 21:30 3.13 409 1560 (2015) 6 (2012) 208 14 34 45 58 91 206 274 463 1290
2020-07-02 21:00 3.13 409 1560 (2015) 6 (2012) 208 14 34 45 58 91 206 274 463 1290
2020-07-02 20:30 3.15 415 1560 (2015) 6 (2012) 208 14 34 45 58 91 206 274 463 1290
2020-07-02 20:00 3.16 418 1560 (2015) 6 (2012) 208 14 34 45 58 91 206 274 463 1290
2020-07-02 19:30 3.17 421 1560 (2015) 6 (2012) 208 14 34 45 58 91 206 274 463 1290
2020-07-02 19:00 3.19 428 1560 (2015) 6 (2012) 208 14 34 45 58 91 206 274 463 1290
2020-07-02 18:30 3.20 431 1560 (2015) 6 (2012) 208 14 34 45 58 91 206 274 463 1290
2020-07-02 18:00 3.21 434 1560 (2015) 6 (2012) 208 14 34 45 58 91 206 274 463 1290
2020-07-02 17:30 3.22 437 1560 (2015) 6 (2012) 208 14 34 45 58 91 206 274 463 1290
2020-07-02 17:00 3.24 444 1560 (2015) 6 (2012) 208 14 34 45 58 91 206 274 463 1290
2020-07-02 16:30 3.25 447 1560 (2015) 6 (2012) 208 14 34 45 58 91 206 274 463 1290
2020-07-02 16:00 3.26 450 1560 (2015) 6 (2012) 208 14 34 45 58 91 206 274 463 1290
2020-07-02 15:30 3.27 453 1560 (2015) 6 (2012) 208 14 34 45 58 91 206 274 463 1290
2020-07-02 15:00 3.29 460 1560 (2015) 6 (2012) 208 14 34 45 58 91 206 274 463 1290
2020-07-02 14:30 3.29 460 1560 (2015) 6 (2012) 208 14 34 45 58 91 206 274 463 1290
2020-07-02 14:00 3.30 463 1560 (2015) 6 (2012) 208 14 34 45 58 91 206 274 463 1290
2020-07-02 13:30 3.31 467 1560 (2015) 6 (2012) 208 14 34 45 58 91 206 274 463 1290
2020-07-02 13:00 3.32 470 1560 (2015) 6 (2012) 208 14 34 45 58 91 206 274 463 1290
2020-07-02 12:30 3.32 470 1560 (2015) 6 (2012) 208 14 34 45 58 91 206 274 463 1290
2020-07-02 12:00 3.32 470 1560 (2015) 6 (2012) 208 14 34 45 58 91 206 274 463 1290
2020-07-02 11:30 3.32 470 1560 (2015) 6 (2012) 208 14 34 45 58 91 206 274 463 1290
2020-07-02 11:00 3.32 470 1560 (2015) 6 (2012) 208 14 34 45 58 91 206 274 463 1290
2020-07-02 10:30 3.32 470 1560 (2015) 6 (2012) 208 14 34 45 58 91 206 274 463 1290
2020-07-02 10:00 3.33 473 1560 (2015) 6 (2012) 208 14 34 45 58 91 206 274 463 1290
2020-07-02 09:30 3.32 470 1560 (2015) 6 (2012) 208 14 34 45 58 91 206 274 463 1290
2020-07-02 09:00 3.33 473 1560 (2015) 6 (2012) 208 14 34 45 58 91 206 274 463 1290
2020-07-02 08:30 3.34 477 1560 (2015) 6 (2012) 208 14 34 45 58 91 206 274 463 1290
2020-07-02 08:00 3.34 477 1560 (2015) 6 (2012) 208 14 34 45 58 91 206 274 463 1290
2020-07-02 07:30 3.35 480 1560 (2015) 6 (2012) 208 14 34 45 58 91 206 274 463 1290
2020-07-02 07:00 3.37 487 1560 (2015) 6 (2012) 208 14 34 45 58 91 206 274 463 1290
2020-07-02 06:30 3.38 490 1560 (2015) 6 (2012) 208 14 34 45 58 91 206 274 463 1290
2020-07-02 06:00 3.40 497 1560 (2015) 6 (2012) 208 14 34 45 58 91 206 274 463 1290
2020-07-02 05:30 3.40 497 1560 (2015) 6 (2012) 208 14 34 45 58 91 206 274 463 1290
2020-07-02 05:00 3.43 508 1560 (2015) 6 (2012) 208 14 34 45 58 91 206 274 463 1290
2020-07-02 04:30 3.45 515 1560 (2015) 6 (2012) 208 14 34 45 58 91 206 274 463 1290
2020-07-02 04:00 3.47 522 1560 (2015) 6 (2012) 208 14 34 45 58 91 206 274 463 1290
2020-07-02 03:30 3.49 529 1560 (2015) 6 (2012) 208 14 34 45 58 91 206 274 463 1290
2020-07-02 03:00 3.51 536 1560 (2015) 6 (2012) 208 14 34 45 58 91 206 274 463 1290
2020-07-02 02:30 3.53 543 1560 (2015) 6 (2012) 208 14 34 45 58 91 206 274 463 1290
2020-07-02 02:00 3.57 558 1560 (2015) 6 (2012) 208 14 34 45 58 91 206 274 463 1290
2020-07-02 01:30 3.59 565 1560 (2015) 6 (2012) 208 14 34 45 58 91 206 274 463 1290
2020-07-02 01:00 3.62 576 1560 (2015) 6 (2012) 208 14 34 45 58 91 206 274 463 1290
2020-07-02 00:30 3.64 584 1560 (2015) 6 (2012) 208 14 34 45 58 91 206 274 463 1290
2020-07-02 00:00 3.67 595 1560 (2015) 6 (2012) 208 14 34 45 58 91 206 274 463 1290
2020-07-01 23:30 3.69 603 451 (2019) 7 (2012) 158 13 39 48 63 101 258 320 409 440
2020-07-01 23:00 3.71 611 451 (2019) 7 (2012) 158 13 39 48 63 101 258 320 409 440
2020-07-01 22:30 3.73 618 451 (2019) 7 (2012) 158 13 39 48 63 101 258 320 409 440
2020-07-01 22:00 3.72 615 451 (2019) 7 (2012) 158 13 39 48 63 101 258 320 409 440
2020-07-01 21:30 3.69 603 451 (2019) 7 (2012) 158 13 39 48 63 101 258 320 409 440
2020-07-01 21:00 3.63 580 451 (2019) 7 (2012) 158 13 39 48 63 101 258 320 409 440
2020-07-01 20:30 3.49 529 451 (2019) 7 (2012) 158 13 39 48 63 101 258 320 409 440
2020-07-01 20:00 3.28 457 451 (2019) 7 (2012) 158 13 39 48 63 101 258 320 409 440
2020-07-01 19:30 3.02 375 451 (2019) 7 (2012) 158 13 39 48 63 101 258 320 409 440
2020-07-01 19:00 2.82 318 451 (2019) 7 (2012) 158 13 39 48 63 101 258 320 409 440
2020-07-01 18:30 2.72 292 451 (2019) 7 (2012) 158 13 39 48 63 101 258 320 409 440
2020-07-01 18:00 2.70 286 451 (2019) 7 (2012) 158 13 39 48 63 101 258 320 409 440
2020-07-01 17:30 2.70 286 451 (2019) 7 (2012) 158 13 39 48 63 101 258 320 409 440
2020-07-01 17:00 2.70 286 451 (2019) 7 (2012) 158 13 39 48 63 101 258 320 409 440
2020-07-01 16:30 2.71 289 451 (2019) 7 (2012) 158 13 39 48 63 101 258 320 409 440
2020-07-01 16:00 2.71 289 451 (2019) 7 (2012) 158 13 39 48 63 101 258 320 409 440
2020-07-01 15:30 2.71 289 451 (2019) 7 (2012) 158 13 39 48 63 101 258 320 409 440
2020-07-01 15:00 2.71 289 451 (2019) 7 (2012) 158 13 39 48 63 101 258 320 409 440
2020-07-01 14:30 2.71 289 451 (2019) 7 (2012) 158 13 39 48 63 101 258 320 409 440
2020-07-01 14:00 2.70 286 451 (2019) 7 (2012) 158 13 39 48 63 101 258 320 409 440
2020-07-01 13:30 2.71 289 451 (2019) 7 (2012) 158 13 39 48 63 101 258 320 409 440
2020-07-01 13:00 2.71 289 451 (2019) 7 (2012) 158 13 39 48 63 101 258 320 409 440
2020-07-01 12:30 2.61 261 451 (2019) 7 (2012) 158 13 39 48 63 101 258 320 409 440
2020-07-01 12:00 2.62 264 451 (2019) 7 (2012) 158 13 39 48 63 101 258 320 409 440
2020-07-01 11:30 2.65 273 451 (2019) 7 (2012) 158 13 39 48 63 101 258 320 409 440
2020-07-01 11:00 2.66 276 451 (2019) 7 (2012) 158 13 39 48 63 101 258 320 409 440
2020-07-01 10:30 2.66 276 451 (2019) 7 (2012) 158 13 39 48 63 101 258 320 409 440
2020-07-01 10:00 2.66 276 451 (2019) 7 (2012) 158 13 39 48 63 101 258 320 409 440
2020-07-01 09:30 2.67 278 451 (2019) 7 (2012) 158 13 39 48 63 101 258 320 409 440
2020-07-01 09:00 2.67 278 451 (2019) 7 (2012) 158 13 39 48 63 101 258 320 409 440
2020-07-01 08:30 2.67 278 451 (2019) 7 (2012) 158 13 39 48 63 101 258 320 409 440
2020-07-01 08:00 2.67 278 451 (2019) 7 (2012) 158 13 39 48 63 101 258 320 409 440
2020-07-01 07:30 2.67 278 451 (2019) 7 (2012) 158 13 39 48 63 101 258 320 409 440
2020-07-01 07:00 2.68 281 451 (2019) 7 (2012) 158 13 39 48 63 101 258 320 409 440
2020-07-01 06:30 2.68 281 451 (2019) 7 (2012) 158 13 39 48 63 101 258 320 409 440
2020-07-01 06:00 2.68 281 451 (2019) 7 (2012) 158 13 39 48 63 101 258 320 409 440
2020-07-01 05:30 2.68 281 451 (2019) 7 (2012) 158 13 39 48 63 101 258 320 409 440
2020-07-01 05:00 2.69 284 451 (2019) 7 (2012) 158 13 39 48 63 101 258 320 409 440
2020-07-01 04:30 2.69 284 451 (2019) 7 (2012) 158 13 39 48 63 101 258 320 409 440
2020-07-01 04:00 2.69 284 451 (2019) 7 (2012) 158 13 39 48 63 101 258 320 409 440
2020-07-01 03:30 2.69 284 451 (2019) 7 (2012) 158 13 39 48 63 101 258 320 409 440
2020-07-01 03:00 2.69 284 451 (2019) 7 (2012) 158 13 39 48 63 101 258 320 409 440
2020-07-01 02:30 2.69 284 451 (2019) 7 (2012) 158 13 39 48 63 101 258 320 409 440
2020-07-01 02:00 2.69 284 451 (2019) 7 (2012) 158 13 39 48 63 101 258 320 409 440
2020-07-01 01:30 2.69 284 451 (2019) 7 (2012) 158 13 39 48 63 101 258 320 409 440
2020-07-01 01:00 2.69 284 451 (2019) 7 (2012) 158 13 39 48 63 101 258 320 409 440
2020-07-01 00:30 2.69 284 451 (2019) 7 (2012) 158 13 39 48 63 101 258 320 409 440
2020-07-01 00:00 2.69 284 451 (2019) 7 (2012) 158 13 39 48 63 101 258 320 409 440
2020-06-30 23:30 2.69 284 766 (2018) 7 (2012) 189 14 42 52 56 105 214 339 553 672
2020-06-30 23:00 2.69 284 766 (2018) 7 (2012) 189 14 42 52 56 105 214 339 553 672
2020-06-30 22:30 2.69 284 766 (2018) 7 (2012) 189 14 42 52 56 105 214 339 553 672
2020-06-30 22:00 2.70 286 766 (2018) 7 (2012) 189 14 42 52 56 105 214 339 553 672
2020-06-30 21:30 2.70 286 766 (2018) 7 (2012) 189 14 42 52 56 105 214 339 553 672
2020-06-30 21:00 2.70 286 766 (2018) 7 (2012) 189 14 42 52 56 105 214 339 553 672
2020-06-30 20:30 2.70 286 766 (2018) 7 (2012) 189 14 42 52 56 105 214 339 553 672
2020-06-30 20:00 2.70 286 766 (2018) 7 (2012) 189 14 42 52 56 105 214 339 553 672
2020-06-30 19:30 2.71 289 766 (2018) 7 (2012) 189 14 42 52 56 105 214 339 553 672
2020-06-30 19:00 2.71 289 766 (2018) 7 (2012) 189 14 42 52 56 105 214 339 553 672
2020-06-30 18:30 2.72 292 766 (2018) 7 (2012) 189 14 42 52 56 105 214 339 553 672
2020-06-30 18:00 2.72 292 766 (2018) 7 (2012) 189 14 42 52 56 105 214 339 553 672
2020-06-30 17:30 2.73 294 766 (2018) 7 (2012) 189 14 42 52 56 105 214 339 553 672
2020-06-30 17:00 2.65 273 766 (2018) 7 (2012) 189 14 42 52 56 105 214 339 553 672
2020-06-30 16:30 2.70 286 766 (2018) 7 (2012) 189 14 42 52 56 105 214 339 553 672
2020-06-30 16:00 2.75 300 766 (2018) 7 (2012) 189 14 42 52 56 105 214 339 553 672
2020-06-30 15:30 2.75 300 766 (2018) 7 (2012) 189 14 42 52 56 105 214 339 553 672
2020-06-30 15:00 2.75 300 766 (2018) 7 (2012) 189 14 42 52 56 105 214 339 553 672
2020-06-30 14:30 2.76 302 766 (2018) 7 (2012) 189 14 42 52 56 105 214 339 553 672
2020-06-30 14:00 2.77 305 766 (2018) 7 (2012) 189 14 42 52 56 105 214 339 553 672
2020-06-30 13:30 2.77 305 766 (2018) 7 (2012) 189 14 42 52 56 105 214 339 553 672
2020-06-30 13:00 2.78 307 766 (2018) 7 (2012) 189 14 42 52 56 105 214 339 553 672
2020-06-30 12:30 2.78 307 766 (2018) 7 (2012) 189 14 42 52 56 105 214 339 553 672
2020-06-30 12:00 2.79 310 766 (2018) 7 (2012) 189 14 42 52 56 105 214 339 553 672
2020-06-30 11:30 2.79 310 766 (2018) 7 (2012) 189 14 42 52 56 105 214 339 553 672
2020-06-30 11:00 2.80 313 766 (2018) 7 (2012) 189 14 42 52 56 105 214 339 553 672
2020-06-30 10:30 2.80 313 766 (2018) 7 (2012) 189 14 42 52 56 105 214 339 553 672
2020-06-30 10:00 2.80 313 766 (2018) 7 (2012) 189 14 42 52 56 105 214 339 553 672
2020-06-30 09:30 2.82 318 766 (2018) 7 (2012) 189 14 42 52 56 105 214 339 553 672
2020-06-30 09:00 2.82 318 766 (2018) 7 (2012) 189 14 42 52 56 105 214 339 553 672
2020-06-30 08:30 2.83 321 766 (2018) 7 (2012) 189 14 42 52 56 105 214 339 553 672
2020-06-30 08:00 2.83 321 766 (2018) 7 (2012) 189 14 42 52 56 105 214 339 553 672
2020-06-30 07:30 2.84 324 766 (2018) 7 (2012) 189 14 42 52 56 105 214 339 553 672
2020-06-30 07:00 2.84 324 766 (2018) 7 (2012) 189 14 42 52 56 105 214 339 553 672
2020-06-30 06:30 2.85 326 766 (2018) 7 (2012) 189 14 42 52 56 105 214 339 553 672
2020-06-30 06:00 2.85 326 766 (2018) 7 (2012) 189 14 42 52 56 105 214 339 553 672
2020-06-30 05:30 2.86 329 766 (2018) 7 (2012) 189 14 42 52 56 105 214 339 553 672
2020-06-30 05:00 2.87 332 766 (2018) 7 (2012) 189 14 42 52 56 105 214 339 553 672
2020-06-30 04:30 2.89 338 766 (2018) 7 (2012) 189 14 42 52 56 105 214 339 553 672
2020-06-30 04:00 2.89 338 766 (2018) 7 (2012) 189 14 42 52 56 105 214 339 553 672
2020-06-30 03:30 2.90 340 766 (2018) 7 (2012) 189 14 42 52 56 105 214 339 553 672
2020-06-30 03:00 2.91 343 766 (2018) 7 (2012) 189 14 42 52 56 105 214 339 553 672
2020-06-30 02:30 2.92 346 766 (2018) 7 (2012) 189 14 42 52 56 105 214 339 553 672
2020-06-30 02:00 2.93 349 766 (2018) 7 (2012) 189 14 42 52 56 105 214 339 553 672
2020-06-30 01:30 2.94 352 766 (2018) 7 (2012) 189 14 42 52 56 105 214 339 553 672
2020-06-30 01:00 2.95 355 766 (2018) 7 (2012) 189 14 42 52 56 105 214 339 553 672
2020-06-30 00:30 2.95 355 766 (2018) 7 (2012) 189 14 42 52 56 105 214 339 553 672
2020-06-30 00:00 2.97 360 766 (2018) 7 (2012) 189 14 42 52 56 105 214 339 553 672
2020-06-29 23:30 2.97 360 848 (2019) 8 (2012) 228 12 40 55 64 130 320 476 613 771
2020-06-29 23:00 2.98 363 848 (2019) 8 (2012) 228 12 40 55 64 130 320 476 613 771
2020-06-29 22:30 3.00 369 848 (2019) 8 (2012) 228 12 40 55 64 130 320 476 613 771
2020-06-29 22:00 3.01 372 848 (2019) 8 (2012) 228 12 40 55 64 130 320 476 613 771
2020-06-29 21:30 3.03 378 848 (2019) 8 (2012) 228 12 40 55 64 130 320 476 613 771
2020-06-29 21:00 3.03 378 848 (2019) 8 (2012) 228 12 40 55 64 130 320 476 613 771
2020-06-29 20:30 3.06 387 848 (2019) 8 (2012) 228 12 40 55 64 130 320 476 613 771
2020-06-29 20:00 3.07 390 848 (2019) 8 (2012) 228 12 40 55 64 130 320 476 613 771
2020-06-29 19:30 3.08 393 848 (2019) 8 (2012) 228 12 40 55 64 130 320 476 613 771
2020-06-29 19:00 3.10 399 848 (2019) 8 (2012) 228 12 40 55 64 130 320 476 613 771
2020-06-29 18:30 3.11 402 848 (2019) 8 (2012) 228 12 40 55 64 130 320 476 613 771
2020-06-29 18:00 3.13 409 848 (2019) 8 (2012) 228 12 40 55 64 130 320 476 613 771
2020-06-29 17:30 3.14 412 848 (2019) 8 (2012) 228 12 40 55 64 130 320 476 613 771
2020-06-29 17:00 3.16 418 848 (2019) 8 (2012) 228 12 40 55 64 130 320 476 613 771
2020-06-29 16:30 3.18 424 848 (2019) 8 (2012) 228 12 40 55 64 130 320 476 613 771
2020-06-29 16:00 3.20 431 848 (2019) 8 (2012) 228 12 40 55 64 130 320 476 613 771
2020-06-29 15:30 3.22 437 848 (2019) 8 (2012) 228 12 40 55 64 130 320 476 613 771
2020-06-29 15:00 3.24 444 848 (2019) 8 (2012) 228 12 40 55 64 130 320 476 613 771
2020-06-29 14:30 3.26 450 848 (2019) 8 (2012) 228 12 40 55 64 130 320 476 613 771
2020-06-29 14:00 3.28 457 848 (2019) 8 (2012) 228 12 40 55 64 130 320 476 613 771
2020-06-29 13:30 3.31 467 848 (2019) 8 (2012) 228 12 40 55 64 130 320 476 613 771
2020-06-29 13:00 3.33 473 848 (2019) 8 (2012) 228 12 40 55 64 130 320 476 613 771
2020-06-29 12:30 3.35 480 848 (2019) 8 (2012) 228 12 40 55 64 130 320 476 613 771
2020-06-29 12:00 3.37 487 848 (2019) 8 (2012) 228 12 40 55 64 130 320 476 613 771
2020-06-29 11:30 3.40 497 848 (2019) 8 (2012) 228 12 40 55 64 130 320 476 613 771
2020-06-29 11:00 3.43 508 848 (2019) 8 (2012) 228 12 40 55 64 130 320 476 613 771
2020-06-29 10:30 3.45 515 848 (2019) 8 (2012) 228 12 40 55 64 130 320 476 613 771
2020-06-29 10:00 3.48 525 848 (2019) 8 (2012) 228 12 40 55 64 130 320 476 613 771
2020-06-29 09:30 3.51 536 848 (2019) 8 (2012) 228 12 40 55 64 130 320 476 613 771
2020-06-29 09:00 3.53 543 848 (2019) 8 (2012) 228 12 40 55 64 130 320 476 613 771
2020-06-29 08:30 3.55 551 848 (2019) 8 (2012) 228 12 40 55 64 130 320 476 613 771
2020-06-29 08:00 3.55 551 848 (2019) 8 (2012) 228 12 40 55 64 130 320 476 613 771
2020-06-29 07:30 3.53 543 848 (2019) 8 (2012) 228 12 40 55 64 130 320 476 613 771
2020-06-29 07:00 3.47 522 848 (2019) 8 (2012) 228 12 40 55 64 130 320 476 613 771
2020-06-29 06:30 3.33 473 848 (2019) 8 (2012) 228 12 40 55 64 130 320 476 613 771
2020-06-29 06:00 3.06 387 848 (2019) 8 (2012) 228 12 40 55 64 130 320 476 613 771
2020-06-29 05:30 2.75 300 848 (2019) 8 (2012) 228 12 40 55 64 130 320 476 613 771
2020-06-29 05:00 2.53 239 848 (2019) 8 (2012) 228 12 40 55 64 130 320 476 613 771
2020-06-29 04:30 2.47 224 848 (2019) 8 (2012) 228 12 40 55 64 130 320 476 613 771
2020-06-29 04:00 2.47 224 848 (2019) 8 (2012) 228 12 40 55 64 130 320 476 613 771
2020-06-29 03:30 2.47 224 848 (2019) 8 (2012) 228 12 40 55 64 130 320 476 613 771
2020-06-29 03:00 2.47 224 848 (2019) 8 (2012) 228 12 40 55 64 130 320 476 613 771
2020-06-29 02:30 2.47 224 848 (2019) 8 (2012) 228 12 40 55 64 130 320 476 613 771
2020-06-29 02:00 2.47 224 848 (2019) 8 (2012) 228 12 40 55 64 130 320 476 613 771
2020-06-29 01:30 2.47 224 848 (2019) 8 (2012) 228 12 40 55 64 130 320 476 613 771
2020-06-29 01:00 2.47 224 848 (2019) 8 (2012) 228 12 40 55 64 130 320 476 613 771
2020-06-29 00:30 2.47 224 848 (2019) 8 (2012) 228 12 40 55 64 130 320 476 613 771
2020-06-29 00:00 2.47 224 848 (2019) 8 (2012) 228 12 40 55 64 130 320 476 613 771
2020-06-28 23:30 2.47 224 2500 (1983) 8 (2012) 343 10 39 65 68 119 416 459 914 2120
2020-06-28 23:00 2.47 224 2500 (1983) 8 (2012) 343 10 39 65 68 119 416 459 914 2120
2020-06-28 22:30 2.47 224 2500 (1983) 8 (2012) 343 10 39 65 68 119 416 459 914 2120
2020-06-28 22:00 2.48 226 2500 (1983) 8 (2012) 343 10 39 65 68 119 416 459 914 2120
2020-06-28 21:30 2.47 224 2500 (1983) 8 (2012) 343 10 39 65 68 119 416 459 914 2120
2020-06-28 21:00 2.47 224 2500 (1983) 8 (2012) 343 10 39 65 68 119 416 459 914 2120
2020-06-28 20:30 2.47 224 2500 (1983) 8 (2012) 343 10 39 65 68 119 416 459 914 2120
2020-06-28 20:00 2.47 224 2500 (1983) 8 (2012) 343 10 39 65 68 119 416 459 914 2120
2020-06-28 19:30 2.48 226 2500 (1983) 8 (2012) 343 10 39 65 68 119 416 459 914 2120
2020-06-28 19:00 2.48 226 2500 (1983) 8 (2012) 343 10 39 65 68 119 416 459 914 2120
2020-06-28 18:30 2.48 226 2500 (1983) 8 (2012) 343 10 39 65 68 119 416 459 914 2120
2020-06-28 18:00 2.48 226 2500 (1983) 8 (2012) 343 10 39 65 68 119 416 459 914 2120
2020-06-28 17:30 2.49 229 2500 (1983) 8 (2012) 343 10 39 65 68 119 416 459 914 2120
2020-06-28 17:00 2.49 229 2500 (1983) 8 (2012) 343 10 39 65 68 119 416 459 914 2120
2020-06-28 16:30 2.49 229 2500 (1983) 8 (2012) 343 10 39 65 68 119 416 459 914 2120
2020-06-28 16:00 2.49 229 2500 (1983) 8 (2012) 343 10 39 65 68 119 416 459 914 2120
2020-06-28 15:30 2.48 226 2500 (1983) 8 (2012) 343 10 39 65 68 119 416 459 914 2120
2020-06-28 15:00 2.49 229 2500 (1983) 8 (2012) 343 10 39 65 68 119 416 459 914 2120
2020-06-28 14:30 2.49 229 2500 (1983) 8 (2012) 343 10 39 65 68 119 416 459 914 2120
2020-06-28 14:00 2.49 229 2500 (1983) 8 (2012) 343 10 39 65 68 119 416 459 914 2120
2020-06-28 13:30 2.49 229 2500 (1983) 8 (2012) 343 10 39 65 68 119 416 459 914 2120
2020-06-28 13:00 2.50 231 2500 (1983) 8 (2012) 343 10 39 65 68 119 416 459 914 2120
2020-06-28 12:30 2.49 229 2500 (1983) 8 (2012) 343 10 39 65 68 119 416 459 914 2120
2020-06-28 12:00 2.49 229 2500 (1983) 8 (2012) 343 10 39 65 68 119 416 459 914 2120
2020-06-28 11:30 2.49 229 2500 (1983) 8 (2012) 343 10 39 65 68 119 416 459 914 2120
2020-06-28 11:00 2.49 229 2500 (1983) 8 (2012) 343 10 39 65 68 119 416 459 914 2120
2020-06-28 10:30 2.49 229 2500 (1983) 8 (2012) 343 10 39 65 68 119 416 459 914 2120
2020-06-28 10:00 2.49 229 2500 (1983) 8 (2012) 343 10 39 65 68 119 416 459 914 2120
2020-06-28 09:30 2.49 229 2500 (1983) 8 (2012) 343 10 39 65 68 119 416 459 914 2120
2020-06-28 09:00 2.49 229 2500 (1983) 8 (2012) 343 10 39 65 68 119 416 459 914 2120
2020-06-28 08:30 2.50 231